<?xml version="1.0" encoding="ISO-8859-1" standalone="yes"?>
<gpx
 version="1.1"
 creator="GPS Data Extractor 3.00c - http://www.topografix.com"
 xmlns:xsi="http://www.w3.org/2001/XMLSchema-instance"
 xmlns="http://www.topografix.com/GPX/1/1"
 xmlns:topografix="http://www.topografix.com/GPX/Private/TopoGrafix/0/2"
 xsi:schemaLocation="http://www.topografix.com/GPX/1/1 gpx.xsd
 http://www.topografix.com/GPX/Private/TopoGrafix/0/2 topografix.xsd">
<time>2007-05-07T07:28:36Z</time>
<bounds minlat="48.3106422" minlon="14.0847435" maxlat="48.3308258" maxlon="14.1685896"/>
<trk>
 <number>1</number>
 <name>1 (2013-09-28 09:57:57)</name>
<trkseg>
<trkpt lat="48.3308250" lon="14.1685900">
 <ele>129</ele><time>2013-09-28T08:57:57Z</time>
</trkpt>
<trkpt lat="48.3307983" lon="14.1684950">
 <ele>172</ele><time>2013-09-28T08:58:01Z</time>
</trkpt>
<trkpt lat="48.3307916" lon="14.1683683">
 <ele>193</ele><time>2013-09-28T08:58:05Z</time>
</trkpt>
<trkpt lat="48.3307533" lon="14.1682366">
 <ele>206</ele><time>2013-09-28T08:58:09Z</time>
</trkpt>
<trkpt lat="48.3307216" lon="14.1681100">
 <ele>214</ele><time>2013-09-28T08:58:13Z</time>
</trkpt>
<trkpt lat="48.3306883" lon="14.1680000">
 <ele>221</ele><time>2013-09-28T08:58:17Z</time>
</trkpt>
<trkpt lat="48.3306366" lon="14.1678650">
 <ele>226</ele><time>2013-09-28T08:58:21Z</time>
</trkpt>
<trkpt lat="48.3305916" lon="14.1677350">
 <ele>230</ele><time>2013-09-28T08:58:25Z</time>
</trkpt>
<trkpt lat="48.3305416" lon="14.1676000">
 <ele>233</ele><time>2013-09-28T08:58:29Z</time>
</trkpt>
<trkpt lat="48.3304800" lon="14.1674783">
 <ele>235</ele><time>2013-09-28T08:58:33Z</time>
</trkpt>
<trkpt lat="48.3304183" lon="14.1673450">
 <ele>237</ele><time>2013-09-28T08:58:37Z</time>
</trkpt>
<trkpt lat="48.3303616" lon="14.1672733">
 <ele>239</ele><time>2013-09-28T08:58:41Z</time>
</trkpt>
<trkpt lat="48.3302950" lon="14.1671933">
 <ele>240</ele><time>2013-09-28T08:58:45Z</time>
</trkpt>
<trkpt lat="48.3302050" lon="14.1671233">
 <ele>242</ele><time>2013-09-28T08:58:49Z</time>
</trkpt>
<trkpt lat="48.3301433" lon="14.1670233">
 <ele>243</ele><time>2013-09-28T08:58:53Z</time>
</trkpt>
<trkpt lat="48.3300866" lon="14.1669300">
 <ele>244</ele><time>2013-09-28T08:58:57Z</time>
</trkpt>
<trkpt lat="48.3300150" lon="14.1668650">
 <ele>245</ele><time>2013-09-28T08:59:01Z</time>
</trkpt>
<trkpt lat="48.3299566" lon="14.1667616">
 <ele>246</ele><time>2013-09-28T08:59:05Z</time>
</trkpt>
<trkpt lat="48.3299266" lon="14.1666683">
 <ele>247</ele><time>2013-09-28T08:59:09Z</time>
</trkpt>
<trkpt lat="48.3299333" lon="14.1665750">
 <ele>247</ele><time>2013-09-28T08:59:13Z</time>
</trkpt>
<trkpt lat="48.3299200" lon="14.1664400">
 <ele>248</ele><time>2013-09-28T08:59:17Z</time>
</trkpt>
<trkpt lat="48.3298983" lon="14.1662750">
 <ele>248</ele><time>2013-09-28T08:59:21Z</time>
</trkpt>
<trkpt lat="48.3298866" lon="14.1661433">
 <ele>249</ele><time>2013-09-28T08:59:25Z</time>
</trkpt>
<trkpt lat="48.3298883" lon="14.1660066">
 <ele>249</ele><time>2013-09-28T08:59:29Z</time>
</trkpt>
<trkpt lat="48.3298933" lon="14.1658716">
 <ele>249</ele><time>2013-09-28T08:59:33Z</time>
</trkpt>
<trkpt lat="48.3298500" lon="14.1657683">
 <ele>249</ele><time>2013-09-28T08:59:37Z</time>
</trkpt>
<trkpt lat="48.3297600" lon="14.1657183">
 <ele>250</ele><time>2013-09-28T08:59:41Z</time>
</trkpt>
<trkpt lat="48.3296750" lon="14.1657566">
 <ele>250</ele><time>2013-09-28T08:59:45Z</time>
</trkpt>
<trkpt lat="48.3296016" lon="14.1657800">
 <ele>250</ele><time>2013-09-28T08:59:49Z</time>
</trkpt>
<trkpt lat="48.3295216" lon="14.1657833">
 <ele>250</ele><time>2013-09-28T08:59:53Z</time>
</trkpt>
<trkpt lat="48.3294233" lon="14.1658366">
 <ele>250</ele><time>2013-09-28T08:59:57Z</time>
</trkpt>
<trkpt lat="48.3293550" lon="14.1659100">
 <ele>256</ele><time>2013-09-28T09:00:01Z</time>
</trkpt>
<trkpt lat="48.3292500" lon="14.1659683">
 <ele>256</ele><time>2013-09-28T09:00:05Z</time>
</trkpt>
<trkpt lat="48.3291800" lon="14.1660066">
 <ele>256</ele><time>2013-09-28T09:00:09Z</time>
</trkpt>
<trkpt lat="48.3291050" lon="14.1660600">
 <ele>255</ele><time>2013-09-28T09:00:13Z</time>
</trkpt>
<trkpt lat="48.3290133" lon="14.1661366">
 <ele>254</ele><time>2013-09-28T09:00:17Z</time>
</trkpt>
<trkpt lat="48.3289350" lon="14.1662066">
 <ele>254</ele><time>2013-09-28T09:00:21Z</time>
</trkpt>
<trkpt lat="48.3288650" lon="14.1662716">
 <ele>253</ele><time>2013-09-28T09:00:25Z</time>
</trkpt>
<trkpt lat="48.3287633" lon="14.1663450">
 <ele>254</ele><time>2013-09-28T09:00:29Z</time>
</trkpt>
<trkpt lat="48.3286850" lon="14.1663916">
 <ele>254</ele><time>2013-09-28T09:00:33Z</time>
</trkpt>
<trkpt lat="48.3286133" lon="14.1664133">
 <ele>255</ele><time>2013-09-28T09:00:37Z</time>
</trkpt>
<trkpt lat="48.3285533" lon="14.1664216">
 <ele>256</ele><time>2013-09-28T09:00:41Z</time>
</trkpt>
<trkpt lat="48.3284866" lon="14.1663566">
 <ele>257</ele><time>2013-09-28T09:00:45Z</time>
</trkpt>
<trkpt lat="48.3284166" lon="14.1662783">
 <ele>259</ele><time>2013-09-28T09:00:49Z</time>
</trkpt>
<trkpt lat="48.3282900" lon="14.1662300">
 <ele>259</ele><time>2013-09-28T09:00:53Z</time>
</trkpt>
<trkpt lat="48.3282433" lon="14.1661133">
 <ele>259</ele><time>2013-09-28T09:00:57Z</time>
</trkpt>
<trkpt lat="48.3282133" lon="14.1659833">
 <ele>258</ele><time>2013-09-28T09:01:01Z</time>
</trkpt>
<trkpt lat="48.3281733" lon="14.1658700">
 <ele>257</ele><time>2013-09-28T09:01:05Z</time>
</trkpt>
<trkpt lat="48.3281366" lon="14.1657783">
 <ele>256</ele><time>2013-09-28T09:01:09Z</time>
</trkpt>
<trkpt lat="48.3281233" lon="14.1656666">
 <ele>255</ele><time>2013-09-28T09:01:13Z</time>
</trkpt>
<trkpt lat="48.3280933" lon="14.1655533">
 <ele>254</ele><time>2013-09-28T09:01:17Z</time>
</trkpt>
<trkpt lat="48.3280933" lon="14.1654133">
 <ele>253</ele><time>2013-09-28T09:01:21Z</time>
</trkpt>
<trkpt lat="48.3280966" lon="14.1653066">
 <ele>252</ele><time>2013-09-28T09:01:25Z</time>
</trkpt>
<trkpt lat="48.3280933" lon="14.1651833">
 <ele>251</ele><time>2013-09-28T09:01:29Z</time>
</trkpt>
<trkpt lat="48.3280916" lon="14.1650616">
 <ele>250</ele><time>2013-09-28T09:01:33Z</time>
</trkpt>
<trkpt lat="48.3280816" lon="14.1649383">
 <ele>249</ele><time>2013-09-28T09:01:37Z</time>
</trkpt>
<trkpt lat="48.3280833" lon="14.1648316">
 <ele>248</ele><time>2013-09-28T09:01:41Z</time>
</trkpt>
<trkpt lat="48.3280883" lon="14.1647133">
 <ele>247</ele><time>2013-09-28T09:01:45Z</time>
</trkpt>
<trkpt lat="48.3280916" lon="14.1646400">
 <ele>245</ele><time>2013-09-28T09:01:49Z</time>
</trkpt>
<trkpt lat="48.3281133" lon="14.1644966">
 <ele>244</ele><time>2013-09-28T09:01:53Z</time>
</trkpt>
<trkpt lat="48.3281233" lon="14.1643300">
 <ele>244</ele><time>2013-09-28T09:01:57Z</time>
</trkpt>
<trkpt lat="48.3281133" lon="14.1641583">
 <ele>245</ele><time>2013-09-28T09:02:01Z</time>
</trkpt>
<trkpt lat="48.3280900" lon="14.1640183">
 <ele>246</ele><time>2013-09-28T09:02:05Z</time>
</trkpt>
<trkpt lat="48.3280616" lon="14.1638900">
 <ele>247</ele><time>2013-09-28T09:02:09Z</time>
</trkpt>
<trkpt lat="48.3280633" lon="14.1637466">
 <ele>248</ele><time>2013-09-28T09:02:13Z</time>
</trkpt>
<trkpt lat="48.3280566" lon="14.1635950">
 <ele>248</ele><time>2013-09-28T09:02:17Z</time>
</trkpt>
<trkpt lat="48.3280650" lon="14.1634350">
 <ele>248</ele><time>2013-09-28T09:02:21Z</time>
</trkpt>
<trkpt lat="48.3280666" lon="14.1633083">
 <ele>249</ele><time>2013-09-28T09:02:25Z</time>
</trkpt>
<trkpt lat="48.3280633" lon="14.1631816">
 <ele>250</ele><time>2013-09-28T09:02:29Z</time>
</trkpt>
<trkpt lat="48.3280383" lon="14.1630533">
 <ele>250</ele><time>2013-09-28T09:02:33Z</time>
</trkpt>
<trkpt lat="48.3280266" lon="14.1629350">
 <ele>251</ele><time>2013-09-28T09:02:37Z</time>
</trkpt>
<trkpt lat="48.3280066" lon="14.1628083">
 <ele>251</ele><time>2013-09-28T09:02:41Z</time>
</trkpt>
<trkpt lat="48.3280000" lon="14.1626983">
 <ele>251</ele><time>2013-09-28T09:02:45Z</time>
</trkpt>
<trkpt lat="48.3279883" lon="14.1626000">
 <ele>252</ele><time>2013-09-28T09:02:49Z</time>
</trkpt>
<trkpt lat="48.3279233" lon="14.1624900">
 <ele>252</ele><time>2013-09-28T09:02:53Z</time>
</trkpt>
<trkpt lat="48.3279033" lon="14.1623616">
 <ele>252</ele><time>2013-09-28T09:02:57Z</time>
</trkpt>
<trkpt lat="48.3278883" lon="14.1622466">
 <ele>252</ele><time>2013-09-28T09:03:01Z</time>
</trkpt>
<trkpt lat="48.3278466" lon="14.1621016">
 <ele>252</ele><time>2013-09-28T09:03:05Z</time>
</trkpt>
<trkpt lat="48.3278633" lon="14.1619550">
 <ele>252</ele><time>2013-09-28T09:03:09Z</time>
</trkpt>
<trkpt lat="48.3278333" lon="14.1618116">
 <ele>252</ele><time>2013-09-28T09:03:13Z</time>
</trkpt>
<trkpt lat="48.3278116" lon="14.1616800">
 <ele>252</ele><time>2013-09-28T09:03:17Z</time>
</trkpt>
<trkpt lat="48.3277683" lon="14.1615483">
 <ele>253</ele><time>2013-09-28T09:03:21Z</time>
</trkpt>
<trkpt lat="48.3277383" lon="14.1614116">
 <ele>255</ele><time>2013-09-28T09:03:25Z</time>
</trkpt>
<trkpt lat="48.3277316" lon="14.1612883">
 <ele>256</ele><time>2013-09-28T09:03:29Z</time>
</trkpt>
<trkpt lat="48.3277150" lon="14.1611466">
 <ele>256</ele><time>2013-09-28T09:03:33Z</time>
</trkpt>
<trkpt lat="48.3276800" lon="14.1610300">
 <ele>256</ele><time>2013-09-28T09:03:37Z</time>
</trkpt>
<trkpt lat="48.3276550" lon="14.1608833">
 <ele>255</ele><time>2013-09-28T09:03:41Z</time>
</trkpt>
<trkpt lat="48.3276083" lon="14.1607533">
 <ele>255</ele><time>2013-09-28T09:03:45Z</time>
</trkpt>
<trkpt lat="48.3275533" lon="14.1606183">
 <ele>255</ele><time>2013-09-28T09:03:49Z</time>
</trkpt>
<trkpt lat="48.3275016" lon="14.1605016">
 <ele>255</ele><time>2013-09-28T09:03:53Z</time>
</trkpt>
<trkpt lat="48.3274483" lon="14.1603883">
 <ele>255</ele><time>2013-09-28T09:03:57Z</time>
</trkpt>
<trkpt lat="48.3274166" lon="14.1602416">
 <ele>255</ele><time>2013-09-28T09:04:01Z</time>
</trkpt>
<trkpt lat="48.3273633" lon="14.1601233">
 <ele>255</ele><time>2013-09-28T09:04:05Z</time>
</trkpt>
<trkpt lat="48.3273316" lon="14.1600150">
 <ele>255</ele><time>2013-09-28T09:04:09Z</time>
</trkpt>
<trkpt lat="48.3272783" lon="14.1598983">
 <ele>255</ele><time>2013-09-28T09:04:13Z</time>
</trkpt>
<trkpt lat="48.3272166" lon="14.1597933">
 <ele>255</ele><time>2013-09-28T09:04:17Z</time>
</trkpt>
<trkpt lat="48.3271616" lon="14.1596683">
 <ele>256</ele><time>2013-09-28T09:04:21Z</time>
</trkpt>
<trkpt lat="48.3271050" lon="14.1595600">
 <ele>257</ele><time>2013-09-28T09:04:25Z</time>
</trkpt>
<trkpt lat="48.3270500" lon="14.1594383">
 <ele>258</ele><time>2013-09-28T09:04:29Z</time>
</trkpt>
<trkpt lat="48.3270300" lon="14.1593066">
 <ele>258</ele><time>2013-09-28T09:04:33Z</time>
</trkpt>
<trkpt lat="48.3269916" lon="14.1591933">
 <ele>259</ele><time>2013-09-28T09:04:37Z</time>
</trkpt>
<trkpt lat="48.3269583" lon="14.1590933">
 <ele>259</ele><time>2013-09-28T09:04:41Z</time>
</trkpt>
<trkpt lat="48.3269083" lon="14.1589516">
 <ele>258</ele><time>2013-09-28T09:04:45Z</time>
</trkpt>
<trkpt lat="48.3268716" lon="14.1588150">
 <ele>257</ele><time>2013-09-28T09:04:49Z</time>
</trkpt>
<trkpt lat="48.3268100" lon="14.1586566">
 <ele>256</ele><time>2013-09-28T09:04:53Z</time>
</trkpt>
<trkpt lat="48.3267650" lon="14.1585383">
 <ele>254</ele><time>2013-09-28T09:04:57Z</time>
</trkpt>
<trkpt lat="48.3267166" lon="14.1583966">
 <ele>253</ele><time>2013-09-28T09:05:01Z</time>
</trkpt>
<trkpt lat="48.3266716" lon="14.1582650">
 <ele>253</ele><time>2013-09-28T09:05:05Z</time>
</trkpt>
<trkpt lat="48.3266616" lon="14.1581066">
 <ele>253</ele><time>2013-09-28T09:05:09Z</time>
</trkpt>
<trkpt lat="48.3266100" lon="14.1579850">
 <ele>253</ele><time>2013-09-28T09:05:13Z</time>
</trkpt>
<trkpt lat="48.3265900" lon="14.1578183">
 <ele>253</ele><time>2013-09-28T09:05:17Z</time>
</trkpt>
<trkpt lat="48.3265583" lon="14.1576950">
 <ele>253</ele><time>2013-09-28T09:05:21Z</time>
</trkpt>
<trkpt lat="48.3265133" lon="14.1575716">
 <ele>253</ele><time>2013-09-28T09:05:25Z</time>
</trkpt>
<trkpt lat="48.3264533" lon="14.1574450">
 <ele>252</ele><time>2013-09-28T09:05:29Z</time>
</trkpt>
<trkpt lat="48.3263916" lon="14.1573450">
 <ele>252</ele><time>2013-09-28T09:05:33Z</time>
</trkpt>
<trkpt lat="48.3263166" lon="14.1572216">
 <ele>252</ele><time>2013-09-28T09:05:37Z</time>
</trkpt>
<trkpt lat="48.3262816" lon="14.1570916">
 <ele>252</ele><time>2013-09-28T09:05:41Z</time>
</trkpt>
<trkpt lat="48.3262550" lon="14.1569600">
 <ele>252</ele><time>2013-09-28T09:05:45Z</time>
</trkpt>
<trkpt lat="48.3262066" lon="14.1568300">
 <ele>252</ele><time>2013-09-28T09:05:49Z</time>
</trkpt>
<trkpt lat="48.3261750" lon="14.1567050">
 <ele>252</ele><time>2013-09-28T09:05:53Z</time>
</trkpt>
<trkpt lat="48.3261033" lon="14.1565766">
 <ele>252</ele><time>2013-09-28T09:05:57Z</time>
</trkpt>
<trkpt lat="48.3260633" lon="14.1564566">
 <ele>253</ele><time>2013-09-28T09:06:01Z</time>
</trkpt>
<trkpt lat="48.3260333" lon="14.1563283">
 <ele>254</ele><time>2013-09-28T09:06:05Z</time>
</trkpt>
<trkpt lat="48.3260066" lon="14.1562116">
 <ele>254</ele><time>2013-09-28T09:06:09Z</time>
</trkpt>
<trkpt lat="48.3259750" lon="14.1560800">
 <ele>254</ele><time>2013-09-28T09:06:13Z</time>
</trkpt>
<trkpt lat="48.3259216" lon="14.1559750">
 <ele>255</ele><time>2013-09-28T09:06:17Z</time>
</trkpt>
<trkpt lat="48.3258733" lon="14.1558416">
 <ele>255</ele><time>2013-09-28T09:06:21Z</time>
</trkpt>
<trkpt lat="48.3258333" lon="14.1557216">
 <ele>255</ele><time>2013-09-28T09:06:25Z</time>
</trkpt>
<trkpt lat="48.3257833" lon="14.1556033">
 <ele>255</ele><time>2013-09-28T09:06:29Z</time>
</trkpt>
<trkpt lat="48.3257500" lon="14.1554783">
 <ele>255</ele><time>2013-09-28T09:06:33Z</time>
</trkpt>
<trkpt lat="48.3257133" lon="14.1553616">
 <ele>254</ele><time>2013-09-28T09:06:37Z</time>
</trkpt>
<trkpt lat="48.3256716" lon="14.1552366">
 <ele>254</ele><time>2013-09-28T09:06:41Z</time>
</trkpt>
<trkpt lat="48.3256250" lon="14.1551150">
 <ele>254</ele><time>2013-09-28T09:06:45Z</time>
</trkpt>
<trkpt lat="48.3255900" lon="14.1549866">
 <ele>254</ele><time>2013-09-28T09:06:49Z</time>
</trkpt>
<trkpt lat="48.3255450" lon="14.1548516">
 <ele>255</ele><time>2013-09-28T09:06:53Z</time>
</trkpt>
<trkpt lat="48.3255083" lon="14.1547433">
 <ele>256</ele><time>2013-09-28T09:06:57Z</time>
</trkpt>
<trkpt lat="48.3254633" lon="14.1546100">
 <ele>257</ele><time>2013-09-28T09:07:01Z</time>
</trkpt>
<trkpt lat="48.3254316" lon="14.1544833">
 <ele>257</ele><time>2013-09-28T09:07:05Z</time>
</trkpt>
<trkpt lat="48.3253916" lon="14.1543566">
 <ele>257</ele><time>2013-09-28T09:07:09Z</time>
</trkpt>
<trkpt lat="48.3253633" lon="14.1542400">
 <ele>257</ele><time>2013-09-28T09:07:13Z</time>
</trkpt>
<trkpt lat="48.3253066" lon="14.1541316">
 <ele>256</ele><time>2013-09-28T09:07:17Z</time>
</trkpt>
<trkpt lat="48.3252566" lon="14.1540283">
 <ele>256</ele><time>2013-09-28T09:07:21Z</time>
</trkpt>
<trkpt lat="48.3252233" lon="14.1538866">
 <ele>256</ele><time>2013-09-28T09:07:25Z</time>
</trkpt>
<trkpt lat="48.3251983" lon="14.1537516">
 <ele>256</ele><time>2013-09-28T09:07:29Z</time>
</trkpt>
<trkpt lat="48.3251550" lon="14.1536166">
 <ele>256</ele><time>2013-09-28T09:07:33Z</time>
</trkpt>
<trkpt lat="48.3250983" lon="14.1534966">
 <ele>257</ele><time>2013-09-28T09:07:37Z</time>
</trkpt>
<trkpt lat="48.3250566" lon="14.1533600">
 <ele>258</ele><time>2013-09-28T09:07:41Z</time>
</trkpt>
<trkpt lat="48.3250150" lon="14.1532516">
 <ele>258</ele><time>2013-09-28T09:07:45Z</time>
</trkpt>
<trkpt lat="48.3249783" lon="14.1531233">
 <ele>259</ele><time>2013-09-28T09:07:49Z</time>
</trkpt>
<trkpt lat="48.3248850" lon="14.1530216">
 <ele>259</ele><time>2013-09-28T09:07:53Z</time>
</trkpt>
<trkpt lat="48.3248300" lon="14.1528883">
 <ele>258</ele><time>2013-09-28T09:07:57Z</time>
</trkpt>
<trkpt lat="48.3247933" lon="14.1527500">
 <ele>258</ele><time>2013-09-28T09:08:01Z</time>
</trkpt>
<trkpt lat="48.3247383" lon="14.1526000">
 <ele>258</ele><time>2013-09-28T09:08:05Z</time>
</trkpt>
<trkpt lat="48.3247166" lon="14.1524733">
 <ele>257</ele><time>2013-09-28T09:08:09Z</time>
</trkpt>
<trkpt lat="48.3246950" lon="14.1523466">
 <ele>256</ele><time>2013-09-28T09:08:13Z</time>
</trkpt>
<trkpt lat="48.3246650" lon="14.1522150">
 <ele>256</ele><time>2013-09-28T09:08:17Z</time>
</trkpt>
<trkpt lat="48.3246050" lon="14.1521100">
 <ele>255</ele><time>2013-09-28T09:08:21Z</time>
</trkpt>
<trkpt lat="48.3245466" lon="14.1519866">
 <ele>254</ele><time>2013-09-28T09:08:25Z</time>
</trkpt>
<trkpt lat="48.3245150" lon="14.1518500">
 <ele>254</ele><time>2013-09-28T09:08:29Z</time>
</trkpt>
<trkpt lat="48.3245000" lon="14.1517433">
 <ele>253</ele><time>2013-09-28T09:08:33Z</time>
</trkpt>
<trkpt lat="48.3244600" lon="14.1516283">
 <ele>253</ele><time>2013-09-28T09:08:37Z</time>
</trkpt>
<trkpt lat="48.3244316" lon="14.1514916">
 <ele>253</ele><time>2013-09-28T09:08:41Z</time>
</trkpt>
<trkpt lat="48.3243716" lon="14.1513516">
 <ele>252</ele><time>2013-09-28T09:08:45Z</time>
</trkpt>
<trkpt lat="48.3243266" lon="14.1512133">
 <ele>252</ele><time>2013-09-28T09:08:49Z</time>
</trkpt>
<trkpt lat="48.3243116" lon="14.1510883">
 <ele>252</ele><time>2013-09-28T09:08:53Z</time>
</trkpt>
<trkpt lat="48.3242883" lon="14.1509716">
 <ele>252</ele><time>2013-09-28T09:08:57Z</time>
</trkpt>
<trkpt lat="48.3242700" lon="14.1508483">
 <ele>253</ele><time>2013-09-28T09:09:01Z</time>
</trkpt>
<trkpt lat="48.3242466" lon="14.1507183">
 <ele>253</ele><time>2013-09-28T09:09:05Z</time>
</trkpt>
<trkpt lat="48.3242266" lon="14.1506133">
 <ele>253</ele><time>2013-09-28T09:09:09Z</time>
</trkpt>
<trkpt lat="48.3241900" lon="14.1504466">
 <ele>254</ele><time>2013-09-28T09:09:13Z</time>
</trkpt>
<trkpt lat="48.3241600" lon="14.1503416">
 <ele>254</ele><time>2013-09-28T09:09:17Z</time>
</trkpt>
<trkpt lat="48.3241166" lon="14.1502183">
 <ele>255</ele><time>2013-09-28T09:09:21Z</time>
</trkpt>
<trkpt lat="48.3240466" lon="14.1500983">
 <ele>255</ele><time>2013-09-28T09:09:25Z</time>
</trkpt>
<trkpt lat="48.3240016" lon="14.1499666">
 <ele>255</ele><time>2013-09-28T09:09:29Z</time>
</trkpt>
<trkpt lat="48.3239650" lon="14.1498433">
 <ele>256</ele><time>2013-09-28T09:09:33Z</time>
</trkpt>
<trkpt lat="48.3239083" lon="14.1497233">
 <ele>256</ele><time>2013-09-28T09:09:37Z</time>
</trkpt>
<trkpt lat="48.3238533" lon="14.1495883">
 <ele>257</ele><time>2013-09-28T09:09:41Z</time>
</trkpt>
<trkpt lat="48.3238116" lon="14.1494800">
 <ele>257</ele><time>2013-09-28T09:09:45Z</time>
</trkpt>
<trkpt lat="48.3237800" lon="14.1493500">
 <ele>258</ele><time>2013-09-28T09:09:49Z</time>
</trkpt>
<trkpt lat="48.3237416" lon="14.1492316">
 <ele>258</ele><time>2013-09-28T09:09:53Z</time>
</trkpt>
<trkpt lat="48.3237033" lon="14.1491083">
 <ele>258</ele><time>2013-09-28T09:09:57Z</time>
</trkpt>
<trkpt lat="48.3236666" lon="14.1490050">
 <ele>257</ele><time>2013-09-28T09:10:01Z</time>
</trkpt>
<trkpt lat="48.3236050" lon="14.1488933">
 <ele>256</ele><time>2013-09-28T09:10:05Z</time>
</trkpt>
<trkpt lat="48.3235583" lon="14.1487750">
 <ele>255</ele><time>2013-09-28T09:10:09Z</time>
</trkpt>
<trkpt lat="48.3235083" lon="14.1486800">
 <ele>254</ele><time>2013-09-28T09:10:13Z</time>
</trkpt>
<trkpt lat="48.3234683" lon="14.1485666">
 <ele>253</ele><time>2013-09-28T09:10:17Z</time>
</trkpt>
<trkpt lat="48.3234050" lon="14.1484700">
 <ele>252</ele><time>2013-09-28T09:10:21Z</time>
</trkpt>
<trkpt lat="48.3233266" lon="14.1483316">
 <ele>251</ele><time>2013-09-28T09:10:25Z</time>
</trkpt>
<trkpt lat="48.3232650" lon="14.1482350">
 <ele>251</ele><time>2013-09-28T09:10:29Z</time>
</trkpt>
<trkpt lat="48.3231966" lon="14.1481566">
 <ele>252</ele><time>2013-09-28T09:10:33Z</time>
</trkpt>
<trkpt lat="48.3231050" lon="14.1480700">
 <ele>252</ele><time>2013-09-28T09:10:37Z</time>
</trkpt>
<trkpt lat="48.3230400" lon="14.1479750">
 <ele>253</ele><time>2013-09-28T09:10:41Z</time>
</trkpt>
<trkpt lat="48.3229683" lon="14.1478800">
 <ele>254</ele><time>2013-09-28T09:10:45Z</time>
</trkpt>
<trkpt lat="48.3228983" lon="14.1478150">
 <ele>255</ele><time>2013-09-28T09:10:49Z</time>
</trkpt>
<trkpt lat="48.3228283" lon="14.1477750">
 <ele>255</ele><time>2013-09-28T09:10:53Z</time>
</trkpt>
<trkpt lat="48.3227366" lon="14.1477616">
 <ele>255</ele><time>2013-09-28T09:10:57Z</time>
</trkpt>
<trkpt lat="48.3226666" lon="14.1476950">
 <ele>255</ele><time>2013-09-28T09:11:01Z</time>
</trkpt>
<trkpt lat="48.3225950" lon="14.1476400">
 <ele>255</ele><time>2013-09-28T09:11:05Z</time>
</trkpt>
<trkpt lat="48.3225133" lon="14.1475750">
 <ele>255</ele><time>2013-09-28T09:11:09Z</time>
</trkpt>
<trkpt lat="48.3224266" lon="14.1474900">
 <ele>254</ele><time>2013-09-28T09:11:13Z</time>
</trkpt>
<trkpt lat="48.3223700" lon="14.1473633">
 <ele>253</ele><time>2013-09-28T09:11:17Z</time>
</trkpt>
<trkpt lat="48.3222850" lon="14.1472316">
 <ele>252</ele><time>2013-09-28T09:11:21Z</time>
</trkpt>
<trkpt lat="48.3222033" lon="14.1471333">
 <ele>252</ele><time>2013-09-28T09:11:25Z</time>
</trkpt>
<trkpt lat="48.3221450" lon="14.1470266">
 <ele>252</ele><time>2013-09-28T09:11:29Z</time>
</trkpt>
<trkpt lat="48.3221016" lon="14.1469016">
 <ele>252</ele><time>2013-09-28T09:11:33Z</time>
</trkpt>
<trkpt lat="48.3220483" lon="14.1467883">
 <ele>253</ele><time>2013-09-28T09:11:37Z</time>
</trkpt>
<trkpt lat="48.3219983" lon="14.1466683">
 <ele>252</ele><time>2013-09-28T09:11:41Z</time>
</trkpt>
<trkpt lat="48.3219466" lon="14.1465500">
 <ele>251</ele><time>2013-09-28T09:11:45Z</time>
</trkpt>
<trkpt lat="48.3219000" lon="14.1464400">
 <ele>250</ele><time>2013-09-28T09:11:49Z</time>
</trkpt>
<trkpt lat="48.3218583" lon="14.1463216">
 <ele>249</ele><time>2013-09-28T09:11:53Z</time>
</trkpt>
<trkpt lat="48.3218066" lon="14.1461933">
 <ele>248</ele><time>2013-09-28T09:11:57Z</time>
</trkpt>
<trkpt lat="48.3217400" lon="14.1460883">
 <ele>248</ele><time>2013-09-28T09:12:01Z</time>
</trkpt>
<trkpt lat="48.3216866" lon="14.1459933">
 <ele>248</ele><time>2013-09-28T09:12:05Z</time>
</trkpt>
<trkpt lat="48.3216200" lon="14.1459000">
 <ele>249</ele><time>2013-09-28T09:12:09Z</time>
</trkpt>
<trkpt lat="48.3215433" lon="14.1457833">
 <ele>250</ele><time>2013-09-28T09:12:13Z</time>
</trkpt>
<trkpt lat="48.3214916" lon="14.1456766">
 <ele>250</ele><time>2013-09-28T09:12:17Z</time>
</trkpt>
<trkpt lat="48.3214250" lon="14.1455266">
 <ele>251</ele><time>2013-09-28T09:12:21Z</time>
</trkpt>
<trkpt lat="48.3213783" lon="14.1453900">
 <ele>251</ele><time>2013-09-28T09:12:25Z</time>
</trkpt>
<trkpt lat="48.3213750" lon="14.1452800">
 <ele>251</ele><time>2013-09-28T09:12:29Z</time>
</trkpt>
<trkpt lat="48.3214200" lon="14.1451466">
 <ele>251</ele><time>2013-09-28T09:12:33Z</time>
</trkpt>
<trkpt lat="48.3214666" lon="14.1450533">
 <ele>251</ele><time>2013-09-28T09:12:37Z</time>
</trkpt>
<trkpt lat="48.3215233" lon="14.1449716">
 <ele>250</ele><time>2013-09-28T09:12:41Z</time>
</trkpt>
<trkpt lat="48.3215833" lon="14.1448833">
 <ele>249</ele><time>2013-09-28T09:12:45Z</time>
</trkpt>
<trkpt lat="48.3216483" lon="14.1447866">
 <ele>249</ele><time>2013-09-28T09:12:49Z</time>
</trkpt>
<trkpt lat="48.3217500" lon="14.1447350">
 <ele>248</ele><time>2013-09-28T09:12:53Z</time>
</trkpt>
<trkpt lat="48.3218166" lon="14.1446216">
 <ele>248</ele><time>2013-09-28T09:12:57Z</time>
</trkpt>
<trkpt lat="48.3218700" lon="14.1445083">
 <ele>249</ele><time>2013-09-28T09:13:01Z</time>
</trkpt>
<trkpt lat="48.3218750" lon="14.1443716">
 <ele>251</ele><time>2013-09-28T09:13:05Z</time>
</trkpt>
<trkpt lat="48.3218450" lon="14.1442766">
 <ele>252</ele><time>2013-09-28T09:13:09Z</time>
</trkpt>
<trkpt lat="48.3218183" lon="14.1441600">
 <ele>253</ele><time>2013-09-28T09:13:13Z</time>
</trkpt>
<trkpt lat="48.3217283" lon="14.1441000">
 <ele>252</ele><time>2013-09-28T09:13:17Z</time>
</trkpt>
<trkpt lat="48.3216283" lon="14.1440683">
 <ele>250</ele><time>2013-09-28T09:13:21Z</time>
</trkpt>
<trkpt lat="48.3215216" lon="14.1440816">
 <ele>249</ele><time>2013-09-28T09:13:25Z</time>
</trkpt>
<trkpt lat="48.3214300" lon="14.1440783">
 <ele>248</ele><time>2013-09-28T09:13:29Z</time>
</trkpt>
<trkpt lat="48.3213883" lon="14.1441116">
 <ele>247</ele><time>2013-09-28T09:13:33Z</time>
</trkpt>
<trkpt lat="48.3213666" lon="14.1442233">
 <ele>247</ele><time>2013-09-28T09:13:37Z</time>
</trkpt>
<trkpt lat="48.3213733" lon="14.1443400">
 <ele>247</ele><time>2013-09-28T09:13:41Z</time>
</trkpt>
<trkpt lat="48.3213766" lon="14.1444816">
 <ele>247</ele><time>2013-09-28T09:13:45Z</time>
</trkpt>
<trkpt lat="48.3213666" lon="14.1446033">
 <ele>246</ele><time>2013-09-28T09:13:49Z</time>
</trkpt>
<trkpt lat="48.3213333" lon="14.1447283">
 <ele>245</ele><time>2013-09-28T09:13:53Z</time>
</trkpt>
<trkpt lat="48.3212950" lon="14.1448466">
 <ele>243</ele><time>2013-09-28T09:13:57Z</time>
</trkpt>
<trkpt lat="48.3212683" lon="14.1449366">
 <ele>241</ele><time>2013-09-28T09:14:01Z</time>
</trkpt>
<trkpt lat="48.3212033" lon="14.1449650">
 <ele>239</ele><time>2013-09-28T09:14:05Z</time>
</trkpt>
<trkpt lat="48.3211616" lon="14.1449016">
 <ele>238</ele><time>2013-09-28T09:14:09Z</time>
</trkpt>
<trkpt lat="48.3211550" lon="14.1447916">
 <ele>238</ele><time>2013-09-28T09:14:13Z</time>
</trkpt>
<trkpt lat="48.3211416" lon="14.1446716">
 <ele>239</ele><time>2013-09-28T09:14:17Z</time>
</trkpt>
<trkpt lat="48.3211150" lon="14.1445500">
 <ele>240</ele><time>2013-09-28T09:14:21Z</time>
</trkpt>
<trkpt lat="48.3210633" lon="14.1444516">
 <ele>240</ele><time>2013-09-28T09:14:25Z</time>
</trkpt>
<trkpt lat="48.3210016" lon="14.1443466">
 <ele>241</ele><time>2013-09-28T09:14:29Z</time>
</trkpt>
<trkpt lat="48.3209800" lon="14.1442766">
 <ele>241</ele><time>2013-09-28T09:14:33Z</time>
</trkpt>
<trkpt lat="48.3209666" lon="14.1441883">
 <ele>242</ele><time>2013-09-28T09:14:37Z</time>
</trkpt>
<trkpt lat="48.3209283" lon="14.1440666">
 <ele>244</ele><time>2013-09-28T09:14:41Z</time>
</trkpt>
<trkpt lat="48.3208633" lon="14.1439650">
 <ele>246</ele><time>2013-09-28T09:14:45Z</time>
</trkpt>
<trkpt lat="48.3207800" lon="14.1438766">
 <ele>247</ele><time>2013-09-28T09:14:49Z</time>
</trkpt>
<trkpt lat="48.3207400" lon="14.1437633">
 <ele>248</ele><time>2013-09-28T09:14:53Z</time>
</trkpt>
<trkpt lat="48.3206683" lon="14.1436716">
 <ele>248</ele><time>2013-09-28T09:14:57Z</time>
</trkpt>
<trkpt lat="48.3205466" lon="14.1435866">
 <ele>248</ele><time>2013-09-28T09:15:01Z</time>
</trkpt>
<trkpt lat="48.3204816" lon="14.1434950">
 <ele>249</ele><time>2013-09-28T09:15:05Z</time>
</trkpt>
<trkpt lat="48.3204250" lon="14.1434033">
 <ele>250</ele><time>2013-09-28T09:15:09Z</time>
</trkpt>
<trkpt lat="48.3203716" lon="14.1432916">
 <ele>252</ele><time>2013-09-28T09:15:13Z</time>
</trkpt>
<trkpt lat="48.3203133" lon="14.1431833">
 <ele>253</ele><time>2013-09-28T09:15:17Z</time>
</trkpt>
<trkpt lat="48.3202483" lon="14.1430716">
 <ele>253</ele><time>2013-09-28T09:15:21Z</time>
</trkpt>
<trkpt lat="48.3202083" lon="14.1429850">
 <ele>254</ele><time>2013-09-28T09:15:25Z</time>
</trkpt>
<trkpt lat="48.3201466" lon="14.1428700">
 <ele>254</ele><time>2013-09-28T09:15:29Z</time>
</trkpt>
<trkpt lat="48.3201116" lon="14.1427516">
 <ele>253</ele><time>2013-09-28T09:15:33Z</time>
</trkpt>
<trkpt lat="48.3200400" lon="14.1426633">
 <ele>253</ele><time>2013-09-28T09:15:37Z</time>
</trkpt>
<trkpt lat="48.3199983" lon="14.1425533">
 <ele>253</ele><time>2013-09-28T09:15:41Z</time>
</trkpt>
<trkpt lat="48.3199283" lon="14.1424283">
 <ele>252</ele><time>2013-09-28T09:15:45Z</time>
</trkpt>
<trkpt lat="48.3198800" lon="14.1423100">
 <ele>251</ele><time>2013-09-28T09:15:49Z</time>
</trkpt>
<trkpt lat="48.3198216" lon="14.1421866">
 <ele>251</ele><time>2013-09-28T09:15:53Z</time>
</trkpt>
<trkpt lat="48.3197366" lon="14.1420866">
 <ele>250</ele><time>2013-09-28T09:15:57Z</time>
</trkpt>
<trkpt lat="48.3197133" lon="14.1419616">
 <ele>250</ele><time>2013-09-28T09:16:01Z</time>
</trkpt>
<trkpt lat="48.3196750" lon="14.1418400">
 <ele>250</ele><time>2013-09-28T09:16:05Z</time>
</trkpt>
<trkpt lat="48.3195866" lon="14.1417166">
 <ele>250</ele><time>2013-09-28T09:16:09Z</time>
</trkpt>
<trkpt lat="48.3195416" lon="14.1415983">
 <ele>250</ele><time>2013-09-28T09:16:13Z</time>
</trkpt>
<trkpt lat="48.3194900" lon="14.1415000">
 <ele>251</ele><time>2013-09-28T09:16:17Z</time>
</trkpt>
<trkpt lat="48.3194450" lon="14.1413833">
 <ele>252</ele><time>2013-09-28T09:16:21Z</time>
</trkpt>
<trkpt lat="48.3194066" lon="14.1412683">
 <ele>254</ele><time>2013-09-28T09:16:25Z</time>
</trkpt>
<trkpt lat="48.3193950" lon="14.1411466">
 <ele>254</ele><time>2013-09-28T09:16:29Z</time>
</trkpt>
<trkpt lat="48.3193716" lon="14.1410383">
 <ele>255</ele><time>2013-09-28T09:16:33Z</time>
</trkpt>
<trkpt lat="48.3193483" lon="14.1409250">
 <ele>255</ele><time>2013-09-28T09:16:37Z</time>
</trkpt>
<trkpt lat="48.3193066" lon="14.1408250">
 <ele>256</ele><time>2013-09-28T09:16:41Z</time>
</trkpt>
<trkpt lat="48.3192766" lon="14.1407166">
 <ele>257</ele><time>2013-09-28T09:16:45Z</time>
</trkpt>
<trkpt lat="48.3192316" lon="14.1406200">
 <ele>258</ele><time>2013-09-28T09:16:49Z</time>
</trkpt>
<trkpt lat="48.3192033" lon="14.1405216">
 <ele>258</ele><time>2013-09-28T09:16:53Z</time>
</trkpt>
<trkpt lat="48.3191733" lon="14.1404033">
 <ele>258</ele><time>2013-09-28T09:16:57Z</time>
</trkpt>
<trkpt lat="48.3191566" lon="14.1403000">
 <ele>257</ele><time>2013-09-28T09:17:01Z</time>
</trkpt>
<trkpt lat="48.3191316" lon="14.1401783">
 <ele>257</ele><time>2013-09-28T09:17:05Z</time>
</trkpt>
<trkpt lat="48.3191000" lon="14.1400566">
 <ele>256</ele><time>2013-09-28T09:17:09Z</time>
</trkpt>
<trkpt lat="48.3190583" lon="14.1399416">
 <ele>256</ele><time>2013-09-28T09:17:13Z</time>
</trkpt>
<trkpt lat="48.3190316" lon="14.1398250">
 <ele>256</ele><time>2013-09-28T09:17:17Z</time>
</trkpt>
<trkpt lat="48.3190016" lon="14.1397116">
 <ele>257</ele><time>2013-09-28T09:17:21Z</time>
</trkpt>
<trkpt lat="48.3189516" lon="14.1396050">
 <ele>257</ele><time>2013-09-28T09:17:25Z</time>
</trkpt>
<trkpt lat="48.3189350" lon="14.1394866">
 <ele>257</ele><time>2013-09-28T09:17:29Z</time>
</trkpt>
<trkpt lat="48.3189000" lon="14.1393616">
 <ele>256</ele><time>2013-09-28T09:17:33Z</time>
</trkpt>
<trkpt lat="48.3188700" lon="14.1392333">
 <ele>256</ele><time>2013-09-28T09:17:37Z</time>
</trkpt>
<trkpt lat="48.3188100" lon="14.1391333">
 <ele>256</ele><time>2013-09-28T09:17:41Z</time>
</trkpt>
<trkpt lat="48.3187733" lon="14.1390150">
 <ele>256</ele><time>2013-09-28T09:17:45Z</time>
</trkpt>
<trkpt lat="48.3187100" lon="14.1389066">
 <ele>256</ele><time>2013-09-28T09:17:49Z</time>
</trkpt>
<trkpt lat="48.3186533" lon="14.1388300">
 <ele>256</ele><time>2013-09-28T09:17:53Z</time>
</trkpt>
<trkpt lat="48.3186233" lon="14.1386966">
 <ele>256</ele><time>2013-09-28T09:17:57Z</time>
</trkpt>
<trkpt lat="48.3185650" lon="14.1385733">
 <ele>257</ele><time>2013-09-28T09:18:01Z</time>
</trkpt>
<trkpt lat="48.3184866" lon="14.1384900">
 <ele>257</ele><time>2013-09-28T09:18:05Z</time>
</trkpt>
<trkpt lat="48.3184166" lon="14.1384166">
 <ele>258</ele><time>2013-09-28T09:18:09Z</time>
</trkpt>
<trkpt lat="48.3183200" lon="14.1383783">
 <ele>258</ele><time>2013-09-28T09:18:13Z</time>
</trkpt>
<trkpt lat="48.3182116" lon="14.1383433">
 <ele>257</ele><time>2013-09-28T09:18:17Z</time>
</trkpt>
<trkpt lat="48.3181283" lon="14.1383183">
 <ele>256</ele><time>2013-09-28T09:18:21Z</time>
</trkpt>
<trkpt lat="48.3180216" lon="14.1382983">
 <ele>255</ele><time>2013-09-28T09:18:25Z</time>
</trkpt>
<trkpt lat="48.3179400" lon="14.1382700">
 <ele>253</ele><time>2013-09-28T09:18:29Z</time>
</trkpt>
<trkpt lat="48.3178783" lon="14.1381833">
 <ele>250</ele><time>2013-09-28T09:18:33Z</time>
</trkpt>
<trkpt lat="48.3178233" lon="14.1380816">
 <ele>248</ele><time>2013-09-28T09:18:37Z</time>
</trkpt>
<trkpt lat="48.3177750" lon="14.1380150">
 <ele>247</ele><time>2013-09-28T09:18:41Z</time>
</trkpt>
<trkpt lat="48.3177566" lon="14.1379216">
 <ele>245</ele><time>2013-09-28T09:18:45Z</time>
</trkpt>
<trkpt lat="48.3177283" lon="14.1378800">
 <ele>244</ele><time>2013-09-28T09:18:49Z</time>
</trkpt>
<trkpt lat="48.3177016" lon="14.1378383">
 <ele>243</ele><time>2013-09-28T09:18:53Z</time>
</trkpt>
<trkpt lat="48.3175333" lon="14.1377850">
 <ele>242</ele><time>2013-09-28T09:18:57Z</time>
</trkpt>
<trkpt lat="48.3174000" lon="14.1377783">
 <ele>241</ele><time>2013-09-28T09:19:01Z</time>
</trkpt>
<trkpt lat="48.3172916" lon="14.1377350">
 <ele>240</ele><time>2013-09-28T09:19:05Z</time>
</trkpt>
<trkpt lat="48.3172250" lon="14.1376800">
 <ele>238</ele><time>2013-09-28T09:19:09Z</time>
</trkpt>
<trkpt lat="48.3171616" lon="14.1376466">
 <ele>238</ele><time>2013-09-28T09:19:13Z</time>
</trkpt>
<trkpt lat="48.3170983" lon="14.1376216">
 <ele>237</ele><time>2013-09-28T09:19:17Z</time>
</trkpt>
<trkpt lat="48.3170016" lon="14.1375600">
 <ele>237</ele><time>2013-09-28T09:19:21Z</time>
</trkpt>
<trkpt lat="48.3169233" lon="14.1375666">
 <ele>237</ele><time>2013-09-28T09:19:25Z</time>
</trkpt>
<trkpt lat="48.3168066" lon="14.1375833">
 <ele>236</ele><time>2013-09-28T09:19:29Z</time>
</trkpt>
<trkpt lat="48.3167450" lon="14.1375466">
 <ele>236</ele><time>2013-09-28T09:19:33Z</time>
</trkpt>
<trkpt lat="48.3167000" lon="14.1375166">
 <ele>235</ele><time>2013-09-28T09:19:37Z</time>
</trkpt>
<trkpt lat="48.3166533" lon="14.1374850">
 <ele>235</ele><time>2013-09-28T09:19:41Z</time>
</trkpt>
<trkpt lat="48.3164916" lon="14.1374983">
 <ele>234</ele><time>2013-09-28T09:19:45Z</time>
</trkpt>
<trkpt lat="48.3163733" lon="14.1375716">
 <ele>233</ele><time>2013-09-28T09:19:49Z</time>
</trkpt>
<trkpt lat="48.3163150" lon="14.1376150">
 <ele>233</ele><time>2013-09-28T09:19:53Z</time>
</trkpt>
<trkpt lat="48.3162633" lon="14.1376416">
 <ele>234</ele><time>2013-09-28T09:19:57Z</time>
</trkpt>
<trkpt lat="48.3162116" lon="14.1376750">
 <ele>236</ele><time>2013-09-28T09:20:01Z</time>
</trkpt>
<trkpt lat="48.3161116" lon="14.1377450">
 <ele>237</ele><time>2013-09-28T09:20:05Z</time>
</trkpt>
<trkpt lat="48.3160483" lon="14.1378150">
 <ele>239</ele><time>2013-09-28T09:20:09Z</time>
</trkpt>
<trkpt lat="48.3159683" lon="14.1378850">
 <ele>240</ele><time>2013-09-28T09:20:13Z</time>
</trkpt>
<trkpt lat="48.3158966" lon="14.1379950">
 <ele>241</ele><time>2013-09-28T09:20:17Z</time>
</trkpt>
<trkpt lat="48.3158166" lon="14.1379466">
 <ele>243</ele><time>2013-09-28T09:20:21Z</time>
</trkpt>
<trkpt lat="48.3157600" lon="14.1378516">
 <ele>245</ele><time>2013-09-28T09:20:25Z</time>
</trkpt>
<trkpt lat="48.3157300" lon="14.1377133">
 <ele>246</ele><time>2013-09-28T09:20:29Z</time>
</trkpt>
<trkpt lat="48.3156900" lon="14.1375783">
 <ele>248</ele><time>2013-09-28T09:20:33Z</time>
</trkpt>
<trkpt lat="48.3156516" lon="14.1374566">
 <ele>250</ele><time>2013-09-28T09:20:37Z</time>
</trkpt>
<trkpt lat="48.3155950" lon="14.1373350">
 <ele>251</ele><time>2013-09-28T09:20:41Z</time>
</trkpt>
<trkpt lat="48.3155633" lon="14.1372050">
 <ele>253</ele><time>2013-09-28T09:20:45Z</time>
</trkpt>
<trkpt lat="48.3155033" lon="14.1370900">
 <ele>254</ele><time>2013-09-28T09:20:49Z</time>
</trkpt>
<trkpt lat="48.3154566" lon="14.1369650">
 <ele>255</ele><time>2013-09-28T09:20:53Z</time>
</trkpt>
<trkpt lat="48.3154050" lon="14.1368450">
 <ele>256</ele><time>2013-09-28T09:20:57Z</time>
</trkpt>
<trkpt lat="48.3153416" lon="14.1367283">
 <ele>256</ele><time>2013-09-28T09:21:01Z</time>
</trkpt>
<trkpt lat="48.3152916" lon="14.1366033">
 <ele>256</ele><time>2013-09-28T09:21:05Z</time>
</trkpt>
<trkpt lat="48.3152483" lon="14.1364850">
 <ele>257</ele><time>2013-09-28T09:21:09Z</time>
</trkpt>
<trkpt lat="48.3152166" lon="14.1363583">
 <ele>257</ele><time>2013-09-28T09:21:13Z</time>
</trkpt>
<trkpt lat="48.3151683" lon="14.1362400">
 <ele>257</ele><time>2013-09-28T09:21:17Z</time>
</trkpt>
<trkpt lat="48.3151233" lon="14.1361150">
 <ele>258</ele><time>2013-09-28T09:21:21Z</time>
</trkpt>
<trkpt lat="48.3150833" lon="14.1359916">
 <ele>258</ele><time>2013-09-28T09:21:25Z</time>
</trkpt>
<trkpt lat="48.3150383" lon="14.1358683">
 <ele>258</ele><time>2013-09-28T09:21:29Z</time>
</trkpt>
<trkpt lat="48.3150000" lon="14.1357466">
 <ele>258</ele><time>2013-09-28T09:21:33Z</time>
</trkpt>
<trkpt lat="48.3149583" lon="14.1356300">
 <ele>258</ele><time>2013-09-28T09:21:37Z</time>
</trkpt>
<trkpt lat="48.3149183" lon="14.1355050">
 <ele>258</ele><time>2013-09-28T09:21:41Z</time>
</trkpt>
<trkpt lat="48.3148766" lon="14.1353750">
 <ele>258</ele><time>2013-09-28T09:21:45Z</time>
</trkpt>
<trkpt lat="48.3148583" lon="14.1352383">
 <ele>259</ele><time>2013-09-28T09:21:49Z</time>
</trkpt>
<trkpt lat="48.3148216" lon="14.1351100">
 <ele>259</ele><time>2013-09-28T09:21:53Z</time>
</trkpt>
<trkpt lat="48.3147783" lon="14.1349883">
 <ele>259</ele><time>2013-09-28T09:21:57Z</time>
</trkpt>
<trkpt lat="48.3147366" lon="14.1348716">
 <ele>259</ele><time>2013-09-28T09:22:01Z</time>
</trkpt>
<trkpt lat="48.3146833" lon="14.1347633">
 <ele>258</ele><time>2013-09-28T09:22:05Z</time>
</trkpt>
<trkpt lat="48.3146383" lon="14.1346383">
 <ele>258</ele><time>2013-09-28T09:22:09Z</time>
</trkpt>
<trkpt lat="48.3146000" lon="14.1345183">
 <ele>258</ele><time>2013-09-28T09:22:13Z</time>
</trkpt>
<trkpt lat="48.3145633" lon="14.1343733">
 <ele>258</ele><time>2013-09-28T09:22:17Z</time>
</trkpt>
<trkpt lat="48.3145183" lon="14.1342483">
 <ele>258</ele><time>2013-09-28T09:22:21Z</time>
</trkpt>
<trkpt lat="48.3144750" lon="14.1341200">
 <ele>259</ele><time>2013-09-28T09:22:25Z</time>
</trkpt>
<trkpt lat="48.3144383" lon="14.1339866">
 <ele>259</ele><time>2013-09-28T09:22:29Z</time>
</trkpt>
<trkpt lat="48.3143850" lon="14.1338600">
 <ele>259</ele><time>2013-09-28T09:22:33Z</time>
</trkpt>
<trkpt lat="48.3143466" lon="14.1337500">
 <ele>259</ele><time>2013-09-28T09:22:37Z</time>
</trkpt>
<trkpt lat="48.3143133" lon="14.1336300">
 <ele>258</ele><time>2013-09-28T09:22:41Z</time>
</trkpt>
<trkpt lat="48.3142666" lon="14.1335083">
 <ele>258</ele><time>2013-09-28T09:22:45Z</time>
</trkpt>
<trkpt lat="48.3142150" lon="14.1333716">
 <ele>257</ele><time>2013-09-28T09:22:49Z</time>
</trkpt>
<trkpt lat="48.3141750" lon="14.1332466">
 <ele>257</ele><time>2013-09-28T09:22:53Z</time>
</trkpt>
<trkpt lat="48.3141433" lon="14.1331183">
 <ele>256</ele><time>2013-09-28T09:22:57Z</time>
</trkpt>
<trkpt lat="48.3141133" lon="14.1329950">
 <ele>256</ele><time>2013-09-28T09:23:01Z</time>
</trkpt>
<trkpt lat="48.3140766" lon="14.1328716">
 <ele>256</ele><time>2013-09-28T09:23:05Z</time>
</trkpt>
<trkpt lat="48.3140316" lon="14.1327650">
 <ele>256</ele><time>2013-09-28T09:23:09Z</time>
</trkpt>
<trkpt lat="48.3139833" lon="14.1326400">
 <ele>256</ele><time>2013-09-28T09:23:13Z</time>
</trkpt>
<trkpt lat="48.3139566" lon="14.1325116">
 <ele>256</ele><time>2013-09-28T09:23:17Z</time>
</trkpt>
<trkpt lat="48.3139150" lon="14.1323866">
 <ele>256</ele><time>2013-09-28T09:23:21Z</time>
</trkpt>
<trkpt lat="48.3138650" lon="14.1322800">
 <ele>256</ele><time>2013-09-28T09:23:25Z</time>
</trkpt>
<trkpt lat="48.3138216" lon="14.1321483">
 <ele>256</ele><time>2013-09-28T09:23:29Z</time>
</trkpt>
<trkpt lat="48.3137566" lon="14.1320383">
 <ele>256</ele><time>2013-09-28T09:23:33Z</time>
</trkpt>
<trkpt lat="48.3137333" lon="14.1319150">
 <ele>257</ele><time>2013-09-28T09:23:37Z</time>
</trkpt>
<trkpt lat="48.3136950" lon="14.1317800">
 <ele>257</ele><time>2013-09-28T09:23:41Z</time>
</trkpt>
<trkpt lat="48.3136466" lon="14.1316550">
 <ele>258</ele><time>2013-09-28T09:23:45Z</time>
</trkpt>
<trkpt lat="48.3136150" lon="14.1315316">
 <ele>258</ele><time>2013-09-28T09:23:49Z</time>
</trkpt>
<trkpt lat="48.3135766" lon="14.1314183">
 <ele>258</ele><time>2013-09-28T09:23:53Z</time>
</trkpt>
<trkpt lat="48.3135400" lon="14.1313016">
 <ele>257</ele><time>2013-09-28T09:23:57Z</time>
</trkpt>
<trkpt lat="48.3135033" lon="14.1311900">
 <ele>257</ele><time>2013-09-28T09:24:01Z</time>
</trkpt>
<trkpt lat="48.3134816" lon="14.1310950">
 <ele>257</ele><time>2013-09-28T09:24:05Z</time>
</trkpt>
<trkpt lat="48.3134400" lon="14.1310033">
 <ele>257</ele><time>2013-09-28T09:24:09Z</time>
</trkpt>
<trkpt lat="48.3134066" lon="14.1309233">
 <ele>257</ele><time>2013-09-28T09:24:13Z</time>
</trkpt>
<trkpt lat="48.3133766" lon="14.1308350">
 <ele>257</ele><time>2013-09-28T09:24:17Z</time>
</trkpt>
<trkpt lat="48.3133466" lon="14.1307550">
 <ele>257</ele><time>2013-09-28T09:24:21Z</time>
</trkpt>
<trkpt lat="48.3133300" lon="14.1306716">
 <ele>258</ele><time>2013-09-28T09:24:25Z</time>
</trkpt>
<trkpt lat="48.3133066" lon="14.1305766">
 <ele>258</ele><time>2013-09-28T09:24:29Z</time>
</trkpt>
<trkpt lat="48.3132716" lon="14.1305000">
 <ele>257</ele><time>2013-09-28T09:24:33Z</time>
</trkpt>
<trkpt lat="48.3132316" lon="14.1304166">
 <ele>257</ele><time>2013-09-28T09:24:37Z</time>
</trkpt>
<trkpt lat="48.3132033" lon="14.1303266">
 <ele>258</ele><time>2013-09-28T09:24:41Z</time>
</trkpt>
<trkpt lat="48.3131733" lon="14.1302350">
 <ele>258</ele><time>2013-09-28T09:24:45Z</time>
</trkpt>
<trkpt lat="48.3131633" lon="14.1301466">
 <ele>258</ele><time>2013-09-28T09:24:49Z</time>
</trkpt>
<trkpt lat="48.3131366" lon="14.1300600">
 <ele>258</ele><time>2013-09-28T09:24:53Z</time>
</trkpt>
<trkpt lat="48.3131000" lon="14.1299800">
 <ele>258</ele><time>2013-09-28T09:24:57Z</time>
</trkpt>
<trkpt lat="48.3130683" lon="14.1299016">
 <ele>258</ele><time>2013-09-28T09:25:01Z</time>
</trkpt>
<trkpt lat="48.3130366" lon="14.1298200">
 <ele>258</ele><time>2013-09-28T09:25:05Z</time>
</trkpt>
<trkpt lat="48.3129933" lon="14.1297300">
 <ele>258</ele><time>2013-09-28T09:25:09Z</time>
</trkpt>
<trkpt lat="48.3129716" lon="14.1296466">
 <ele>259</ele><time>2013-09-28T09:25:13Z</time>
</trkpt>
<trkpt lat="48.3129566" lon="14.1295650">
 <ele>259</ele><time>2013-09-28T09:25:17Z</time>
</trkpt>
<trkpt lat="48.3129316" lon="14.1294883">
 <ele>259</ele><time>2013-09-28T09:25:21Z</time>
</trkpt>
<trkpt lat="48.3129066" lon="14.1294000">
 <ele>259</ele><time>2013-09-28T09:25:25Z</time>
</trkpt>
<trkpt lat="48.3128766" lon="14.1293133">
 <ele>259</ele><time>2013-09-28T09:25:29Z</time>
</trkpt>
<trkpt lat="48.3128350" lon="14.1291966">
 <ele>259</ele><time>2013-09-28T09:25:33Z</time>
</trkpt>
<trkpt lat="48.3128016" lon="14.1290600">
 <ele>260</ele><time>2013-09-28T09:25:37Z</time>
</trkpt>
<trkpt lat="48.3127533" lon="14.1288850">
 <ele>260</ele><time>2013-09-28T09:25:41Z</time>
</trkpt>
<trkpt lat="48.3127200" lon="14.1287583">
 <ele>260</ele><time>2013-09-28T09:25:45Z</time>
</trkpt>
<trkpt lat="48.3126800" lon="14.1285966">
 <ele>260</ele><time>2013-09-28T09:25:49Z</time>
</trkpt>
<trkpt lat="48.3126200" lon="14.1284833">
 <ele>259</ele><time>2013-09-28T09:25:53Z</time>
</trkpt>
<trkpt lat="48.3125900" lon="14.1283566">
 <ele>258</ele><time>2013-09-28T09:25:57Z</time>
</trkpt>
<trkpt lat="48.3125683" lon="14.1282133">
 <ele>258</ele><time>2013-09-28T09:26:01Z</time>
</trkpt>
<trkpt lat="48.3125050" lon="14.1280850">
 <ele>257</ele><time>2013-09-28T09:26:05Z</time>
</trkpt>
<trkpt lat="48.3124633" lon="14.1279516">
 <ele>257</ele><time>2013-09-28T09:26:09Z</time>
</trkpt>
<trkpt lat="48.3124333" lon="14.1278150">
 <ele>256</ele><time>2013-09-28T09:26:13Z</time>
</trkpt>
<trkpt lat="48.3124166" lon="14.1276650">
 <ele>255</ele><time>2013-09-28T09:26:17Z</time>
</trkpt>
<trkpt lat="48.3123850" lon="14.1275100">
 <ele>254</ele><time>2013-09-28T09:26:21Z</time>
</trkpt>
<trkpt lat="48.3123583" lon="14.1273850">
 <ele>254</ele><time>2013-09-28T09:26:25Z</time>
</trkpt>
<trkpt lat="48.3123200" lon="14.1272466">
 <ele>253</ele><time>2013-09-28T09:26:29Z</time>
</trkpt>
<trkpt lat="48.3122883" lon="14.1271116">
 <ele>253</ele><time>2013-09-28T09:26:33Z</time>
</trkpt>
<trkpt lat="48.3122583" lon="14.1269750">
 <ele>253</ele><time>2013-09-28T09:26:37Z</time>
</trkpt>
<trkpt lat="48.3122166" lon="14.1268300">
 <ele>252</ele><time>2013-09-28T09:26:41Z</time>
</trkpt>
<trkpt lat="48.3121883" lon="14.1266833">
 <ele>252</ele><time>2013-09-28T09:26:45Z</time>
</trkpt>
<trkpt lat="48.3121383" lon="14.1265616">
 <ele>252</ele><time>2013-09-28T09:26:49Z</time>
</trkpt>
<trkpt lat="48.3120950" lon="14.1264200">
 <ele>252</ele><time>2013-09-28T09:26:53Z</time>
</trkpt>
<trkpt lat="48.3120550" lon="14.1262816">
 <ele>253</ele><time>2013-09-28T09:26:57Z</time>
</trkpt>
<trkpt lat="48.3120066" lon="14.1261333">
 <ele>253</ele><time>2013-09-28T09:27:01Z</time>
</trkpt>
<trkpt lat="48.3119783" lon="14.1260000">
 <ele>253</ele><time>2013-09-28T09:27:05Z</time>
</trkpt>
<trkpt lat="48.3119500" lon="14.1258533">
 <ele>253</ele><time>2013-09-28T09:27:09Z</time>
</trkpt>
<trkpt lat="48.3119033" lon="14.1257133">
 <ele>252</ele><time>2013-09-28T09:27:13Z</time>
</trkpt>
<trkpt lat="48.3118750" lon="14.1255766">
 <ele>252</ele><time>2013-09-28T09:27:17Z</time>
</trkpt>
<trkpt lat="48.3118333" lon="14.1254366">
 <ele>252</ele><time>2013-09-28T09:27:21Z</time>
</trkpt>
<trkpt lat="48.3118116" lon="14.1253050">
 <ele>251</ele><time>2013-09-28T09:27:25Z</time>
</trkpt>
<trkpt lat="48.3117600" lon="14.1251766">
 <ele>251</ele><time>2013-09-28T09:27:29Z</time>
</trkpt>
<trkpt lat="48.3117483" lon="14.1250266">
 <ele>250</ele><time>2013-09-28T09:27:33Z</time>
</trkpt>
<trkpt lat="48.3117233" lon="14.1249183">
 <ele>251</ele><time>2013-09-28T09:27:37Z</time>
</trkpt>
<trkpt lat="48.3116900" lon="14.1247883">
 <ele>251</ele><time>2013-09-28T09:27:41Z</time>
</trkpt>
<trkpt lat="48.3116650" lon="14.1246433">
 <ele>251</ele><time>2013-09-28T09:27:45Z</time>
</trkpt>
<trkpt lat="48.3116250" lon="14.1245066">
 <ele>252</ele><time>2013-09-28T09:27:49Z</time>
</trkpt>
<trkpt lat="48.3116033" lon="14.1243666">
 <ele>251</ele><time>2013-09-28T09:27:53Z</time>
</trkpt>
<trkpt lat="48.3115783" lon="14.1242216">
 <ele>251</ele><time>2013-09-28T09:27:57Z</time>
</trkpt>
<trkpt lat="48.3115450" lon="14.1241000">
 <ele>250</ele><time>2013-09-28T09:28:01Z</time>
</trkpt>
<trkpt lat="48.3114983" lon="14.1239533">
 <ele>250</ele><time>2013-09-28T09:28:05Z</time>
</trkpt>
<trkpt lat="48.3114766" lon="14.1238400">
 <ele>250</ele><time>2013-09-28T09:28:09Z</time>
</trkpt>
<trkpt lat="48.3114433" lon="14.1237150">
 <ele>252</ele><time>2013-09-28T09:28:13Z</time>
</trkpt>
<trkpt lat="48.3114066" lon="14.1235933">
 <ele>253</ele><time>2013-09-28T09:28:17Z</time>
</trkpt>
<trkpt lat="48.3113700" lon="14.1234583">
 <ele>255</ele><time>2013-09-28T09:28:21Z</time>
</trkpt>
<trkpt lat="48.3113466" lon="14.1233250">
 <ele>256</ele><time>2013-09-28T09:28:25Z</time>
</trkpt>
<trkpt lat="48.3113166" lon="14.1231933">
 <ele>257</ele><time>2013-09-28T09:28:29Z</time>
</trkpt>
<trkpt lat="48.3112933" lon="14.1230633">
 <ele>257</ele><time>2013-09-28T09:28:33Z</time>
</trkpt>
<trkpt lat="48.3112666" lon="14.1229216">
 <ele>258</ele><time>2013-09-28T09:28:37Z</time>
</trkpt>
<trkpt lat="48.3112416" lon="14.1228050">
 <ele>258</ele><time>2013-09-28T09:28:41Z</time>
</trkpt>
<trkpt lat="48.3112183" lon="14.1226716">
 <ele>258</ele><time>2013-09-28T09:28:45Z</time>
</trkpt>
<trkpt lat="48.3111850" lon="14.1225516">
 <ele>258</ele><time>2013-09-28T09:28:49Z</time>
</trkpt>
<trkpt lat="48.3111600" lon="14.1224216">
 <ele>258</ele><time>2013-09-28T09:28:53Z</time>
</trkpt>
<trkpt lat="48.3111333" lon="14.1222966">
 <ele>259</ele><time>2013-09-28T09:28:57Z</time>
</trkpt>
<trkpt lat="48.3111066" lon="14.1221683">
 <ele>260</ele><time>2013-09-28T09:29:01Z</time>
</trkpt>
<trkpt lat="48.3110900" lon="14.1220283">
 <ele>260</ele><time>2013-09-28T09:29:05Z</time>
</trkpt>
<trkpt lat="48.3110683" lon="14.1219016">
 <ele>260</ele><time>2013-09-28T09:29:09Z</time>
</trkpt>
<trkpt lat="48.3110433" lon="14.1217683">
 <ele>261</ele><time>2013-09-28T09:29:13Z</time>
</trkpt>
<trkpt lat="48.3110316" lon="14.1216333">
 <ele>261</ele><time>2013-09-28T09:29:17Z</time>
</trkpt>
<trkpt lat="48.3110133" lon="14.1215066">
 <ele>261</ele><time>2013-09-28T09:29:21Z</time>
</trkpt>
<trkpt lat="48.3109900" lon="14.1213783">
 <ele>261</ele><time>2013-09-28T09:29:25Z</time>
</trkpt>
<trkpt lat="48.3109716" lon="14.1212500">
 <ele>261</ele><time>2013-09-28T09:29:29Z</time>
</trkpt>
<trkpt lat="48.3109583" lon="14.1211133">
 <ele>261</ele><time>2013-09-28T09:29:33Z</time>
</trkpt>
<trkpt lat="48.3109250" lon="14.1209700">
 <ele>261</ele><time>2013-09-28T09:29:37Z</time>
</trkpt>
<trkpt lat="48.3109216" lon="14.1208400">
 <ele>261</ele><time>2013-09-28T09:29:41Z</time>
</trkpt>
<trkpt lat="48.3109150" lon="14.1207066">
 <ele>261</ele><time>2013-09-28T09:29:45Z</time>
</trkpt>
<trkpt lat="48.3108933" lon="14.1205666">
 <ele>261</ele><time>2013-09-28T09:29:49Z</time>
</trkpt>
<trkpt lat="48.3108816" lon="14.1204350">
 <ele>261</ele><time>2013-09-28T09:29:53Z</time>
</trkpt>
<trkpt lat="48.3108600" lon="14.1202950">
 <ele>260</ele><time>2013-09-28T09:29:57Z</time>
</trkpt>
<trkpt lat="48.3108433" lon="14.1201583">
 <ele>260</ele><time>2013-09-28T09:30:01Z</time>
</trkpt>
<trkpt lat="48.3108350" lon="14.1200233">
 <ele>261</ele><time>2013-09-28T09:30:05Z</time>
</trkpt>
<trkpt lat="48.3108183" lon="14.1198950">
 <ele>260</ele><time>2013-09-28T09:30:09Z</time>
</trkpt>
<trkpt lat="48.3108433" lon="14.1197283">
 <ele>260</ele><time>2013-09-28T09:30:13Z</time>
</trkpt>
<trkpt lat="48.3108200" lon="14.1196266">
 <ele>259</ele><time>2013-09-28T09:30:17Z</time>
</trkpt>
<trkpt lat="48.3108166" lon="14.1194783">
 <ele>258</ele><time>2013-09-28T09:30:21Z</time>
</trkpt>
<trkpt lat="48.3107983" lon="14.1193450">
 <ele>257</ele><time>2013-09-28T09:30:25Z</time>
</trkpt>
<trkpt lat="48.3107950" lon="14.1192083">
 <ele>256</ele><time>2013-09-28T09:30:29Z</time>
</trkpt>
<trkpt lat="48.3107800" lon="14.1190750">
 <ele>255</ele><time>2013-09-28T09:30:33Z</time>
</trkpt>
<trkpt lat="48.3107500" lon="14.1189283">
 <ele>254</ele><time>2013-09-28T09:30:37Z</time>
</trkpt>
<trkpt lat="48.3107200" lon="14.1187716">
 <ele>254</ele><time>2013-09-28T09:30:41Z</time>
</trkpt>
<trkpt lat="48.3107000" lon="14.1186416">
 <ele>255</ele><time>2013-09-28T09:30:45Z</time>
</trkpt>
<trkpt lat="48.3107116" lon="14.1184983">
 <ele>256</ele><time>2013-09-28T09:30:49Z</time>
</trkpt>
<trkpt lat="48.3107066" lon="14.1183750">
 <ele>257</ele><time>2013-09-28T09:30:53Z</time>
</trkpt>
<trkpt lat="48.3106883" lon="14.1182433">
 <ele>258</ele><time>2013-09-28T09:30:57Z</time>
</trkpt>
<trkpt lat="48.3106850" lon="14.1181016">
 <ele>257</ele><time>2013-09-28T09:31:01Z</time>
</trkpt>
<trkpt lat="48.3106700" lon="14.1179633">
 <ele>257</ele><time>2013-09-28T09:31:05Z</time>
</trkpt>
<trkpt lat="48.3106650" lon="14.1178233">
 <ele>257</ele><time>2013-09-28T09:31:09Z</time>
</trkpt>
<trkpt lat="48.3106616" lon="14.1176750">
 <ele>257</ele><time>2013-09-28T09:31:13Z</time>
</trkpt>
<trkpt lat="48.3106500" lon="14.1175550">
 <ele>257</ele><time>2013-09-28T09:31:17Z</time>
</trkpt>
<trkpt lat="48.3106466" lon="14.1174116">
 <ele>257</ele><time>2013-09-28T09:31:21Z</time>
</trkpt>
<trkpt lat="48.3106533" lon="14.1172750">
 <ele>257</ele><time>2013-09-28T09:31:25Z</time>
</trkpt>
<trkpt lat="48.3106533" lon="14.1171450">
 <ele>257</ele><time>2013-09-28T09:31:29Z</time>
</trkpt>
<trkpt lat="48.3106566" lon="14.1170166">
 <ele>257</ele><time>2013-09-28T09:31:33Z</time>
</trkpt>
<trkpt lat="48.3106666" lon="14.1168850">
 <ele>256</ele><time>2013-09-28T09:31:37Z</time>
</trkpt>
<trkpt lat="48.3106616" lon="14.1167300">
 <ele>256</ele><time>2013-09-28T09:31:41Z</time>
</trkpt>
<trkpt lat="48.3106600" lon="14.1165700">
 <ele>256</ele><time>2013-09-28T09:31:45Z</time>
</trkpt>
<trkpt lat="48.3106600" lon="14.1164333">
 <ele>256</ele><time>2013-09-28T09:31:49Z</time>
</trkpt>
<trkpt lat="48.3106483" lon="14.1162850">
 <ele>256</ele><time>2013-09-28T09:31:53Z</time>
</trkpt>
<trkpt lat="48.3106483" lon="14.1161633">
 <ele>257</ele><time>2013-09-28T09:31:57Z</time>
</trkpt>
<trkpt lat="48.3106533" lon="14.1160266">
 <ele>257</ele><time>2013-09-28T09:32:01Z</time>
</trkpt>
<trkpt lat="48.3106650" lon="14.1159016">
 <ele>258</ele><time>2013-09-28T09:32:05Z</time>
</trkpt>
<trkpt lat="48.3106650" lon="14.1157616">
 <ele>258</ele><time>2013-09-28T09:32:09Z</time>
</trkpt>
<trkpt lat="48.3106616" lon="14.1156300">
 <ele>259</ele><time>2013-09-28T09:32:13Z</time>
</trkpt>
<trkpt lat="48.3106683" lon="14.1154950">
 <ele>260</ele><time>2013-09-28T09:32:17Z</time>
</trkpt>
<trkpt lat="48.3106766" lon="14.1153516">
 <ele>261</ele><time>2013-09-28T09:32:21Z</time>
</trkpt>
<trkpt lat="48.3106950" lon="14.1152150">
 <ele>261</ele><time>2013-09-28T09:32:25Z</time>
</trkpt>
<trkpt lat="48.3107166" lon="14.1150666">
 <ele>261</ele><time>2013-09-28T09:32:29Z</time>
</trkpt>
<trkpt lat="48.3107166" lon="14.1149316">
 <ele>260</ele><time>2013-09-28T09:32:33Z</time>
</trkpt>
<trkpt lat="48.3107183" lon="14.1147966">
 <ele>260</ele><time>2013-09-28T09:32:37Z</time>
</trkpt>
<trkpt lat="48.3107366" lon="14.1146466">
 <ele>261</ele><time>2013-09-28T09:32:41Z</time>
</trkpt>
<trkpt lat="48.3107550" lon="14.1145283">
 <ele>261</ele><time>2013-09-28T09:32:45Z</time>
</trkpt>
<trkpt lat="48.3107733" lon="14.1143916">
 <ele>261</ele><time>2013-09-28T09:32:49Z</time>
</trkpt>
<trkpt lat="48.3107850" lon="14.1142516">
 <ele>261</ele><time>2013-09-28T09:32:53Z</time>
</trkpt>
<trkpt lat="48.3107933" lon="14.1141200">
 <ele>261</ele><time>2013-09-28T09:32:57Z</time>
</trkpt>
<trkpt lat="48.3108133" lon="14.1139600">
 <ele>261</ele><time>2013-09-28T09:33:01Z</time>
</trkpt>
<trkpt lat="48.3108316" lon="14.1138283">
 <ele>261</ele><time>2013-09-28T09:33:05Z</time>
</trkpt>
<trkpt lat="48.3108666" lon="14.1136983">
 <ele>261</ele><time>2013-09-28T09:33:09Z</time>
</trkpt>
<trkpt lat="48.3108950" lon="14.1135700">
 <ele>261</ele><time>2013-09-28T09:33:13Z</time>
</trkpt>
<trkpt lat="48.3109166" lon="14.1134350">
 <ele>260</ele><time>2013-09-28T09:33:17Z</time>
</trkpt>
<trkpt lat="48.3109466" lon="14.1132950">
 <ele>259</ele><time>2013-09-28T09:33:21Z</time>
</trkpt>
<trkpt lat="48.3109650" lon="14.1131550">
 <ele>257</ele><time>2013-09-28T09:33:25Z</time>
</trkpt>
<trkpt lat="48.3109916" lon="14.1130366">
 <ele>257</ele><time>2013-09-28T09:33:29Z</time>
</trkpt>
<trkpt lat="48.3110116" lon="14.1129033">
 <ele>256</ele><time>2013-09-28T09:33:33Z</time>
</trkpt>
<trkpt lat="48.3110433" lon="14.1127650">
 <ele>256</ele><time>2013-09-28T09:33:37Z</time>
</trkpt>
<trkpt lat="48.3110616" lon="14.1126433">
 <ele>256</ele><time>2013-09-28T09:33:41Z</time>
</trkpt>
<trkpt lat="48.3110850" lon="14.1125200">
 <ele>256</ele><time>2013-09-28T09:33:45Z</time>
</trkpt>
<trkpt lat="48.3111116" lon="14.1123966">
 <ele>257</ele><time>2013-09-28T09:33:49Z</time>
</trkpt>
<trkpt lat="48.3111466" lon="14.1122650">
 <ele>257</ele><time>2013-09-28T09:33:53Z</time>
</trkpt>
<trkpt lat="48.3111950" lon="14.1121383">
 <ele>257</ele><time>2013-09-28T09:33:57Z</time>
</trkpt>
<trkpt lat="48.3112250" lon="14.1120283">
 <ele>257</ele><time>2013-09-28T09:34:01Z</time>
</trkpt>
<trkpt lat="48.3112483" lon="14.1119016">
 <ele>256</ele><time>2013-09-28T09:34:05Z</time>
</trkpt>
<trkpt lat="48.3112733" lon="14.1117816">
 <ele>256</ele><time>2013-09-28T09:34:09Z</time>
</trkpt>
<trkpt lat="48.3113016" lon="14.1116450">
 <ele>256</ele><time>2013-09-28T09:34:13Z</time>
</trkpt>
<trkpt lat="48.3113416" lon="14.1115283">
 <ele>256</ele><time>2013-09-28T09:34:17Z</time>
</trkpt>
<trkpt lat="48.3113633" lon="14.1113516">
 <ele>256</ele><time>2013-09-28T09:34:21Z</time>
</trkpt>
<trkpt lat="48.3114233" lon="14.1112466">
 <ele>257</ele><time>2013-09-28T09:34:25Z</time>
</trkpt>
<trkpt lat="48.3114566" lon="14.1111300">
 <ele>257</ele><time>2013-09-28T09:34:29Z</time>
</trkpt>
<trkpt lat="48.3114700" lon="14.1110116">
 <ele>257</ele><time>2013-09-28T09:34:33Z</time>
</trkpt>
<trkpt lat="48.3115050" lon="14.1108866">
 <ele>258</ele><time>2013-09-28T09:34:37Z</time>
</trkpt>
<trkpt lat="48.3115483" lon="14.1107633">
 <ele>257</ele><time>2013-09-28T09:34:41Z</time>
</trkpt>
<trkpt lat="48.3115750" lon="14.1106366">
 <ele>257</ele><time>2013-09-28T09:34:45Z</time>
</trkpt>
<trkpt lat="48.3116133" lon="14.1105116">
 <ele>258</ele><time>2013-09-28T09:34:49Z</time>
</trkpt>
<trkpt lat="48.3116450" lon="14.1103800">
 <ele>258</ele><time>2013-09-28T09:34:53Z</time>
</trkpt>
<trkpt lat="48.3116766" lon="14.1102633">
 <ele>259</ele><time>2013-09-28T09:34:57Z</time>
</trkpt>
<trkpt lat="48.3117133" lon="14.1101316">
 <ele>260</ele><time>2013-09-28T09:35:01Z</time>
</trkpt>
<trkpt lat="48.3117500" lon="14.1100000">
 <ele>261</ele><time>2013-09-28T09:35:05Z</time>
</trkpt>
<trkpt lat="48.3117900" lon="14.1098666">
 <ele>261</ele><time>2013-09-28T09:35:09Z</time>
</trkpt>
<trkpt lat="48.3118416" lon="14.1097450">
 <ele>262</ele><time>2013-09-28T09:35:13Z</time>
</trkpt>
<trkpt lat="48.3118916" lon="14.1096316">
 <ele>262</ele><time>2013-09-28T09:35:17Z</time>
</trkpt>
<trkpt lat="48.3119183" lon="14.1094800">
 <ele>262</ele><time>2013-09-28T09:35:21Z</time>
</trkpt>
<trkpt lat="48.3119533" lon="14.1093516">
 <ele>262</ele><time>2013-09-28T09:35:25Z</time>
</trkpt>
<trkpt lat="48.3119866" lon="14.1092616">
 <ele>261</ele><time>2013-09-28T09:35:29Z</time>
</trkpt>
<trkpt lat="48.3120333" lon="14.1091000">
 <ele>261</ele><time>2013-09-28T09:35:33Z</time>
</trkpt>
<trkpt lat="48.3120783" lon="14.1089800">
 <ele>261</ele><time>2013-09-28T09:35:37Z</time>
</trkpt>
<trkpt lat="48.3121233" lon="14.1088666">
 <ele>261</ele><time>2013-09-28T09:35:41Z</time>
</trkpt>
<trkpt lat="48.3121616" lon="14.1087450">
 <ele>260</ele><time>2013-09-28T09:35:45Z</time>
</trkpt>
<trkpt lat="48.3121900" lon="14.1085950">
 <ele>259</ele><time>2013-09-28T09:35:49Z</time>
</trkpt>
<trkpt lat="48.3122300" lon="14.1084566">
 <ele>259</ele><time>2013-09-28T09:35:53Z</time>
</trkpt>
<trkpt lat="48.3122700" lon="14.1083233">
 <ele>259</ele><time>2013-09-28T09:35:57Z</time>
</trkpt>
<trkpt lat="48.3123083" lon="14.1081933">
 <ele>260</ele><time>2013-09-28T09:36:01Z</time>
</trkpt>
<trkpt lat="48.3123416" lon="14.1080633">
 <ele>260</ele><time>2013-09-28T09:36:05Z</time>
</trkpt>
<trkpt lat="48.3123866" lon="14.1079450">
 <ele>260</ele><time>2013-09-28T09:36:09Z</time>
</trkpt>
<trkpt lat="48.3124433" lon="14.1078183">
 <ele>260</ele><time>2013-09-28T09:36:13Z</time>
</trkpt>
<trkpt lat="48.3124666" lon="14.1077150">
 <ele>259</ele><time>2013-09-28T09:36:17Z</time>
</trkpt>
<trkpt lat="48.3125233" lon="14.1075966">
 <ele>259</ele><time>2013-09-28T09:36:21Z</time>
</trkpt>
<trkpt lat="48.3125466" lon="14.1074816">
 <ele>258</ele><time>2013-09-28T09:36:25Z</time>
</trkpt>
<trkpt lat="48.3125933" lon="14.1073566">
 <ele>257</ele><time>2013-09-28T09:36:29Z</time>
</trkpt>
<trkpt lat="48.3126500" lon="14.1072416">
 <ele>256</ele><time>2013-09-28T09:36:33Z</time>
</trkpt>
<trkpt lat="48.3126866" lon="14.1071150">
 <ele>255</ele><time>2013-09-28T09:36:37Z</time>
</trkpt>
<trkpt lat="48.3127066" lon="14.1069750">
 <ele>254</ele><time>2013-09-28T09:36:41Z</time>
</trkpt>
<trkpt lat="48.3127400" lon="14.1068350">
 <ele>255</ele><time>2013-09-28T09:36:45Z</time>
</trkpt>
<trkpt lat="48.3127783" lon="14.1067083">
 <ele>256</ele><time>2013-09-28T09:36:49Z</time>
</trkpt>
<trkpt lat="48.3128200" lon="14.1065750">
 <ele>257</ele><time>2013-09-28T09:36:53Z</time>
</trkpt>
<trkpt lat="48.3128700" lon="14.1064433">
 <ele>258</ele><time>2013-09-28T09:36:57Z</time>
</trkpt>
<trkpt lat="48.3129116" lon="14.1063350">
 <ele>259</ele><time>2013-09-28T09:37:01Z</time>
</trkpt>
<trkpt lat="48.3129600" lon="14.1062066">
 <ele>259</ele><time>2013-09-28T09:37:05Z</time>
</trkpt>
<trkpt lat="48.3129983" lon="14.1060966">
 <ele>258</ele><time>2013-09-28T09:37:09Z</time>
</trkpt>
<trkpt lat="48.3130366" lon="14.1059750">
 <ele>258</ele><time>2013-09-28T09:37:13Z</time>
</trkpt>
<trkpt lat="48.3130850" lon="14.1058533">
 <ele>258</ele><time>2013-09-28T09:37:17Z</time>
</trkpt>
<trkpt lat="48.3131200" lon="14.1057316">
 <ele>258</ele><time>2013-09-28T09:37:21Z</time>
</trkpt>
<trkpt lat="48.3131683" lon="14.1056100">
 <ele>259</ele><time>2013-09-28T09:37:25Z</time>
</trkpt>
<trkpt lat="48.3132083" lon="14.1054900">
 <ele>259</ele><time>2013-09-28T09:37:29Z</time>
</trkpt>
<trkpt lat="48.3132533" lon="14.1053700">
 <ele>260</ele><time>2013-09-28T09:37:33Z</time>
</trkpt>
<trkpt lat="48.3132983" lon="14.1052516">
 <ele>261</ele><time>2013-09-28T09:37:37Z</time>
</trkpt>
<trkpt lat="48.3133416" lon="14.1051383">
 <ele>261</ele><time>2013-09-28T09:37:41Z</time>
</trkpt>
<trkpt lat="48.3133850" lon="14.1050366">
 <ele>260</ele><time>2013-09-28T09:37:45Z</time>
</trkpt>
<trkpt lat="48.3134216" lon="14.1049050">
 <ele>260</ele><time>2013-09-28T09:37:49Z</time>
</trkpt>
<trkpt lat="48.3134633" lon="14.1047833">
 <ele>260</ele><time>2013-09-28T09:37:53Z</time>
</trkpt>
<trkpt lat="48.3135116" lon="14.1046550">
 <ele>260</ele><time>2013-09-28T09:37:57Z</time>
</trkpt>
<trkpt lat="48.3135500" lon="14.1045283">
 <ele>260</ele><time>2013-09-28T09:38:01Z</time>
</trkpt>
<trkpt lat="48.3135983" lon="14.1044133">
 <ele>261</ele><time>2013-09-28T09:38:05Z</time>
</trkpt>
<trkpt lat="48.3136500" lon="14.1042916">
 <ele>261</ele><time>2013-09-28T09:38:09Z</time>
</trkpt>
<trkpt lat="48.3137050" lon="14.1041900">
 <ele>261</ele><time>2013-09-28T09:38:13Z</time>
</trkpt>
<trkpt lat="48.3137500" lon="14.1040700">
 <ele>261</ele><time>2013-09-28T09:38:17Z</time>
</trkpt>
<trkpt lat="48.3138100" lon="14.1039700">
 <ele>261</ele><time>2013-09-28T09:38:21Z</time>
</trkpt>
<trkpt lat="48.3138633" lon="14.1038550">
 <ele>261</ele><time>2013-09-28T09:38:25Z</time>
</trkpt>
<trkpt lat="48.3139100" lon="14.1037300">
 <ele>261</ele><time>2013-09-28T09:38:29Z</time>
</trkpt>
<trkpt lat="48.3139566" lon="14.1036033">
 <ele>261</ele><time>2013-09-28T09:38:33Z</time>
</trkpt>
<trkpt lat="48.3140100" lon="14.1034866">
 <ele>260</ele><time>2013-09-28T09:38:37Z</time>
</trkpt>
<trkpt lat="48.3140633" lon="14.1033816">
 <ele>260</ele><time>2013-09-28T09:38:41Z</time>
</trkpt>
<trkpt lat="48.3141200" lon="14.1032533">
 <ele>259</ele><time>2013-09-28T09:38:45Z</time>
</trkpt>
<trkpt lat="48.3141700" lon="14.1031333">
 <ele>259</ele><time>2013-09-28T09:38:49Z</time>
</trkpt>
<trkpt lat="48.3142166" lon="14.1030050">
 <ele>258</ele><time>2013-09-28T09:38:53Z</time>
</trkpt>
<trkpt lat="48.3142716" lon="14.1028916">
 <ele>258</ele><time>2013-09-28T09:38:57Z</time>
</trkpt>
<trkpt lat="48.3143200" lon="14.1027833">
 <ele>258</ele><time>2013-09-28T09:39:01Z</time>
</trkpt>
<trkpt lat="48.3143783" lon="14.1026816">
 <ele>258</ele><time>2013-09-28T09:39:05Z</time>
</trkpt>
<trkpt lat="48.3144133" lon="14.1025666">
 <ele>258</ele><time>2013-09-28T09:39:09Z</time>
</trkpt>
<trkpt lat="48.3144583" lon="14.1024500">
 <ele>258</ele><time>2013-09-28T09:39:13Z</time>
</trkpt>
<trkpt lat="48.3144983" lon="14.1023466">
 <ele>257</ele><time>2013-09-28T09:39:17Z</time>
</trkpt>
<trkpt lat="48.3145533" lon="14.1022383">
 <ele>257</ele><time>2013-09-28T09:39:21Z</time>
</trkpt>
<trkpt lat="48.3146083" lon="14.1021266">
 <ele>257</ele><time>2013-09-28T09:39:25Z</time>
</trkpt>
<trkpt lat="48.3146600" lon="14.1019950">
 <ele>257</ele><time>2013-09-28T09:39:29Z</time>
</trkpt>
<trkpt lat="48.3146766" lon="14.1018250">
 <ele>256</ele><time>2013-09-28T09:39:33Z</time>
</trkpt>
<trkpt lat="48.3147233" lon="14.1017050">
 <ele>257</ele><time>2013-09-28T09:39:37Z</time>
</trkpt>
<trkpt lat="48.3147750" lon="14.1016116">
 <ele>258</ele><time>2013-09-28T09:39:41Z</time>
</trkpt>
<trkpt lat="48.3148283" lon="14.1014883">
 <ele>258</ele><time>2013-09-28T09:39:45Z</time>
</trkpt>
<trkpt lat="48.3148883" lon="14.1013750">
 <ele>258</ele><time>2013-09-28T09:39:49Z</time>
</trkpt>
<trkpt lat="48.3149183" lon="14.1012483">
 <ele>257</ele><time>2013-09-28T09:39:53Z</time>
</trkpt>
<trkpt lat="48.3149550" lon="14.1011400">
 <ele>256</ele><time>2013-09-28T09:39:57Z</time>
</trkpt>
<trkpt lat="48.3150016" lon="14.1010316">
 <ele>255</ele><time>2013-09-28T09:40:01Z</time>
</trkpt>
<trkpt lat="48.3150466" lon="14.1009183">
 <ele>254</ele><time>2013-09-28T09:40:05Z</time>
</trkpt>
<trkpt lat="48.3150866" lon="14.1007866">
 <ele>254</ele><time>2013-09-28T09:40:09Z</time>
</trkpt>
<trkpt lat="48.3151250" lon="14.1006750">
 <ele>254</ele><time>2013-09-28T09:40:13Z</time>
</trkpt>
<trkpt lat="48.3151650" lon="14.1005533">
 <ele>254</ele><time>2013-09-28T09:40:17Z</time>
</trkpt>
<trkpt lat="48.3152050" lon="14.1004283">
 <ele>255</ele><time>2013-09-28T09:40:21Z</time>
</trkpt>
<trkpt lat="48.3152300" lon="14.1002900">
 <ele>256</ele><time>2013-09-28T09:40:25Z</time>
</trkpt>
<trkpt lat="48.3152866" lon="14.1001716">
 <ele>256</ele><time>2013-09-28T09:40:29Z</time>
</trkpt>
<trkpt lat="48.3153183" lon="14.1000416">
 <ele>257</ele><time>2013-09-28T09:40:33Z</time>
</trkpt>
<trkpt lat="48.3153583" lon="14.0999283">
 <ele>258</ele><time>2013-09-28T09:40:37Z</time>
</trkpt>
<trkpt lat="48.3154016" lon="14.0998150">
 <ele>258</ele><time>2013-09-28T09:40:41Z</time>
</trkpt>
<trkpt lat="48.3154216" lon="14.0996400">
 <ele>258</ele><time>2013-09-28T09:40:45Z</time>
</trkpt>
<trkpt lat="48.3154683" lon="14.0995100">
 <ele>258</ele><time>2013-09-28T09:40:49Z</time>
</trkpt>
<trkpt lat="48.3155000" lon="14.0993900">
 <ele>259</ele><time>2013-09-28T09:40:53Z</time>
</trkpt>
<trkpt lat="48.3155333" lon="14.0992766">
 <ele>259</ele><time>2013-09-28T09:40:57Z</time>
</trkpt>
<trkpt lat="48.3155616" lon="14.0991483">
 <ele>260</ele><time>2013-09-28T09:41:01Z</time>
</trkpt>
<trkpt lat="48.3156033" lon="14.0990500">
 <ele>260</ele><time>2013-09-28T09:41:05Z</time>
</trkpt>
<trkpt lat="48.3156433" lon="14.0989333">
 <ele>260</ele><time>2013-09-28T09:41:09Z</time>
</trkpt>
<trkpt lat="48.3156800" lon="14.0988216">
 <ele>260</ele><time>2013-09-28T09:41:13Z</time>
</trkpt>
<trkpt lat="48.3157150" lon="14.0987000">
 <ele>260</ele><time>2013-09-28T09:41:17Z</time>
</trkpt>
<trkpt lat="48.3157500" lon="14.0985716">
 <ele>259</ele><time>2013-09-28T09:41:21Z</time>
</trkpt>
<trkpt lat="48.3157850" lon="14.0984450">
 <ele>259</ele><time>2013-09-28T09:41:25Z</time>
</trkpt>
<trkpt lat="48.3158133" lon="14.0983233">
 <ele>259</ele><time>2013-09-28T09:41:29Z</time>
</trkpt>
<trkpt lat="48.3158433" lon="14.0982050">
 <ele>259</ele><time>2013-09-28T09:41:33Z</time>
</trkpt>
<trkpt lat="48.3158816" lon="14.0980816">
 <ele>260</ele><time>2013-09-28T09:41:37Z</time>
</trkpt>
<trkpt lat="48.3159050" lon="14.0979616">
 <ele>260</ele><time>2013-09-28T09:41:41Z</time>
</trkpt>
<trkpt lat="48.3159350" lon="14.0978333">
 <ele>261</ele><time>2013-09-28T09:41:45Z</time>
</trkpt>
<trkpt lat="48.3159716" lon="14.0977116">
 <ele>260</ele><time>2013-09-28T09:41:49Z</time>
</trkpt>
<trkpt lat="48.3160066" lon="14.0976016">
 <ele>260</ele><time>2013-09-28T09:41:53Z</time>
</trkpt>
<trkpt lat="48.3160433" lon="14.0974900">
 <ele>259</ele><time>2013-09-28T09:41:57Z</time>
</trkpt>
<trkpt lat="48.3160850" lon="14.0973816">
 <ele>259</ele><time>2013-09-28T09:42:01Z</time>
</trkpt>
<trkpt lat="48.3161316" lon="14.0972816">
 <ele>259</ele><time>2013-09-28T09:42:05Z</time>
</trkpt>
<trkpt lat="48.3161500" lon="14.0971583">
 <ele>258</ele><time>2013-09-28T09:42:09Z</time>
</trkpt>
<trkpt lat="48.3161800" lon="14.0970233">
 <ele>258</ele><time>2013-09-28T09:42:13Z</time>
</trkpt>
<trkpt lat="48.3162050" lon="14.0969050">
 <ele>258</ele><time>2013-09-28T09:42:17Z</time>
</trkpt>
<trkpt lat="48.3162366" lon="14.0967766">
 <ele>259</ele><time>2013-09-28T09:42:21Z</time>
</trkpt>
<trkpt lat="48.3162666" lon="14.0966633">
 <ele>259</ele><time>2013-09-28T09:42:25Z</time>
</trkpt>
<trkpt lat="48.3162850" lon="14.0965366">
 <ele>259</ele><time>2013-09-28T09:42:29Z</time>
</trkpt>
<trkpt lat="48.3163016" lon="14.0964033">
 <ele>259</ele><time>2013-09-28T09:42:33Z</time>
</trkpt>
<trkpt lat="48.3163366" lon="14.0962900">
 <ele>259</ele><time>2013-09-28T09:42:37Z</time>
</trkpt>
<trkpt lat="48.3163500" lon="14.0961633">
 <ele>259</ele><time>2013-09-28T09:42:41Z</time>
</trkpt>
<trkpt lat="48.3163816" lon="14.0960500">
 <ele>260</ele><time>2013-09-28T09:42:45Z</time>
</trkpt>
<trkpt lat="48.3164166" lon="14.0959350">
 <ele>260</ele><time>2013-09-28T09:42:49Z</time>
</trkpt>
<trkpt lat="48.3164600" lon="14.0958166">
 <ele>259</ele><time>2013-09-28T09:42:53Z</time>
</trkpt>
<trkpt lat="48.3164716" lon="14.0957166">
 <ele>259</ele><time>2013-09-28T09:42:57Z</time>
</trkpt>
<trkpt lat="48.3164883" lon="14.0955383">
 <ele>259</ele><time>2013-09-28T09:43:01Z</time>
</trkpt>
<trkpt lat="48.3165100" lon="14.0954083">
 <ele>260</ele><time>2013-09-28T09:43:05Z</time>
</trkpt>
<trkpt lat="48.3165333" lon="14.0952783">
 <ele>261</ele><time>2013-09-28T09:43:09Z</time>
</trkpt>
<trkpt lat="48.3165633" lon="14.0951416">
 <ele>261</ele><time>2013-09-28T09:43:13Z</time>
</trkpt>
<trkpt lat="48.3165900" lon="14.0950100">
 <ele>262</ele><time>2013-09-28T09:43:17Z</time>
</trkpt>
<trkpt lat="48.3166033" lon="14.0948766">
 <ele>262</ele><time>2013-09-28T09:43:21Z</time>
</trkpt>
<trkpt lat="48.3166400" lon="14.0947566">
 <ele>262</ele><time>2013-09-28T09:43:25Z</time>
</trkpt>
<trkpt lat="48.3166550" lon="14.0946333">
 <ele>261</ele><time>2013-09-28T09:43:29Z</time>
</trkpt>
<trkpt lat="48.3166700" lon="14.0944933">
 <ele>261</ele><time>2013-09-28T09:43:33Z</time>
</trkpt>
<trkpt lat="48.3166933" lon="14.0943583">
 <ele>261</ele><time>2013-09-28T09:43:37Z</time>
</trkpt>
<trkpt lat="48.3167283" lon="14.0942583">
 <ele>261</ele><time>2013-09-28T09:43:41Z</time>
</trkpt>
<trkpt lat="48.3167550" lon="14.0941233">
 <ele>261</ele><time>2013-09-28T09:43:45Z</time>
</trkpt>
<trkpt lat="48.3167733" lon="14.0939983">
 <ele>261</ele><time>2013-09-28T09:43:49Z</time>
</trkpt>
<trkpt lat="48.3167883" lon="14.0938416">
 <ele>261</ele><time>2013-09-28T09:43:53Z</time>
</trkpt>
<trkpt lat="48.3168183" lon="14.0937166">
 <ele>262</ele><time>2013-09-28T09:43:57Z</time>
</trkpt>
<trkpt lat="48.3168416" lon="14.0935966">
 <ele>262</ele><time>2013-09-28T09:44:01Z</time>
</trkpt>
<trkpt lat="48.3168500" lon="14.0934750">
 <ele>263</ele><time>2013-09-28T09:44:05Z</time>
</trkpt>
<trkpt lat="48.3168750" lon="14.0933400">
 <ele>263</ele><time>2013-09-28T09:44:09Z</time>
</trkpt>
<trkpt lat="48.3168983" lon="14.0932166">
 <ele>264</ele><time>2013-09-28T09:44:13Z</time>
</trkpt>
<trkpt lat="48.3169266" lon="14.0931016">
 <ele>264</ele><time>2013-09-28T09:44:17Z</time>
</trkpt>
<trkpt lat="48.3169550" lon="14.0929816">
 <ele>264</ele><time>2013-09-28T09:44:21Z</time>
</trkpt>
<trkpt lat="48.3169800" lon="14.0928483">
 <ele>264</ele><time>2013-09-28T09:44:25Z</time>
</trkpt>
<trkpt lat="48.3170016" lon="14.0927233">
 <ele>264</ele><time>2013-09-28T09:44:29Z</time>
</trkpt>
<trkpt lat="48.3170116" lon="14.0925750">
 <ele>263</ele><time>2013-09-28T09:44:33Z</time>
</trkpt>
<trkpt lat="48.3170333" lon="14.0924333">
 <ele>263</ele><time>2013-09-28T09:44:37Z</time>
</trkpt>
<trkpt lat="48.3170600" lon="14.0923250">
 <ele>263</ele><time>2013-09-28T09:44:41Z</time>
</trkpt>
<trkpt lat="48.3170733" lon="14.0921933">
 <ele>262</ele><time>2013-09-28T09:44:45Z</time>
</trkpt>
<trkpt lat="48.3170950" lon="14.0920650">
 <ele>262</ele><time>2013-09-28T09:44:49Z</time>
</trkpt>
<trkpt lat="48.3171100" lon="14.0919216">
 <ele>261</ele><time>2013-09-28T09:44:53Z</time>
</trkpt>
<trkpt lat="48.3171383" lon="14.0917916">
 <ele>260</ele><time>2013-09-28T09:44:57Z</time>
</trkpt>
<trkpt lat="48.3171400" lon="14.0916700">
 <ele>260</ele><time>2013-09-28T09:45:01Z</time>
</trkpt>
<trkpt lat="48.3171533" lon="14.0915400">
 <ele>260</ele><time>2013-09-28T09:45:05Z</time>
</trkpt>
<trkpt lat="48.3171650" lon="14.0914116">
 <ele>260</ele><time>2013-09-28T09:45:09Z</time>
</trkpt>
<trkpt lat="48.3171833" lon="14.0912833">
 <ele>260</ele><time>2013-09-28T09:45:13Z</time>
</trkpt>
<trkpt lat="48.3171966" lon="14.0911533">
 <ele>261</ele><time>2013-09-28T09:45:17Z</time>
</trkpt>
<trkpt lat="48.3172100" lon="14.0910233">
 <ele>261</ele><time>2013-09-28T09:45:21Z</time>
</trkpt>
<trkpt lat="48.3172283" lon="14.0909066">
 <ele>261</ele><time>2013-09-28T09:45:25Z</time>
</trkpt>
<trkpt lat="48.3172316" lon="14.0907683">
 <ele>261</ele><time>2013-09-28T09:45:29Z</time>
</trkpt>
<trkpt lat="48.3172433" lon="14.0906300">
 <ele>261</ele><time>2013-09-28T09:45:33Z</time>
</trkpt>
<trkpt lat="48.3172550" lon="14.0905100">
 <ele>261</ele><time>2013-09-28T09:45:37Z</time>
</trkpt>
<trkpt lat="48.3172716" lon="14.0903850">
 <ele>261</ele><time>2013-09-28T09:45:41Z</time>
</trkpt>
<trkpt lat="48.3172783" lon="14.0902600">
 <ele>261</ele><time>2013-09-28T09:45:45Z</time>
</trkpt>
<trkpt lat="48.3172950" lon="14.0901066">
 <ele>261</ele><time>2013-09-28T09:45:49Z</time>
</trkpt>
<trkpt lat="48.3173150" lon="14.0899816">
 <ele>261</ele><time>2013-09-28T09:45:53Z</time>
</trkpt>
<trkpt lat="48.3173266" lon="14.0898416">
 <ele>260</ele><time>2013-09-28T09:45:57Z</time>
</trkpt>
<trkpt lat="48.3173450" lon="14.0897233">
 <ele>260</ele><time>2013-09-28T09:46:01Z</time>
</trkpt>
<trkpt lat="48.3173566" lon="14.0895916">
 <ele>261</ele><time>2013-09-28T09:46:05Z</time>
</trkpt>
<trkpt lat="48.3173733" lon="14.0894700">
 <ele>261</ele><time>2013-09-28T09:46:09Z</time>
</trkpt>
<trkpt lat="48.3173983" lon="14.0893500">
 <ele>261</ele><time>2013-09-28T09:46:13Z</time>
</trkpt>
<trkpt lat="48.3174066" lon="14.0892166">
 <ele>261</ele><time>2013-09-28T09:46:17Z</time>
</trkpt>
<trkpt lat="48.3174216" lon="14.0890883">
 <ele>261</ele><time>2013-09-28T09:46:21Z</time>
</trkpt>
<trkpt lat="48.3174383" lon="14.0889633">
 <ele>261</ele><time>2013-09-28T09:46:25Z</time>
</trkpt>
<trkpt lat="48.3174516" lon="14.0888383">
 <ele>261</ele><time>2013-09-28T09:46:29Z</time>
</trkpt>
<trkpt lat="48.3174733" lon="14.0887166">
 <ele>262</ele><time>2013-09-28T09:46:33Z</time>
</trkpt>
<trkpt lat="48.3174866" lon="14.0885816">
 <ele>262</ele><time>2013-09-28T09:46:37Z</time>
</trkpt>
<trkpt lat="48.3175000" lon="14.0884500">
 <ele>262</ele><time>2013-09-28T09:46:41Z</time>
</trkpt>
<trkpt lat="48.3175183" lon="14.0883183">
 <ele>263</ele><time>2013-09-28T09:46:45Z</time>
</trkpt>
<trkpt lat="48.3175350" lon="14.0881983">
 <ele>264</ele><time>2013-09-28T09:46:49Z</time>
</trkpt>
<trkpt lat="48.3175533" lon="14.0880816">
 <ele>265</ele><time>2013-09-28T09:46:53Z</time>
</trkpt>
<trkpt lat="48.3175850" lon="14.0879650">
 <ele>265</ele><time>2013-09-28T09:46:57Z</time>
</trkpt>
<trkpt lat="48.3176000" lon="14.0878283">
 <ele>264</ele><time>2013-09-28T09:47:01Z</time>
</trkpt>
<trkpt lat="48.3176233" lon="14.0877100">
 <ele>264</ele><time>2013-09-28T09:47:05Z</time>
</trkpt>
<trkpt lat="48.3176466" lon="14.0875833">
 <ele>262</ele><time>2013-09-28T09:47:09Z</time>
</trkpt>
<trkpt lat="48.3176683" lon="14.0874616">
 <ele>262</ele><time>2013-09-28T09:47:13Z</time>
</trkpt>
<trkpt lat="48.3176900" lon="14.0873316">
 <ele>261</ele><time>2013-09-28T09:47:17Z</time>
</trkpt>
<trkpt lat="48.3177116" lon="14.0872183">
 <ele>261</ele><time>2013-09-28T09:47:21Z</time>
</trkpt>
<trkpt lat="48.3177350" lon="14.0870916">
 <ele>261</ele><time>2013-09-28T09:47:25Z</time>
</trkpt>
<trkpt lat="48.3177600" lon="14.0869616">
 <ele>261</ele><time>2013-09-28T09:47:29Z</time>
</trkpt>
<trkpt lat="48.3177916" lon="14.0868433">
 <ele>261</ele><time>2013-09-28T09:47:33Z</time>
</trkpt>
<trkpt lat="48.3178133" lon="14.0867133">
 <ele>261</ele><time>2013-09-28T09:47:37Z</time>
</trkpt>
<trkpt lat="48.3178283" lon="14.0865716">
 <ele>260</ele><time>2013-09-28T09:47:41Z</time>
</trkpt>
<trkpt lat="48.3178516" lon="14.0864550">
 <ele>260</ele><time>2013-09-28T09:47:45Z</time>
</trkpt>
<trkpt lat="48.3178733" lon="14.0863333">
 <ele>260</ele><time>2013-09-28T09:47:49Z</time>
</trkpt>
<trkpt lat="48.3179083" lon="14.0862150">
 <ele>260</ele><time>2013-09-28T09:47:53Z</time>
</trkpt>
<trkpt lat="48.3179350" lon="14.0860866">
 <ele>260</ele><time>2013-09-28T09:47:57Z</time>
</trkpt>
<trkpt lat="48.3179466" lon="14.0859550">
 <ele>259</ele><time>2013-09-28T09:48:01Z</time>
</trkpt>
<trkpt lat="48.3179766" lon="14.0858416">
 <ele>259</ele><time>2013-09-28T09:48:05Z</time>
</trkpt>
<trkpt lat="48.3179983" lon="14.0857116">
 <ele>259</ele><time>2013-09-28T09:48:09Z</time>
</trkpt>
<trkpt lat="48.3180166" lon="14.0855750">
 <ele>259</ele><time>2013-09-28T09:48:13Z</time>
</trkpt>
<trkpt lat="48.3180416" lon="14.0854383">
 <ele>259</ele><time>2013-09-28T09:48:17Z</time>
</trkpt>
<trkpt lat="48.3180616" lon="14.0852966">
 <ele>258</ele><time>2013-09-28T09:48:21Z</time>
</trkpt>
<trkpt lat="48.3180866" lon="14.0851983">
 <ele>258</ele><time>2013-09-28T09:48:25Z</time>
</trkpt>
<trkpt lat="48.3181183" lon="14.0850933">
 <ele>258</ele><time>2013-09-28T09:48:29Z</time>
</trkpt>
<trkpt lat="48.3181366" lon="14.0849700">
 <ele>258</ele><time>2013-09-28T09:48:33Z</time>
</trkpt>
<trkpt lat="48.3181400" lon="14.0848516">
 <ele>259</ele><time>2013-09-28T09:48:37Z</time>
</trkpt>
<trkpt lat="48.3181500" lon="14.0847433">
 <ele>259</ele><time>2013-09-28T09:48:41Z</time>
</trkpt>
<trkpt lat="48.3181300" lon="14.0847616">
 <ele>260</ele><time>2013-09-28T09:48:45Z</time>
</trkpt>
<trkpt lat="48.3181116" lon="14.0848683">
 <ele>259</ele><time>2013-09-28T09:48:49Z</time>
</trkpt>
<trkpt lat="48.3181000" lon="14.0849683">
 <ele>259</ele><time>2013-09-28T09:48:53Z</time>
</trkpt>
<trkpt lat="48.3180716" lon="14.0850750">
 <ele>257</ele><time>2013-09-28T09:48:57Z</time>
</trkpt>
<trkpt lat="48.3180416" lon="14.0851916">
 <ele>256</ele><time>2013-09-28T09:49:01Z</time>
</trkpt>
<trkpt lat="48.3180316" lon="14.0853233">
 <ele>255</ele><time>2013-09-28T09:49:05Z</time>
</trkpt>
<trkpt lat="48.3180250" lon="14.0854816">
 <ele>254</ele><time>2013-09-28T09:49:09Z</time>
</trkpt>
<trkpt lat="48.3180116" lon="14.0856116">
 <ele>255</ele><time>2013-09-28T09:49:13Z</time>
</trkpt>
<trkpt lat="48.3179900" lon="14.0857433">
 <ele>255</ele><time>2013-09-28T09:49:17Z</time>
</trkpt>
<trkpt lat="48.3179633" lon="14.0858633">
 <ele>256</ele><time>2013-09-28T09:49:21Z</time>
</trkpt>
<trkpt lat="48.3179366" lon="14.0859916">
 <ele>257</ele><time>2013-09-28T09:49:25Z</time>
</trkpt>
<trkpt lat="48.3179133" lon="14.0861216">
 <ele>258</ele><time>2013-09-28T09:49:29Z</time>
</trkpt>
<trkpt lat="48.3178933" lon="14.0862516">
 <ele>258</ele><time>2013-09-28T09:49:33Z</time>
</trkpt>
<trkpt lat="48.3178716" lon="14.0863833">
 <ele>259</ele><time>2013-09-28T09:49:37Z</time>
</trkpt>
<trkpt lat="48.3178500" lon="14.0865116">
 <ele>259</ele><time>2013-09-28T09:49:41Z</time>
</trkpt>
<trkpt lat="48.3178300" lon="14.0866483">
 <ele>260</ele><time>2013-09-28T09:49:45Z</time>
</trkpt>
<trkpt lat="48.3178166" lon="14.0867850">
 <ele>261</ele><time>2013-09-28T09:49:49Z</time>
</trkpt>
<trkpt lat="48.3178016" lon="14.0869100">
 <ele>261</ele><time>2013-09-28T09:49:53Z</time>
</trkpt>
<trkpt lat="48.3177700" lon="14.0870350">
 <ele>262</ele><time>2013-09-28T09:49:57Z</time>
</trkpt>
<trkpt lat="48.3177350" lon="14.0871566">
 <ele>263</ele><time>2013-09-28T09:50:01Z</time>
</trkpt>
<trkpt lat="48.3177216" lon="14.0872866">
 <ele>263</ele><time>2013-09-28T09:50:05Z</time>
</trkpt>
<trkpt lat="48.3176983" lon="14.0874200">
 <ele>264</ele><time>2013-09-28T09:50:09Z</time>
</trkpt>
<trkpt lat="48.3176716" lon="14.0875550">
 <ele>264</ele><time>2013-09-28T09:50:13Z</time>
</trkpt>
<trkpt lat="48.3176516" lon="14.0876716">
 <ele>264</ele><time>2013-09-28T09:50:17Z</time>
</trkpt>
<trkpt lat="48.3176316" lon="14.0878050">
 <ele>264</ele><time>2013-09-28T09:50:21Z</time>
</trkpt>
<trkpt lat="48.3176150" lon="14.0879350">
 <ele>264</ele><time>2013-09-28T09:50:25Z</time>
</trkpt>
<trkpt lat="48.3176000" lon="14.0880683">
 <ele>263</ele><time>2013-09-28T09:50:29Z</time>
</trkpt>
<trkpt lat="48.3175733" lon="14.0881966">
 <ele>263</ele><time>2013-09-28T09:50:33Z</time>
</trkpt>
<trkpt lat="48.3175533" lon="14.0883316">
 <ele>263</ele><time>2013-09-28T09:50:37Z</time>
</trkpt>
<trkpt lat="48.3175350" lon="14.0884600">
 <ele>263</ele><time>2013-09-28T09:50:41Z</time>
</trkpt>
<trkpt lat="48.3175183" lon="14.0885933">
 <ele>264</ele><time>2013-09-28T09:50:45Z</time>
</trkpt>
<trkpt lat="48.3175000" lon="14.0887166">
 <ele>264</ele><time>2013-09-28T09:50:49Z</time>
</trkpt>
<trkpt lat="48.3174850" lon="14.0888516">
 <ele>264</ele><time>2013-09-28T09:50:53Z</time>
</trkpt>
<trkpt lat="48.3174700" lon="14.0889733">
 <ele>265</ele><time>2013-09-28T09:50:57Z</time>
</trkpt>
<trkpt lat="48.3174500" lon="14.0891000">
 <ele>265</ele><time>2013-09-28T09:51:01Z</time>
</trkpt>
<trkpt lat="48.3174350" lon="14.0892266">
 <ele>265</ele><time>2013-09-28T09:51:05Z</time>
</trkpt>
<trkpt lat="48.3174183" lon="14.0893616">
 <ele>266</ele><time>2013-09-28T09:51:09Z</time>
</trkpt>
<trkpt lat="48.3174066" lon="14.0894933">
 <ele>266</ele><time>2013-09-28T09:51:13Z</time>
</trkpt>
<trkpt lat="48.3173950" lon="14.0896150">
 <ele>266</ele><time>2013-09-28T09:51:17Z</time>
</trkpt>
<trkpt lat="48.3173666" lon="14.0897366">
 <ele>266</ele><time>2013-09-28T09:51:21Z</time>
</trkpt>
<trkpt lat="48.3173500" lon="14.0898616">
 <ele>265</ele><time>2013-09-28T09:51:25Z</time>
</trkpt>
<trkpt lat="48.3173366" lon="14.0900133">
 <ele>265</ele><time>2013-09-28T09:51:29Z</time>
</trkpt>
<trkpt lat="48.3173183" lon="14.0901666">
 <ele>266</ele><time>2013-09-28T09:51:33Z</time>
</trkpt>
<trkpt lat="48.3173050" lon="14.0903200">
 <ele>267</ele><time>2013-09-28T09:51:37Z</time>
</trkpt>
<trkpt lat="48.3172916" lon="14.0904716">
 <ele>268</ele><time>2013-09-28T09:51:41Z</time>
</trkpt>
<trkpt lat="48.3172766" lon="14.0906133">
 <ele>270</ele><time>2013-09-28T09:51:45Z</time>
</trkpt>
<trkpt lat="48.3172616" lon="14.0907633">
 <ele>272</ele><time>2013-09-28T09:51:49Z</time>
</trkpt>
<trkpt lat="48.3172483" lon="14.0909066">
 <ele>273</ele><time>2013-09-28T09:51:53Z</time>
</trkpt>
<trkpt lat="48.3172366" lon="14.0910516">
 <ele>275</ele><time>2013-09-28T09:51:57Z</time>
</trkpt>
<trkpt lat="48.3172166" lon="14.0911783">
 <ele>276</ele><time>2013-09-28T09:52:01Z</time>
</trkpt>
<trkpt lat="48.3172000" lon="14.0913050">
 <ele>277</ele><time>2013-09-28T09:52:05Z</time>
</trkpt>
<trkpt lat="48.3171850" lon="14.0914283">
 <ele>278</ele><time>2013-09-28T09:52:09Z</time>
</trkpt>
<trkpt lat="48.3171700" lon="14.0915766">
 <ele>278</ele><time>2013-09-28T09:52:13Z</time>
</trkpt>
<trkpt lat="48.3171516" lon="14.0917150">
 <ele>277</ele><time>2013-09-28T09:52:17Z</time>
</trkpt>
<trkpt lat="48.3171366" lon="14.0918483">
 <ele>277</ele><time>2013-09-28T09:52:21Z</time>
</trkpt>
<trkpt lat="48.3171166" lon="14.0919866">
 <ele>277</ele><time>2013-09-28T09:52:25Z</time>
</trkpt>
<trkpt lat="48.3170916" lon="14.0921166">
 <ele>278</ele><time>2013-09-28T09:52:29Z</time>
</trkpt>
<trkpt lat="48.3170783" lon="14.0922483">
 <ele>278</ele><time>2013-09-28T09:52:33Z</time>
</trkpt>
<trkpt lat="48.3170700" lon="14.0923900">
 <ele>278</ele><time>2013-09-28T09:52:37Z</time>
</trkpt>
<trkpt lat="48.3170600" lon="14.0925350">
 <ele>279</ele><time>2013-09-28T09:52:41Z</time>
</trkpt>
<trkpt lat="48.3170433" lon="14.0926700">
 <ele>280</ele><time>2013-09-28T09:52:45Z</time>
</trkpt>
<trkpt lat="48.3170266" lon="14.0928050">
 <ele>280</ele><time>2013-09-28T09:52:49Z</time>
</trkpt>
<trkpt lat="48.3170100" lon="14.0929433">
 <ele>281</ele><time>2013-09-28T09:52:53Z</time>
</trkpt>
<trkpt lat="48.3169950" lon="14.0930700">
 <ele>283</ele><time>2013-09-28T09:52:57Z</time>
</trkpt>
<trkpt lat="48.3169783" lon="14.0931866">
 <ele>283</ele><time>2013-09-28T09:53:01Z</time>
</trkpt>
<trkpt lat="48.3169616" lon="14.0933016">
 <ele>284</ele><time>2013-09-28T09:53:05Z</time>
</trkpt>
<trkpt lat="48.3169450" lon="14.0934183">
 <ele>284</ele><time>2013-09-28T09:53:09Z</time>
</trkpt>
<trkpt lat="48.3169283" lon="14.0935400">
 <ele>284</ele><time>2013-09-28T09:53:13Z</time>
</trkpt>
<trkpt lat="48.3169083" lon="14.0936716">
 <ele>283</ele><time>2013-09-28T09:53:17Z</time>
</trkpt>
<trkpt lat="48.3168766" lon="14.0937866">
 <ele>283</ele><time>2013-09-28T09:53:21Z</time>
</trkpt>
<trkpt lat="48.3168616" lon="14.0938850">
 <ele>283</ele><time>2013-09-28T09:53:25Z</time>
</trkpt>
<trkpt lat="48.3168433" lon="14.0940083">
 <ele>282</ele><time>2013-09-28T09:53:29Z</time>
</trkpt>
<trkpt lat="48.3168266" lon="14.0941300">
 <ele>282</ele><time>2013-09-28T09:53:33Z</time>
</trkpt>
<trkpt lat="48.3168050" lon="14.0942583">
 <ele>281</ele><time>2013-09-28T09:53:37Z</time>
</trkpt>
<trkpt lat="48.3167850" lon="14.0943783">
 <ele>281</ele><time>2013-09-28T09:53:41Z</time>
</trkpt>
<trkpt lat="48.3167600" lon="14.0945066">
 <ele>282</ele><time>2013-09-28T09:53:45Z</time>
</trkpt>
<trkpt lat="48.3167283" lon="14.0946033">
 <ele>282</ele><time>2013-09-28T09:53:49Z</time>
</trkpt>
<trkpt lat="48.3166966" lon="14.0947016">
 <ele>282</ele><time>2013-09-28T09:53:53Z</time>
</trkpt>
<trkpt lat="48.3166666" lon="14.0947900">
 <ele>281</ele><time>2013-09-28T09:53:57Z</time>
</trkpt>
<trkpt lat="48.3166466" lon="14.0949116">
 <ele>278</ele><time>2013-09-28T09:54:01Z</time>
</trkpt>
<trkpt lat="48.3166266" lon="14.0950200">
 <ele>276</ele><time>2013-09-28T09:54:05Z</time>
</trkpt>
<trkpt lat="48.3165850" lon="14.0951250">
 <ele>274</ele><time>2013-09-28T09:54:09Z</time>
</trkpt>
<trkpt lat="48.3165466" lon="14.0952316">
 <ele>273</ele><time>2013-09-28T09:54:13Z</time>
</trkpt>
<trkpt lat="48.3165200" lon="14.0953516">
 <ele>272</ele><time>2013-09-28T09:54:17Z</time>
</trkpt>
<trkpt lat="48.3165000" lon="14.0954500">
 <ele>271</ele><time>2013-09-28T09:54:21Z</time>
</trkpt>
<trkpt lat="48.3164900" lon="14.0956033">
 <ele>270</ele><time>2013-09-28T09:54:25Z</time>
</trkpt>
<trkpt lat="48.3164650" lon="14.0957183">
 <ele>270</ele><time>2013-09-28T09:54:29Z</time>
</trkpt>
<trkpt lat="48.3164433" lon="14.0958300">
 <ele>270</ele><time>2013-09-28T09:54:33Z</time>
</trkpt>
<trkpt lat="48.3164083" lon="14.0959600">
 <ele>270</ele><time>2013-09-28T09:54:37Z</time>
</trkpt>
<trkpt lat="48.3163750" lon="14.0960583">
 <ele>270</ele><time>2013-09-28T09:54:41Z</time>
</trkpt>
<trkpt lat="48.3163500" lon="14.0961666">
 <ele>269</ele><time>2013-09-28T09:54:45Z</time>
</trkpt>
<trkpt lat="48.3163266" lon="14.0962683">
 <ele>268</ele><time>2013-09-28T09:54:49Z</time>
</trkpt>
<trkpt lat="48.3163000" lon="14.0964033">
 <ele>268</ele><time>2013-09-28T09:54:53Z</time>
</trkpt>
<trkpt lat="48.3162566" lon="14.0964883">
 <ele>268</ele><time>2013-09-28T09:54:57Z</time>
</trkpt>
<trkpt lat="48.3162200" lon="14.0965850">
 <ele>267</ele><time>2013-09-28T09:55:01Z</time>
</trkpt>
<trkpt lat="48.3161800" lon="14.0966750">
 <ele>266</ele><time>2013-09-28T09:55:05Z</time>
</trkpt>
<trkpt lat="48.3161633" lon="14.0968050">
 <ele>264</ele><time>2013-09-28T09:55:09Z</time>
</trkpt>
<trkpt lat="48.3161383" lon="14.0969516">
 <ele>263</ele><time>2013-09-28T09:55:13Z</time>
</trkpt>
<trkpt lat="48.3161150" lon="14.0970866">
 <ele>262</ele><time>2013-09-28T09:55:17Z</time>
</trkpt>
<trkpt lat="48.3160933" lon="14.0972166">
 <ele>263</ele><time>2013-09-28T09:55:21Z</time>
</trkpt>
<trkpt lat="48.3160533" lon="14.0973333">
 <ele>264</ele><time>2013-09-28T09:55:25Z</time>
</trkpt>
<trkpt lat="48.3160333" lon="14.0974716">
 <ele>265</ele><time>2013-09-28T09:55:29Z</time>
</trkpt>
<trkpt lat="48.3160016" lon="14.0975866">
 <ele>266</ele><time>2013-09-28T09:55:33Z</time>
</trkpt>
<trkpt lat="48.3159766" lon="14.0976933">
 <ele>267</ele><time>2013-09-28T09:55:37Z</time>
</trkpt>
<trkpt lat="48.3159416" lon="14.0978083">
 <ele>267</ele><time>2013-09-28T09:55:41Z</time>
</trkpt>
<trkpt lat="48.3159133" lon="14.0979066">
 <ele>267</ele><time>2013-09-28T09:55:45Z</time>
</trkpt>
<trkpt lat="48.3158733" lon="14.0980150">
 <ele>266</ele><time>2013-09-28T09:55:49Z</time>
</trkpt>
<trkpt lat="48.3158400" lon="14.0981200">
 <ele>265</ele><time>2013-09-28T09:55:53Z</time>
</trkpt>
<trkpt lat="48.3158083" lon="14.0982466">
 <ele>264</ele><time>2013-09-28T09:55:57Z</time>
</trkpt>
<trkpt lat="48.3157666" lon="14.0983750">
 <ele>263</ele><time>2013-09-28T09:56:01Z</time>
</trkpt>
<trkpt lat="48.3157316" lon="14.0984950">
 <ele>262</ele><time>2013-09-28T09:56:05Z</time>
</trkpt>
<trkpt lat="48.3157000" lon="14.0986200">
 <ele>262</ele><time>2013-09-28T09:56:09Z</time>
</trkpt>
<trkpt lat="48.3156633" lon="14.0987383">
 <ele>262</ele><time>2013-09-28T09:56:13Z</time>
</trkpt>
<trkpt lat="48.3156233" lon="14.0988550">
 <ele>263</ele><time>2013-09-28T09:56:17Z</time>
</trkpt>
<trkpt lat="48.3155900" lon="14.0989583">
 <ele>263</ele><time>2013-09-28T09:56:21Z</time>
</trkpt>
<trkpt lat="48.3155583" lon="14.0990650">
 <ele>263</ele><time>2013-09-28T09:56:25Z</time>
</trkpt>
<trkpt lat="48.3155216" lon="14.0991766">
 <ele>262</ele><time>2013-09-28T09:56:29Z</time>
</trkpt>
<trkpt lat="48.3154950" lon="14.0993100">
 <ele>261</ele><time>2013-09-28T09:56:33Z</time>
</trkpt>
<trkpt lat="48.3154700" lon="14.0994500">
 <ele>261</ele><time>2013-09-28T09:56:37Z</time>
</trkpt>
<trkpt lat="48.3154500" lon="14.0995733">
 <ele>262</ele><time>2013-09-28T09:56:41Z</time>
</trkpt>
<trkpt lat="48.3154100" lon="14.0996983">
 <ele>262</ele><time>2013-09-28T09:56:45Z</time>
</trkpt>
<trkpt lat="48.3153683" lon="14.0997950">
 <ele>263</ele><time>2013-09-28T09:56:49Z</time>
</trkpt>
<trkpt lat="48.3153350" lon="14.0999150">
 <ele>262</ele><time>2013-09-28T09:56:53Z</time>
</trkpt>
<trkpt lat="48.3153016" lon="14.1000233">
 <ele>262</ele><time>2013-09-28T09:56:57Z</time>
</trkpt>
<trkpt lat="48.3152600" lon="14.1001650">
 <ele>262</ele><time>2013-09-28T09:57:01Z</time>
</trkpt>
<trkpt lat="48.3152183" lon="14.1002783">
 <ele>263</ele><time>2013-09-28T09:57:05Z</time>
</trkpt>
<trkpt lat="48.3151700" lon="14.1003733">
 <ele>264</ele><time>2013-09-28T09:57:09Z</time>
</trkpt>
<trkpt lat="48.3151216" lon="14.1004966">
 <ele>264</ele><time>2013-09-28T09:57:13Z</time>
</trkpt>
<trkpt lat="48.3150800" lon="14.1006033">
 <ele>264</ele><time>2013-09-28T09:57:17Z</time>
</trkpt>
<trkpt lat="48.3150366" lon="14.1007183">
 <ele>264</ele><time>2013-09-28T09:57:21Z</time>
</trkpt>
<trkpt lat="48.3150033" lon="14.1008800">
 <ele>263</ele><time>2013-09-28T09:57:25Z</time>
</trkpt>
<trkpt lat="48.3149683" lon="14.1009900">
 <ele>264</ele><time>2013-09-28T09:57:29Z</time>
</trkpt>
<trkpt lat="48.3149250" lon="14.1011100">
 <ele>264</ele><time>2013-09-28T09:57:33Z</time>
</trkpt>
<trkpt lat="48.3148916" lon="14.1012250">
 <ele>265</ele><time>2013-09-28T09:57:37Z</time>
</trkpt>
<trkpt lat="48.3148483" lon="14.1013433">
 <ele>266</ele><time>2013-09-28T09:57:41Z</time>
</trkpt>
<trkpt lat="48.3148116" lon="14.1014516">
 <ele>267</ele><time>2013-09-28T09:57:45Z</time>
</trkpt>
<trkpt lat="48.3147616" lon="14.1015616">
 <ele>267</ele><time>2013-09-28T09:57:49Z</time>
</trkpt>
<trkpt lat="48.3147266" lon="14.1016550">
 <ele>268</ele><time>2013-09-28T09:57:53Z</time>
</trkpt>
<trkpt lat="48.3146833" lon="14.1017700">
 <ele>267</ele><time>2013-09-28T09:57:57Z</time>
</trkpt>
<trkpt lat="48.3146383" lon="14.1018716">
 <ele>266</ele><time>2013-09-28T09:58:01Z</time>
</trkpt>
<trkpt lat="48.3145916" lon="14.1019650">
 <ele>264</ele><time>2013-09-28T09:58:05Z</time>
</trkpt>
<trkpt lat="48.3145516" lon="14.1020816">
 <ele>263</ele><time>2013-09-28T09:58:09Z</time>
</trkpt>
<trkpt lat="48.3145100" lon="14.1021883">
 <ele>262</ele><time>2013-09-28T09:58:13Z</time>
</trkpt>
<trkpt lat="48.3144600" lon="14.1022933">
 <ele>261</ele><time>2013-09-28T09:58:17Z</time>
</trkpt>
<trkpt lat="48.3144150" lon="14.1024016">
 <ele>261</ele><time>2013-09-28T09:58:21Z</time>
</trkpt>
<trkpt lat="48.3143650" lon="14.1024850">
 <ele>260</ele><time>2013-09-28T09:58:25Z</time>
</trkpt>
<trkpt lat="48.3143216" lon="14.1025800">
 <ele>260</ele><time>2013-09-28T09:58:29Z</time>
</trkpt>
<trkpt lat="48.3142900" lon="14.1026866">
 <ele>260</ele><time>2013-09-28T09:58:33Z</time>
</trkpt>
<trkpt lat="48.3142683" lon="14.1028266">
 <ele>260</ele><time>2013-09-28T09:58:37Z</time>
</trkpt>
<trkpt lat="48.3142133" lon="14.1029350">
 <ele>261</ele><time>2013-09-28T09:58:41Z</time>
</trkpt>
<trkpt lat="48.3141650" lon="14.1030466">
 <ele>262</ele><time>2013-09-28T09:58:45Z</time>
</trkpt>
<trkpt lat="48.3141233" lon="14.1031516">
 <ele>262</ele><time>2013-09-28T09:58:49Z</time>
</trkpt>
<trkpt lat="48.3140883" lon="14.1032633">
 <ele>263</ele><time>2013-09-28T09:58:53Z</time>
</trkpt>
<trkpt lat="48.3140350" lon="14.1033816">
 <ele>262</ele><time>2013-09-28T09:58:57Z</time>
</trkpt>
<trkpt lat="48.3139783" lon="14.1034866">
 <ele>262</ele><time>2013-09-28T09:59:01Z</time>
</trkpt>
<trkpt lat="48.3139333" lon="14.1036200">
 <ele>261</ele><time>2013-09-28T09:59:05Z</time>
</trkpt>
<trkpt lat="48.3138916" lon="14.1037250">
 <ele>261</ele><time>2013-09-28T09:59:09Z</time>
</trkpt>
<trkpt lat="48.3138450" lon="14.1038383">
 <ele>261</ele><time>2013-09-28T09:59:13Z</time>
</trkpt>
<trkpt lat="48.3137966" lon="14.1039633">
 <ele>262</ele><time>2013-09-28T09:59:17Z</time>
</trkpt>
<trkpt lat="48.3137400" lon="14.1040766">
 <ele>262</ele><time>2013-09-28T09:59:21Z</time>
</trkpt>
<trkpt lat="48.3136866" lon="14.1041950">
 <ele>262</ele><time>2013-09-28T09:59:25Z</time>
</trkpt>
<trkpt lat="48.3136466" lon="14.1043366">
 <ele>262</ele><time>2013-09-28T09:59:29Z</time>
</trkpt>
<trkpt lat="48.3136033" lon="14.1044466">
 <ele>262</ele><time>2013-09-28T09:59:33Z</time>
</trkpt>
<trkpt lat="48.3135616" lon="14.1045516">
 <ele>263</ele><time>2013-09-28T09:59:37Z</time>
</trkpt>
<trkpt lat="48.3135166" lon="14.1046433">
 <ele>263</ele><time>2013-09-28T09:59:41Z</time>
</trkpt>
<trkpt lat="48.3134683" lon="14.1047500">
 <ele>263</ele><time>2013-09-28T09:59:45Z</time>
</trkpt>
<trkpt lat="48.3134233" lon="14.1048583">
 <ele>262</ele><time>2013-09-28T09:59:49Z</time>
</trkpt>
<trkpt lat="48.3133700" lon="14.1049750">
 <ele>261</ele><time>2013-09-28T09:59:53Z</time>
</trkpt>
<trkpt lat="48.3133216" lon="14.1050833">
 <ele>260</ele><time>2013-09-28T09:59:57Z</time>
</trkpt>
<trkpt lat="48.3132850" lon="14.1052066">
 <ele>260</ele><time>2013-09-28T10:00:01Z</time>
</trkpt>
<trkpt lat="48.3132383" lon="14.1053133">
 <ele>261</ele><time>2013-09-28T10:00:05Z</time>
</trkpt>
<trkpt lat="48.3132100" lon="14.1054233">
 <ele>261</ele><time>2013-09-28T10:00:09Z</time>
</trkpt>
<trkpt lat="48.3131700" lon="14.1055150">
 <ele>261</ele><time>2013-09-28T10:00:13Z</time>
</trkpt>
<trkpt lat="48.3131366" lon="14.1056216">
 <ele>261</ele><time>2013-09-28T10:00:17Z</time>
</trkpt>
<trkpt lat="48.3131016" lon="14.1057883">
 <ele>260</ele><time>2013-09-28T10:00:21Z</time>
</trkpt>
<trkpt lat="48.3130650" lon="14.1059166">
 <ele>261</ele><time>2013-09-28T10:00:25Z</time>
</trkpt>
<trkpt lat="48.3130216" lon="14.1060300">
 <ele>262</ele><time>2013-09-28T10:00:29Z</time>
</trkpt>
<trkpt lat="48.3129833" lon="14.1061566">
 <ele>263</ele><time>2013-09-28T10:00:33Z</time>
</trkpt>
<trkpt lat="48.3129433" lon="14.1062733">
 <ele>265</ele><time>2013-09-28T10:00:37Z</time>
</trkpt>
<trkpt lat="48.3129000" lon="14.1063583">
 <ele>265</ele><time>2013-09-28T10:00:41Z</time>
</trkpt>
<trkpt lat="48.3128616" lon="14.1064600">
 <ele>265</ele><time>2013-09-28T10:00:45Z</time>
</trkpt>
<trkpt lat="48.3128233" lon="14.1065816">
 <ele>265</ele><time>2013-09-28T10:00:49Z</time>
</trkpt>
<trkpt lat="48.3127750" lon="14.1066233">
 <ele>264</ele><time>2013-09-28T10:00:53Z</time>
</trkpt>
<trkpt lat="48.3127350" lon="14.1067283">
 <ele>262</ele><time>2013-09-28T10:00:57Z</time>
</trkpt>
<trkpt lat="48.3127033" lon="14.1068666">
 <ele>259</ele><time>2013-09-28T10:01:01Z</time>
</trkpt>
<trkpt lat="48.3126650" lon="14.1069950">
 <ele>258</ele><time>2013-09-28T10:01:05Z</time>
</trkpt>
<trkpt lat="48.3126316" lon="14.1071316">
 <ele>257</ele><time>2013-09-28T10:01:09Z</time>
</trkpt>
<trkpt lat="48.3125966" lon="14.1072533">
 <ele>258</ele><time>2013-09-28T10:01:13Z</time>
</trkpt>
<trkpt lat="48.3125583" lon="14.1073733">
 <ele>260</ele><time>2013-09-28T10:01:17Z</time>
</trkpt>
<trkpt lat="48.3125233" lon="14.1074900">
 <ele>261</ele><time>2013-09-28T10:01:21Z</time>
</trkpt>
<trkpt lat="48.3124933" lon="14.1076050">
 <ele>262</ele><time>2013-09-28T10:01:25Z</time>
</trkpt>
<trkpt lat="48.3124633" lon="14.1077316">
 <ele>262</ele><time>2013-09-28T10:01:29Z</time>
</trkpt>
<trkpt lat="48.3124316" lon="14.1078416">
 <ele>262</ele><time>2013-09-28T10:01:33Z</time>
</trkpt>
<trkpt lat="48.3123900" lon="14.1079516">
 <ele>263</ele><time>2013-09-28T10:01:37Z</time>
</trkpt>
<trkpt lat="48.3123583" lon="14.1080516">
 <ele>263</ele><time>2013-09-28T10:01:41Z</time>
</trkpt>
<trkpt lat="48.3123216" lon="14.1081666">
 <ele>262</ele><time>2013-09-28T10:01:45Z</time>
</trkpt>
<trkpt lat="48.3122850" lon="14.1082816">
 <ele>262</ele><time>2013-09-28T10:01:49Z</time>
</trkpt>
<trkpt lat="48.3122433" lon="14.1084016">
 <ele>261</ele><time>2013-09-28T10:01:53Z</time>
</trkpt>
<trkpt lat="48.3122100" lon="14.1085233">
 <ele>260</ele><time>2013-09-28T10:01:57Z</time>
</trkpt>
<trkpt lat="48.3121800" lon="14.1086600">
 <ele>260</ele><time>2013-09-28T10:02:01Z</time>
</trkpt>
<trkpt lat="48.3121483" lon="14.1087883">
 <ele>261</ele><time>2013-09-28T10:02:05Z</time>
</trkpt>
<trkpt lat="48.3121166" lon="14.1089066">
 <ele>262</ele><time>2013-09-28T10:02:09Z</time>
</trkpt>
<trkpt lat="48.3120850" lon="14.1090116">
 <ele>263</ele><time>2013-09-28T10:02:13Z</time>
</trkpt>
<trkpt lat="48.3120516" lon="14.1091583">
 <ele>264</ele><time>2013-09-28T10:02:17Z</time>
</trkpt>
<trkpt lat="48.3120266" lon="14.1093166">
 <ele>265</ele><time>2013-09-28T10:02:21Z</time>
</trkpt>
<trkpt lat="48.3119950" lon="14.1094500">
 <ele>267</ele><time>2013-09-28T10:02:25Z</time>
</trkpt>
<trkpt lat="48.3119583" lon="14.1095566">
 <ele>268</ele><time>2013-09-28T10:02:29Z</time>
</trkpt>
<trkpt lat="48.3119150" lon="14.1096700">
 <ele>269</ele><time>2013-09-28T10:02:33Z</time>
</trkpt>
<trkpt lat="48.3118950" lon="14.1097916">
 <ele>270</ele><time>2013-09-28T10:02:37Z</time>
</trkpt>
<trkpt lat="48.3118533" lon="14.1098950">
 <ele>270</ele><time>2013-09-28T10:02:41Z</time>
</trkpt>
<trkpt lat="48.3118166" lon="14.1100100">
 <ele>270</ele><time>2013-09-28T10:02:45Z</time>
</trkpt>
<trkpt lat="48.3117816" lon="14.1100933">
 <ele>271</ele><time>2013-09-28T10:02:49Z</time>
</trkpt>
<trkpt lat="48.3117283" lon="14.1101850">
 <ele>271</ele><time>2013-09-28T10:02:53Z</time>
</trkpt>
<trkpt lat="48.3116816" lon="14.1102916">
 <ele>270</ele><time>2013-09-28T10:02:57Z</time>
</trkpt>
<trkpt lat="48.3116583" lon="14.1104266">
 <ele>270</ele><time>2013-09-28T10:03:01Z</time>
</trkpt>
<trkpt lat="48.3116350" lon="14.1105600">
 <ele>270</ele><time>2013-09-28T10:03:05Z</time>
</trkpt>
<trkpt lat="48.3116033" lon="14.1106816">
 <ele>270</ele><time>2013-09-28T10:03:09Z</time>
</trkpt>
<trkpt lat="48.3115666" lon="14.1108233">
 <ele>270</ele><time>2013-09-28T10:03:13Z</time>
</trkpt>
<trkpt lat="48.3115250" lon="14.1109650">
 <ele>271</ele><time>2013-09-28T10:03:17Z</time>
</trkpt>
<trkpt lat="48.3115116" lon="14.1111066">
 <ele>272</ele><time>2013-09-28T10:03:21Z</time>
</trkpt>
<trkpt lat="48.3114800" lon="14.1112333">
 <ele>273</ele><time>2013-09-28T10:03:25Z</time>
</trkpt>
<trkpt lat="48.3114566" lon="14.1113400">
 <ele>275</ele><time>2013-09-28T10:03:29Z</time>
</trkpt>
<trkpt lat="48.3114200" lon="14.1114566">
 <ele>275</ele><time>2013-09-28T10:03:33Z</time>
</trkpt>
<trkpt lat="48.3113800" lon="14.1115616">
 <ele>276</ele><time>2013-09-28T10:03:37Z</time>
</trkpt>
<trkpt lat="48.3113433" lon="14.1116766">
 <ele>276</ele><time>2013-09-28T10:03:41Z</time>
</trkpt>
<trkpt lat="48.3113116" lon="14.1117983">
 <ele>275</ele><time>2013-09-28T10:03:45Z</time>
</trkpt>
<trkpt lat="48.3112816" lon="14.1118933">
 <ele>275</ele><time>2013-09-28T10:03:49Z</time>
</trkpt>
<trkpt lat="48.3112450" lon="14.1120016">
 <ele>274</ele><time>2013-09-28T10:03:53Z</time>
</trkpt>
<trkpt lat="48.3112116" lon="14.1121300">
 <ele>274</ele><time>2013-09-28T10:03:57Z</time>
</trkpt>
<trkpt lat="48.3111800" lon="14.1122450">
 <ele>273</ele><time>2013-09-28T10:04:01Z</time>
</trkpt>
<trkpt lat="48.3111533" lon="14.1123683">
 <ele>273</ele><time>2013-09-28T10:04:05Z</time>
</trkpt>
<trkpt lat="48.3111216" lon="14.1124750">
 <ele>273</ele><time>2013-09-28T10:04:09Z</time>
</trkpt>
<trkpt lat="48.3110983" lon="14.1125850">
 <ele>273</ele><time>2013-09-28T10:04:13Z</time>
</trkpt>
<trkpt lat="48.3110683" lon="14.1126916">
 <ele>273</ele><time>2013-09-28T10:04:17Z</time>
</trkpt>
<trkpt lat="48.3110483" lon="14.1127900">
 <ele>272</ele><time>2013-09-28T10:04:21Z</time>
</trkpt>
<trkpt lat="48.3110283" lon="14.1129250">
 <ele>271</ele><time>2013-09-28T10:04:25Z</time>
</trkpt>
<trkpt lat="48.3110066" lon="14.1130450">
 <ele>270</ele><time>2013-09-28T10:04:29Z</time>
</trkpt>
<trkpt lat="48.3109783" lon="14.1131716">
 <ele>270</ele><time>2013-09-28T10:04:33Z</time>
</trkpt>
<trkpt lat="48.3109550" lon="14.1132800">
 <ele>270</ele><time>2013-09-28T10:04:37Z</time>
</trkpt>
<trkpt lat="48.3109300" lon="14.1133750">
 <ele>271</ele><time>2013-09-28T10:04:41Z</time>
</trkpt>
<trkpt lat="48.3109133" lon="14.1135233">
 <ele>270</ele><time>2013-09-28T10:04:45Z</time>
</trkpt>
<trkpt lat="48.3108950" lon="14.1136400">
 <ele>270</ele><time>2013-09-28T10:04:49Z</time>
</trkpt>
<trkpt lat="48.3108766" lon="14.1137433">
 <ele>270</ele><time>2013-09-28T10:04:53Z</time>
</trkpt>
<trkpt lat="48.3108650" lon="14.1138383">
 <ele>270</ele><time>2013-09-28T10:04:57Z</time>
</trkpt>
<trkpt lat="48.3108433" lon="14.1139466">
 <ele>270</ele><time>2013-09-28T10:05:01Z</time>
</trkpt>
<trkpt lat="48.3108300" lon="14.1140933">
 <ele>269</ele><time>2013-09-28T10:05:05Z</time>
</trkpt>
<trkpt lat="48.3108116" lon="14.1142116">
 <ele>268</ele><time>2013-09-28T10:05:09Z</time>
</trkpt>
<trkpt lat="48.3107966" lon="14.1143550">
 <ele>268</ele><time>2013-09-28T10:05:13Z</time>
</trkpt>
<trkpt lat="48.3107766" lon="14.1144766">
 <ele>268</ele><time>2013-09-28T10:05:17Z</time>
</trkpt>
<trkpt lat="48.3107616" lon="14.1146050">
 <ele>269</ele><time>2013-09-28T10:05:21Z</time>
</trkpt>
<trkpt lat="48.3107533" lon="14.1147416">
 <ele>269</ele><time>2013-09-28T10:05:25Z</time>
</trkpt>
<trkpt lat="48.3107400" lon="14.1148816">
 <ele>270</ele><time>2013-09-28T10:05:29Z</time>
</trkpt>
<trkpt lat="48.3107316" lon="14.1150100">
 <ele>270</ele><time>2013-09-28T10:05:33Z</time>
</trkpt>
<trkpt lat="48.3107233" lon="14.1151266">
 <ele>271</ele><time>2013-09-28T10:05:37Z</time>
</trkpt>
<trkpt lat="48.3107116" lon="14.1152466">
 <ele>272</ele><time>2013-09-28T10:05:41Z</time>
</trkpt>
<trkpt lat="48.3106933" lon="14.1153933">
 <ele>272</ele><time>2013-09-28T10:05:45Z</time>
</trkpt>
<trkpt lat="48.3106900" lon="14.1155400">
 <ele>272</ele><time>2013-09-28T10:05:49Z</time>
</trkpt>
<trkpt lat="48.3106750" lon="14.1156566">
 <ele>273</ele><time>2013-09-28T10:05:53Z</time>
</trkpt>
<trkpt lat="48.3106733" lon="14.1157716">
 <ele>273</ele><time>2013-09-28T10:05:57Z</time>
</trkpt>
<trkpt lat="48.3106733" lon="14.1158833">
 <ele>274</ele><time>2013-09-28T10:06:01Z</time>
</trkpt>
<trkpt lat="48.3106783" lon="14.1160616">
 <ele>273</ele><time>2013-09-28T10:06:05Z</time>
</trkpt>
<trkpt lat="48.3106783" lon="14.1162000">
 <ele>273</ele><time>2013-09-28T10:06:09Z</time>
</trkpt>
<trkpt lat="48.3106666" lon="14.1163183">
 <ele>273</ele><time>2013-09-28T10:06:13Z</time>
</trkpt>
<trkpt lat="48.3106566" lon="14.1164150">
 <ele>274</ele><time>2013-09-28T10:06:17Z</time>
</trkpt>
<trkpt lat="48.3106416" lon="14.1165050">
 <ele>275</ele><time>2013-09-28T10:06:21Z</time>
</trkpt>
<trkpt lat="48.3106433" lon="14.1166366">
 <ele>274</ele><time>2013-09-28T10:06:25Z</time>
</trkpt>
<trkpt lat="48.3106533" lon="14.1167833">
 <ele>272</ele><time>2013-09-28T10:06:29Z</time>
</trkpt>
<trkpt lat="48.3106600" lon="14.1169216">
 <ele>271</ele><time>2013-09-28T10:06:33Z</time>
</trkpt>
<trkpt lat="48.3106616" lon="14.1170366">
 <ele>271</ele><time>2013-09-28T10:06:37Z</time>
</trkpt>
<trkpt lat="48.3106616" lon="14.1171900">
 <ele>272</ele><time>2013-09-28T10:06:41Z</time>
</trkpt>
<trkpt lat="48.3106666" lon="14.1173300">
 <ele>273</ele><time>2013-09-28T10:06:45Z</time>
</trkpt>
<trkpt lat="48.3106633" lon="14.1174550">
 <ele>274</ele><time>2013-09-28T10:06:49Z</time>
</trkpt>
<trkpt lat="48.3106616" lon="14.1175516">
 <ele>275</ele><time>2013-09-28T10:06:53Z</time>
</trkpt>
<trkpt lat="48.3106566" lon="14.1176350">
 <ele>276</ele><time>2013-09-28T10:06:57Z</time>
</trkpt>
<trkpt lat="48.3106683" lon="14.1177816">
 <ele>275</ele><time>2013-09-28T10:07:01Z</time>
</trkpt>
<trkpt lat="48.3106666" lon="14.1178600">
 <ele>275</ele><time>2013-09-28T10:07:05Z</time>
</trkpt>
<trkpt lat="48.3106733" lon="14.1179866">
 <ele>274</ele><time>2013-09-28T10:07:09Z</time>
</trkpt>
<trkpt lat="48.3106816" lon="14.1181050">
 <ele>273</ele><time>2013-09-28T10:07:13Z</time>
</trkpt>
<trkpt lat="48.3106883" lon="14.1182100">
 <ele>273</ele><time>2013-09-28T10:07:17Z</time>
</trkpt>
<trkpt lat="48.3106966" lon="14.1183300">
 <ele>272</ele><time>2013-09-28T10:07:21Z</time>
</trkpt>
<trkpt lat="48.3106983" lon="14.1184400">
 <ele>272</ele><time>2013-09-28T10:07:25Z</time>
</trkpt>
<trkpt lat="48.3107016" lon="14.1185366">
 <ele>272</ele><time>2013-09-28T10:07:29Z</time>
</trkpt>
<trkpt lat="48.3107100" lon="14.1186266">
 <ele>271</ele><time>2013-09-28T10:07:33Z</time>
</trkpt>
<trkpt lat="48.3107233" lon="14.1187100">
 <ele>269</ele><time>2013-09-28T10:07:37Z</time>
</trkpt>
<trkpt lat="48.3107250" lon="14.1188166">
 <ele>268</ele><time>2013-09-28T10:07:41Z</time>
</trkpt>
<trkpt lat="48.3107366" lon="14.1189266">
 <ele>266</ele><time>2013-09-28T10:07:45Z</time>
</trkpt>
<trkpt lat="48.3107433" lon="14.1190616">
 <ele>264</ele><time>2013-09-28T10:07:49Z</time>
</trkpt>
<trkpt lat="48.3107566" lon="14.1191816">
 <ele>263</ele><time>2013-09-28T10:07:53Z</time>
</trkpt>
<trkpt lat="48.3107650" lon="14.1192983">
 <ele>263</ele><time>2013-09-28T10:07:57Z</time>
</trkpt>
<trkpt lat="48.3107766" lon="14.1194150">
 <ele>263</ele><time>2013-09-28T10:08:01Z</time>
</trkpt>
<trkpt lat="48.3107916" lon="14.1195500">
 <ele>263</ele><time>2013-09-28T10:08:05Z</time>
</trkpt>
<trkpt lat="48.3108133" lon="14.1197100">
 <ele>263</ele><time>2013-09-28T10:08:09Z</time>
</trkpt>
<trkpt lat="48.3108333" lon="14.1198650">
 <ele>264</ele><time>2013-09-28T10:08:13Z</time>
</trkpt>
<trkpt lat="48.3108533" lon="14.1199833">
 <ele>266</ele><time>2013-09-28T10:08:17Z</time>
</trkpt>
<trkpt lat="48.3108650" lon="14.1200983">
 <ele>268</ele><time>2013-09-28T10:08:21Z</time>
</trkpt>
<trkpt lat="48.3108833" lon="14.1202600">
 <ele>270</ele><time>2013-09-28T10:08:25Z</time>
</trkpt>
<trkpt lat="48.3109033" lon="14.1204066">
 <ele>272</ele><time>2013-09-28T10:08:29Z</time>
</trkpt>
<trkpt lat="48.3109233" lon="14.1205533">
 <ele>274</ele><time>2013-09-28T10:08:33Z</time>
</trkpt>
<trkpt lat="48.3109366" lon="14.1206983">
 <ele>276</ele><time>2013-09-28T10:08:37Z</time>
</trkpt>
<trkpt lat="48.3109550" lon="14.1208366">
 <ele>278</ele><time>2013-09-28T10:08:41Z</time>
</trkpt>
<trkpt lat="48.3109633" lon="14.1209516">
 <ele>281</ele><time>2013-09-28T10:08:45Z</time>
</trkpt>
<trkpt lat="48.3109833" lon="14.1210533">
 <ele>282</ele><time>2013-09-28T10:08:49Z</time>
</trkpt>
<trkpt lat="48.3109966" lon="14.1211516">
 <ele>283</ele><time>2013-09-28T10:08:53Z</time>
</trkpt>
<trkpt lat="48.3110066" lon="14.1212483">
 <ele>283</ele><time>2013-09-28T10:08:57Z</time>
</trkpt>
<trkpt lat="48.3110283" lon="14.1213966">
 <ele>282</ele><time>2013-09-28T10:09:01Z</time>
</trkpt>
<trkpt lat="48.3110433" lon="14.1215200">
 <ele>281</ele><time>2013-09-28T10:09:05Z</time>
</trkpt>
<trkpt lat="48.3110533" lon="14.1216233">
 <ele>281</ele><time>2013-09-28T10:09:09Z</time>
</trkpt>
<trkpt lat="48.3110733" lon="14.1217216">
 <ele>280</ele><time>2013-09-28T10:09:13Z</time>
</trkpt>
<trkpt lat="48.3110883" lon="14.1218200">
 <ele>280</ele><time>2013-09-28T10:09:17Z</time>
</trkpt>
<trkpt lat="48.3111050" lon="14.1219283">
 <ele>279</ele><time>2013-09-28T10:09:21Z</time>
</trkpt>
<trkpt lat="48.3111250" lon="14.1220383">
 <ele>277</ele><time>2013-09-28T10:09:25Z</time>
</trkpt>
<trkpt lat="48.3111550" lon="14.1221883">
 <ele>276</ele><time>2013-09-28T10:09:29Z</time>
</trkpt>
<trkpt lat="48.3111750" lon="14.1223450">
 <ele>276</ele><time>2013-09-28T10:09:33Z</time>
</trkpt>
<trkpt lat="48.3111950" lon="14.1224900">
 <ele>277</ele><time>2013-09-28T10:09:37Z</time>
</trkpt>
<trkpt lat="48.3112183" lon="14.1226500">
 <ele>278</ele><time>2013-09-28T10:09:41Z</time>
</trkpt>
<trkpt lat="48.3112350" lon="14.1227916">
 <ele>281</ele><time>2013-09-28T10:09:45Z</time>
</trkpt>
<trkpt lat="48.3112533" lon="14.1229066">
 <ele>283</ele><time>2013-09-28T10:09:49Z</time>
</trkpt>
<trkpt lat="48.3112650" lon="14.1229883">
 <ele>285</ele><time>2013-09-28T10:09:53Z</time>
</trkpt>
<trkpt lat="48.3112800" lon="14.1230733">
 <ele>285</ele><time>2013-09-28T10:09:57Z</time>
</trkpt>
<trkpt lat="48.3112916" lon="14.1231566">
 <ele>283</ele><time>2013-09-28T10:10:01Z</time>
</trkpt>
<trkpt lat="48.3113050" lon="14.1232516">
 <ele>280</ele><time>2013-09-28T10:10:05Z</time>
</trkpt>
<trkpt lat="48.3113200" lon="14.1233266">
 <ele>277</ele><time>2013-09-28T10:10:09Z</time>
</trkpt>
<trkpt lat="48.3113316" lon="14.1233950">
 <ele>274</ele><time>2013-09-28T10:10:13Z</time>
</trkpt>
<trkpt lat="48.3113450" lon="14.1234766">
 <ele>271</ele><time>2013-09-28T10:10:17Z</time>
</trkpt>
<trkpt lat="48.3113616" lon="14.1235533">
 <ele>268</ele><time>2013-09-28T10:10:21Z</time>
</trkpt>
<trkpt lat="48.3113800" lon="14.1236466">
 <ele>264</ele><time>2013-09-28T10:10:25Z</time>
</trkpt>
<trkpt lat="48.3113950" lon="14.1237483">
 <ele>262</ele><time>2013-09-28T10:10:29Z</time>
</trkpt>
<trkpt lat="48.3114100" lon="14.1238400">
 <ele>259</ele><time>2013-09-28T10:10:33Z</time>
</trkpt>
<trkpt lat="48.3114333" lon="14.1239400">
 <ele>258</ele><time>2013-09-28T10:10:37Z</time>
</trkpt>
<trkpt lat="48.3114583" lon="14.1240433">
 <ele>256</ele><time>2013-09-28T10:10:41Z</time>
</trkpt>
<trkpt lat="48.3114850" lon="14.1241466">
 <ele>255</ele><time>2013-09-28T10:10:45Z</time>
</trkpt>
<trkpt lat="48.3115116" lon="14.1242566">
 <ele>254</ele><time>2013-09-28T10:10:49Z</time>
</trkpt>
<trkpt lat="48.3115416" lon="14.1243733">
 <ele>253</ele><time>2013-09-28T10:10:53Z</time>
</trkpt>
<trkpt lat="48.3115816" lon="14.1244783">
 <ele>253</ele><time>2013-09-28T10:10:57Z</time>
</trkpt>
<trkpt lat="48.3116083" lon="14.1245950">
 <ele>253</ele><time>2013-09-28T10:11:01Z</time>
</trkpt>
<trkpt lat="48.3116333" lon="14.1247183">
 <ele>253</ele><time>2013-09-28T10:11:05Z</time>
</trkpt>
<trkpt lat="48.3116550" lon="14.1248416">
 <ele>254</ele><time>2013-09-28T10:11:09Z</time>
</trkpt>
<trkpt lat="48.3116783" lon="14.1249600">
 <ele>255</ele><time>2013-09-28T10:11:13Z</time>
</trkpt>
<trkpt lat="48.3116983" lon="14.1250500">
 <ele>256</ele><time>2013-09-28T10:11:17Z</time>
</trkpt>
<trkpt lat="48.3117283" lon="14.1251700">
 <ele>256</ele><time>2013-09-28T10:11:21Z</time>
</trkpt>
<trkpt lat="48.3117600" lon="14.1252783">
 <ele>256</ele><time>2013-09-28T10:11:25Z</time>
</trkpt>
<trkpt lat="48.3117850" lon="14.1253966">
 <ele>255</ele><time>2013-09-28T10:11:29Z</time>
</trkpt>
<trkpt lat="48.3118100" lon="14.1255166">
 <ele>254</ele><time>2013-09-28T10:11:33Z</time>
</trkpt>
<trkpt lat="48.3118400" lon="14.1256433">
 <ele>255</ele><time>2013-09-28T10:11:37Z</time>
</trkpt>
<trkpt lat="48.3118650" lon="14.1257600">
 <ele>255</ele><time>2013-09-28T10:11:41Z</time>
</trkpt>
<trkpt lat="48.3119000" lon="14.1259016">
 <ele>256</ele><time>2013-09-28T10:11:45Z</time>
</trkpt>
<trkpt lat="48.3119433" lon="14.1260266">
 <ele>258</ele><time>2013-09-28T10:11:49Z</time>
</trkpt>
<trkpt lat="48.3119733" lon="14.1261366">
 <ele>259</ele><time>2013-09-28T10:11:53Z</time>
</trkpt>
<trkpt lat="48.3120050" lon="14.1262550">
 <ele>260</ele><time>2013-09-28T10:11:57Z</time>
</trkpt>
<trkpt lat="48.3120433" lon="14.1263466">
 <ele>261</ele><time>2013-09-28T10:12:01Z</time>
</trkpt>
<trkpt lat="48.3120600" lon="14.1264583">
 <ele>260</ele><time>2013-09-28T10:12:05Z</time>
</trkpt>
<trkpt lat="48.3120950" lon="14.1265833">
 <ele>260</ele><time>2013-09-28T10:12:09Z</time>
</trkpt>
<trkpt lat="48.3121400" lon="14.1266983">
 <ele>260</ele><time>2013-09-28T10:12:13Z</time>
</trkpt>
<trkpt lat="48.3121783" lon="14.1268166">
 <ele>260</ele><time>2013-09-28T10:12:17Z</time>
</trkpt>
<trkpt lat="48.3121966" lon="14.1269266">
 <ele>260</ele><time>2013-09-28T10:12:21Z</time>
</trkpt>
<trkpt lat="48.3122100" lon="14.1270516">
 <ele>260</ele><time>2013-09-28T10:12:25Z</time>
</trkpt>
<trkpt lat="48.3122466" lon="14.1271550">
 <ele>260</ele><time>2013-09-28T10:12:29Z</time>
</trkpt>
<trkpt lat="48.3122900" lon="14.1272500">
 <ele>259</ele><time>2013-09-28T10:12:33Z</time>
</trkpt>
<trkpt lat="48.3123300" lon="14.1273550">
 <ele>258</ele><time>2013-09-28T10:12:37Z</time>
</trkpt>
<trkpt lat="48.3123583" lon="14.1274566">
 <ele>258</ele><time>2013-09-28T10:12:41Z</time>
</trkpt>
<trkpt lat="48.3124300" lon="14.1275433">
 <ele>257</ele><time>2013-09-28T10:12:45Z</time>
</trkpt>
<trkpt lat="48.3124666" lon="14.1276683">
 <ele>257</ele><time>2013-09-28T10:12:49Z</time>
</trkpt>
<trkpt lat="48.3124750" lon="14.1277966">
 <ele>257</ele><time>2013-09-28T10:12:53Z</time>
</trkpt>
<trkpt lat="48.3125150" lon="14.1278950">
 <ele>258</ele><time>2013-09-28T10:12:57Z</time>
</trkpt>
<trkpt lat="48.3125483" lon="14.1280083">
 <ele>258</ele><time>2013-09-28T10:13:01Z</time>
</trkpt>
<trkpt lat="48.3125633" lon="14.1281066">
 <ele>258</ele><time>2013-09-28T10:13:05Z</time>
</trkpt>
<trkpt lat="48.3126200" lon="14.1282516">
 <ele>258</ele><time>2013-09-28T10:13:09Z</time>
</trkpt>
<trkpt lat="48.3126600" lon="14.1283516">
 <ele>259</ele><time>2013-09-28T10:13:13Z</time>
</trkpt>
<trkpt lat="48.3127100" lon="14.1284766">
 <ele>260</ele><time>2013-09-28T10:13:17Z</time>
</trkpt>
<trkpt lat="48.3127433" lon="14.1285783">
 <ele>262</ele><time>2013-09-28T10:13:21Z</time>
</trkpt>
<trkpt lat="48.3127866" lon="14.1286816">
 <ele>263</ele><time>2013-09-28T10:13:25Z</time>
</trkpt>
<trkpt lat="48.3128250" lon="14.1287816">
 <ele>263</ele><time>2013-09-28T10:13:29Z</time>
</trkpt>
<trkpt lat="48.3128616" lon="14.1289083">
 <ele>263</ele><time>2013-09-28T10:13:33Z</time>
</trkpt>
<trkpt lat="48.3128966" lon="14.1290166">
 <ele>263</ele><time>2013-09-28T10:13:37Z</time>
</trkpt>
<trkpt lat="48.3129183" lon="14.1291316">
 <ele>262</ele><time>2013-09-28T10:13:41Z</time>
</trkpt>
<trkpt lat="48.3129550" lon="14.1292400">
 <ele>262</ele><time>2013-09-28T10:13:45Z</time>
</trkpt>
<trkpt lat="48.3129900" lon="14.1293466">
 <ele>261</ele><time>2013-09-28T10:13:49Z</time>
</trkpt>
<trkpt lat="48.3130100" lon="14.1294600">
 <ele>260</ele><time>2013-09-28T10:13:53Z</time>
</trkpt>
<trkpt lat="48.3130083" lon="14.1295616">
 <ele>258</ele><time>2013-09-28T10:13:57Z</time>
</trkpt>
<trkpt lat="48.3130483" lon="14.1296950">
 <ele>257</ele><time>2013-09-28T10:14:01Z</time>
</trkpt>
<trkpt lat="48.3131000" lon="14.1298100">
 <ele>257</ele><time>2013-09-28T10:14:05Z</time>
</trkpt>
<trkpt lat="48.3131350" lon="14.1299316">
 <ele>257</ele><time>2013-09-28T10:14:09Z</time>
</trkpt>
<trkpt lat="48.3131933" lon="14.1300533">
 <ele>257</ele><time>2013-09-28T10:14:13Z</time>
</trkpt>
<trkpt lat="48.3132133" lon="14.1301750">
 <ele>257</ele><time>2013-09-28T10:14:17Z</time>
</trkpt>
<trkpt lat="48.3132433" lon="14.1302833">
 <ele>258</ele><time>2013-09-28T10:14:21Z</time>
</trkpt>
<trkpt lat="48.3132983" lon="14.1304183">
 <ele>258</ele><time>2013-09-28T10:14:25Z</time>
</trkpt>
<trkpt lat="48.3133416" lon="14.1305300">
 <ele>259</ele><time>2013-09-28T10:14:29Z</time>
</trkpt>
<trkpt lat="48.3133833" lon="14.1306333">
 <ele>260</ele><time>2013-09-28T10:14:33Z</time>
</trkpt>
<trkpt lat="48.3134283" lon="14.1307366">
 <ele>259</ele><time>2013-09-28T10:14:37Z</time>
</trkpt>
<trkpt lat="48.3134583" lon="14.1308350">
 <ele>259</ele><time>2013-09-28T10:14:41Z</time>
</trkpt>
<trkpt lat="48.3134966" lon="14.1309466">
 <ele>258</ele><time>2013-09-28T10:14:45Z</time>
</trkpt>
<trkpt lat="48.3135116" lon="14.1310516">
 <ele>257</ele><time>2013-09-28T10:14:49Z</time>
</trkpt>
<trkpt lat="48.3135116" lon="14.1311850">
 <ele>257</ele><time>2013-09-28T10:14:53Z</time>
</trkpt>
<trkpt lat="48.3135350" lon="14.1312900">
 <ele>256</ele><time>2013-09-28T10:14:57Z</time>
</trkpt>
<trkpt lat="48.3135583" lon="14.1314016">
 <ele>255</ele><time>2013-09-28T10:15:01Z</time>
</trkpt>
<trkpt lat="48.3135816" lon="14.1315100">
 <ele>255</ele><time>2013-09-28T10:15:05Z</time>
</trkpt>
<trkpt lat="48.3136300" lon="14.1316200">
 <ele>254</ele><time>2013-09-28T10:15:09Z</time>
</trkpt>
<trkpt lat="48.3136766" lon="14.1317383">
 <ele>254</ele><time>2013-09-28T10:15:13Z</time>
</trkpt>
<trkpt lat="48.3137250" lon="14.1318483">
 <ele>255</ele><time>2013-09-28T10:15:17Z</time>
</trkpt>
<trkpt lat="48.3137666" lon="14.1319666">
 <ele>255</ele><time>2013-09-28T10:15:21Z</time>
</trkpt>
<trkpt lat="48.3138016" lon="14.1320833">
 <ele>256</ele><time>2013-09-28T10:15:25Z</time>
</trkpt>
<trkpt lat="48.3138383" lon="14.1321883">
 <ele>257</ele><time>2013-09-28T10:15:29Z</time>
</trkpt>
<trkpt lat="48.3138700" lon="14.1322916">
 <ele>258</ele><time>2013-09-28T10:15:33Z</time>
</trkpt>
<trkpt lat="48.3139266" lon="14.1323850">
 <ele>259</ele><time>2013-09-28T10:15:37Z</time>
</trkpt>
<trkpt lat="48.3139766" lon="14.1324866">
 <ele>259</ele><time>2013-09-28T10:15:41Z</time>
</trkpt>
<trkpt lat="48.3140033" lon="14.1325816">
 <ele>258</ele><time>2013-09-28T10:15:45Z</time>
</trkpt>
<trkpt lat="48.3140383" lon="14.1327266">
 <ele>257</ele><time>2013-09-28T10:15:49Z</time>
</trkpt>
<trkpt lat="48.3140866" lon="14.1328266">
 <ele>257</ele><time>2013-09-28T10:15:53Z</time>
</trkpt>
<trkpt lat="48.3141166" lon="14.1329450">
 <ele>257</ele><time>2013-09-28T10:15:57Z</time>
</trkpt>
<trkpt lat="48.3141533" lon="14.1330616">
 <ele>257</ele><time>2013-09-28T10:16:01Z</time>
</trkpt>
<trkpt lat="48.3141850" lon="14.1331766">
 <ele>258</ele><time>2013-09-28T10:16:05Z</time>
</trkpt>
<trkpt lat="48.3142216" lon="14.1332766">
 <ele>258</ele><time>2013-09-28T10:16:09Z</time>
</trkpt>
<trkpt lat="48.3142883" lon="14.1333733">
 <ele>259</ele><time>2013-09-28T10:16:13Z</time>
</trkpt>
<trkpt lat="48.3143116" lon="14.1334750">
 <ele>258</ele><time>2013-09-28T10:16:17Z</time>
</trkpt>
<trkpt lat="48.3143366" lon="14.1335966">
 <ele>258</ele><time>2013-09-28T10:16:21Z</time>
</trkpt>
<trkpt lat="48.3143850" lon="14.1337033">
 <ele>258</ele><time>2013-09-28T10:16:25Z</time>
</trkpt>
<trkpt lat="48.3144283" lon="14.1338083">
 <ele>258</ele><time>2013-09-28T10:16:29Z</time>
</trkpt>
<trkpt lat="48.3144616" lon="14.1339316">
 <ele>258</ele><time>2013-09-28T10:16:33Z</time>
</trkpt>
<trkpt lat="48.3145083" lon="14.1340383">
 <ele>258</ele><time>2013-09-28T10:16:37Z</time>
</trkpt>
<trkpt lat="48.3145450" lon="14.1341433">
 <ele>258</ele><time>2013-09-28T10:16:41Z</time>
</trkpt>
<trkpt lat="48.3145983" lon="14.1342583">
 <ele>258</ele><time>2013-09-28T10:16:45Z</time>
</trkpt>
<trkpt lat="48.3146183" lon="14.1343616">
 <ele>258</ele><time>2013-09-28T10:16:49Z</time>
</trkpt>
<trkpt lat="48.3146550" lon="14.1344716">
 <ele>257</ele><time>2013-09-28T10:16:53Z</time>
</trkpt>
<trkpt lat="48.3146816" lon="14.1345800">
 <ele>257</ele><time>2013-09-28T10:16:57Z</time>
</trkpt>
<trkpt lat="48.3147166" lon="14.1346900">
 <ele>257</ele><time>2013-09-28T10:17:01Z</time>
</trkpt>
<trkpt lat="48.3147450" lon="14.1348150">
 <ele>256</ele><time>2013-09-28T10:17:05Z</time>
</trkpt>
<trkpt lat="48.3147800" lon="14.1349366">
 <ele>256</ele><time>2013-09-28T10:17:09Z</time>
</trkpt>
<trkpt lat="48.3148316" lon="14.1350616">
 <ele>256</ele><time>2013-09-28T10:17:13Z</time>
</trkpt>
<trkpt lat="48.3148650" lon="14.1351666">
 <ele>257</ele><time>2013-09-28T10:17:17Z</time>
</trkpt>
<trkpt lat="48.3149066" lon="14.1352866">
 <ele>258</ele><time>2013-09-28T10:17:21Z</time>
</trkpt>
<trkpt lat="48.3149483" lon="14.1353983">
 <ele>258</ele><time>2013-09-28T10:17:25Z</time>
</trkpt>
<trkpt lat="48.3149783" lon="14.1355033">
 <ele>259</ele><time>2013-09-28T10:17:29Z</time>
</trkpt>
<trkpt lat="48.3150316" lon="14.1356100">
 <ele>259</ele><time>2013-09-28T10:17:33Z</time>
</trkpt>
<trkpt lat="48.3150566" lon="14.1357066">
 <ele>260</ele><time>2013-09-28T10:17:37Z</time>
</trkpt>
<trkpt lat="48.3150800" lon="14.1357916">
 <ele>259</ele><time>2013-09-28T10:17:41Z</time>
</trkpt>
<trkpt lat="48.3151083" lon="14.1358900">
 <ele>258</ele><time>2013-09-28T10:17:45Z</time>
</trkpt>
<trkpt lat="48.3151433" lon="14.1360133">
 <ele>257</ele><time>2013-09-28T10:17:49Z</time>
</trkpt>
<trkpt lat="48.3151850" lon="14.1361300">
 <ele>257</ele><time>2013-09-28T10:17:53Z</time>
</trkpt>
<trkpt lat="48.3152333" lon="14.1362666">
 <ele>256</ele><time>2013-09-28T10:17:57Z</time>
</trkpt>
<trkpt lat="48.3152833" lon="14.1363650">
 <ele>257</ele><time>2013-09-28T10:18:01Z</time>
</trkpt>
<trkpt lat="48.3153266" lon="14.1364716">
 <ele>258</ele><time>2013-09-28T10:18:05Z</time>
</trkpt>
<trkpt lat="48.3153466" lon="14.1365966">
 <ele>259</ele><time>2013-09-28T10:18:09Z</time>
</trkpt>
<trkpt lat="48.3153766" lon="14.1367066">
 <ele>260</ele><time>2013-09-28T10:18:13Z</time>
</trkpt>
<trkpt lat="48.3154116" lon="14.1368250">
 <ele>260</ele><time>2013-09-28T10:18:17Z</time>
</trkpt>
<trkpt lat="48.3154233" lon="14.1369300">
 <ele>260</ele><time>2013-09-28T10:18:21Z</time>
</trkpt>
<trkpt lat="48.3154450" lon="14.1370383">
 <ele>261</ele><time>2013-09-28T10:18:25Z</time>
</trkpt>
<trkpt lat="48.3154900" lon="14.1371300">
 <ele>261</ele><time>2013-09-28T10:18:29Z</time>
</trkpt>
<trkpt lat="48.3155383" lon="14.1372316">
 <ele>261</ele><time>2013-09-28T10:18:33Z</time>
</trkpt>
<trkpt lat="48.3155800" lon="14.1373350">
 <ele>261</ele><time>2013-09-28T10:18:37Z</time>
</trkpt>
<trkpt lat="48.3156216" lon="14.1374566">
 <ele>261</ele><time>2013-09-28T10:18:41Z</time>
</trkpt>
<trkpt lat="48.3156566" lon="14.1375616">
 <ele>261</ele><time>2013-09-28T10:18:45Z</time>
</trkpt>
<trkpt lat="48.3156800" lon="14.1376700">
 <ele>262</ele><time>2013-09-28T10:18:49Z</time>
</trkpt>
<trkpt lat="48.3157183" lon="14.1377650">
 <ele>262</ele><time>2013-09-28T10:18:53Z</time>
</trkpt>
<trkpt lat="48.3157666" lon="14.1378616">
 <ele>262</ele><time>2013-09-28T10:18:57Z</time>
</trkpt>
<trkpt lat="48.3158250" lon="14.1379500">
 <ele>262</ele><time>2013-09-28T10:19:01Z</time>
</trkpt>
<trkpt lat="48.3158816" lon="14.1379483">
 <ele>261</ele><time>2013-09-28T10:19:05Z</time>
</trkpt>
<trkpt lat="48.3159750" lon="14.1379100">
 <ele>261</ele><time>2013-09-28T10:19:09Z</time>
</trkpt>
<trkpt lat="48.3160416" lon="14.1378583">
 <ele>260</ele><time>2013-09-28T10:19:13Z</time>
</trkpt>
<trkpt lat="48.3160916" lon="14.1378133">
 <ele>259</ele><time>2013-09-28T10:19:17Z</time>
</trkpt>
<trkpt lat="48.3161366" lon="14.1377816">
 <ele>258</ele><time>2013-09-28T10:19:21Z</time>
</trkpt>
<trkpt lat="48.3161866" lon="14.1377400">
 <ele>258</ele><time>2013-09-28T10:19:25Z</time>
</trkpt>
<trkpt lat="48.3162166" lon="14.1377300">
 <ele>258</ele><time>2013-09-28T10:19:29Z</time>
</trkpt>
<trkpt lat="48.3162266" lon="14.1377216">
 <ele>258</ele><time>2013-09-28T10:19:33Z</time>
</trkpt>
<trkpt lat="48.3162366" lon="14.1377116">
 <ele>258</ele><time>2013-09-28T10:19:37Z</time>
</trkpt>
<trkpt lat="48.3162416" lon="14.1377050">
 <ele>257</ele><time>2013-09-28T10:19:41Z</time>
</trkpt>
<trkpt lat="48.3162783" lon="14.1377300">
 <ele>256</ele><time>2013-09-28T10:19:45Z</time>
</trkpt>
<trkpt lat="48.3163200" lon="14.1377733">
 <ele>256</ele><time>2013-09-28T10:19:49Z</time>
</trkpt>
<trkpt lat="48.3164066" lon="14.1377966">
 <ele>255</ele><time>2013-09-28T10:19:53Z</time>
</trkpt>
<trkpt lat="48.3164550" lon="14.1378233">
 <ele>254</ele><time>2013-09-28T10:19:57Z</time>
</trkpt>
<trkpt lat="48.3165400" lon="14.1378733">
 <ele>253</ele><time>2013-09-28T10:20:01Z</time>
</trkpt>
<trkpt lat="48.3165800" lon="14.1378883">
 <ele>253</ele><time>2013-09-28T10:20:05Z</time>
</trkpt>
<trkpt lat="48.3166466" lon="14.1379400">
 <ele>252</ele><time>2013-09-28T10:20:09Z</time>
</trkpt>
<trkpt lat="48.3166866" lon="14.1379866">
 <ele>252</ele><time>2013-09-28T10:20:13Z</time>
</trkpt>
<trkpt lat="48.3167300" lon="14.1380483">
 <ele>252</ele><time>2013-09-28T10:20:17Z</time>
</trkpt>
<trkpt lat="48.3167683" lon="14.1380683">
 <ele>251</ele><time>2013-09-28T10:20:21Z</time>
</trkpt>
<trkpt lat="48.3167983" lon="14.1380966">
 <ele>250</ele><time>2013-09-28T10:20:25Z</time>
</trkpt>
<trkpt lat="48.3168500" lon="14.1381500">
 <ele>250</ele><time>2013-09-28T10:20:29Z</time>
</trkpt>
<trkpt lat="48.3169116" lon="14.1381866">
 <ele>249</ele><time>2013-09-28T10:20:33Z</time>
</trkpt>
<trkpt lat="48.3170550" lon="14.1383033">
 <ele>249</ele><time>2013-09-28T10:20:37Z</time>
</trkpt>
<trkpt lat="48.3171816" lon="14.1383516">
 <ele>248</ele><time>2013-09-28T10:20:41Z</time>
</trkpt>
<trkpt lat="48.3173000" lon="14.1384066">
 <ele>247</ele><time>2013-09-28T10:20:45Z</time>
</trkpt>
<trkpt lat="48.3174116" lon="14.1384266">
 <ele>246</ele><time>2013-09-28T10:20:49Z</time>
</trkpt>
<trkpt lat="48.3175500" lon="14.1384466">
 <ele>245</ele><time>2013-09-28T10:20:53Z</time>
</trkpt>
<trkpt lat="48.3176566" lon="14.1384416">
 <ele>243</ele><time>2013-09-28T10:20:57Z</time>
</trkpt>
<trkpt lat="48.3177316" lon="14.1384766">
 <ele>242</ele><time>2013-09-28T10:21:01Z</time>
</trkpt>
<trkpt lat="48.3178000" lon="14.1384816">
 <ele>241</ele><time>2013-09-28T10:21:05Z</time>
</trkpt>
<trkpt lat="48.3178433" lon="14.1385233">
 <ele>241</ele><time>2013-09-28T10:21:09Z</time>
</trkpt>
<trkpt lat="48.3179200" lon="14.1385350">
 <ele>240</ele><time>2013-09-28T10:21:13Z</time>
</trkpt>
<trkpt lat="48.3179866" lon="14.1385550">
 <ele>240</ele><time>2013-09-28T10:21:17Z</time>
</trkpt>
<trkpt lat="48.3180400" lon="14.1386000">
 <ele>240</ele><time>2013-09-28T10:21:21Z</time>
</trkpt>
<trkpt lat="48.3181483" lon="14.1386283">
 <ele>240</ele><time>2013-09-28T10:21:25Z</time>
</trkpt>
<trkpt lat="48.3182516" lon="14.1386550">
 <ele>240</ele><time>2013-09-28T10:21:29Z</time>
</trkpt>
<trkpt lat="48.3184083" lon="14.1386050">
 <ele>240</ele><time>2013-09-28T10:21:33Z</time>
</trkpt>
<trkpt lat="48.3184900" lon="14.1386550">
 <ele>241</ele><time>2013-09-28T10:21:37Z</time>
</trkpt>
<trkpt lat="48.3186166" lon="14.1387050">
 <ele>243</ele><time>2013-09-28T10:21:41Z</time>
</trkpt>
<trkpt lat="48.3186350" lon="14.1388083">
 <ele>244</ele><time>2013-09-28T10:21:45Z</time>
</trkpt>
<trkpt lat="48.3186733" lon="14.1388833">
 <ele>246</ele><time>2013-09-28T10:21:49Z</time>
</trkpt>
<trkpt lat="48.3187266" lon="14.1390050">
 <ele>248</ele><time>2013-09-28T10:21:53Z</time>
</trkpt>
<trkpt lat="48.3187633" lon="14.1391333">
 <ele>249</ele><time>2013-09-28T10:21:57Z</time>
</trkpt>
<trkpt lat="48.3188016" lon="14.1392050">
 <ele>250</ele><time>2013-09-28T10:22:01Z</time>
</trkpt>
<trkpt lat="48.3188583" lon="14.1393366">
 <ele>251</ele><time>2013-09-28T10:22:05Z</time>
</trkpt>
<trkpt lat="48.3189016" lon="14.1394400">
 <ele>252</ele><time>2013-09-28T10:22:09Z</time>
</trkpt>
<trkpt lat="48.3189416" lon="14.1395466">
 <ele>252</ele><time>2013-09-28T10:22:13Z</time>
</trkpt>
<trkpt lat="48.3189916" lon="14.1396450">
 <ele>253</ele><time>2013-09-28T10:22:17Z</time>
</trkpt>
<trkpt lat="48.3190250" lon="14.1397483">
 <ele>253</ele><time>2013-09-28T10:22:21Z</time>
</trkpt>
<trkpt lat="48.3190766" lon="14.1398450">
 <ele>254</ele><time>2013-09-28T10:22:25Z</time>
</trkpt>
<trkpt lat="48.3191283" lon="14.1399600">
 <ele>254</ele><time>2013-09-28T10:22:29Z</time>
</trkpt>
<trkpt lat="48.3191433" lon="14.1400700">
 <ele>254</ele><time>2013-09-28T10:22:33Z</time>
</trkpt>
<trkpt lat="48.3191766" lon="14.1401866">
 <ele>254</ele><time>2013-09-28T10:22:37Z</time>
</trkpt>
<trkpt lat="48.3192016" lon="14.1403300">
 <ele>255</ele><time>2013-09-28T10:22:41Z</time>
</trkpt>
<trkpt lat="48.3192250" lon="14.1404583">
 <ele>256</ele><time>2013-09-28T10:22:45Z</time>
</trkpt>
<trkpt lat="48.3192466" lon="14.1406000">
 <ele>257</ele><time>2013-09-28T10:22:49Z</time>
</trkpt>
<trkpt lat="48.3192800" lon="14.1406983">
 <ele>258</ele><time>2013-09-28T10:22:53Z</time>
</trkpt>
<trkpt lat="48.3193216" lon="14.1408066">
 <ele>258</ele><time>2013-09-28T10:22:57Z</time>
</trkpt>
<trkpt lat="48.3193783" lon="14.1409366">
 <ele>257</ele><time>2013-09-28T10:23:01Z</time>
</trkpt>
<trkpt lat="48.3194166" lon="14.1410466">
 <ele>256</ele><time>2013-09-28T10:23:05Z</time>
</trkpt>
<trkpt lat="48.3194450" lon="14.1411983">
 <ele>255</ele><time>2013-09-28T10:23:09Z</time>
</trkpt>
<trkpt lat="48.3194733" lon="14.1413166">
 <ele>255</ele><time>2013-09-28T10:23:13Z</time>
</trkpt>
<trkpt lat="48.3195233" lon="14.1414083">
 <ele>255</ele><time>2013-09-28T10:23:17Z</time>
</trkpt>
<trkpt lat="48.3195666" lon="14.1415233">
 <ele>254</ele><time>2013-09-28T10:23:21Z</time>
</trkpt>
<trkpt lat="48.3196000" lon="14.1416233">
 <ele>253</ele><time>2013-09-28T10:23:25Z</time>
</trkpt>
<trkpt lat="48.3196433" lon="14.1417233">
 <ele>253</ele><time>2013-09-28T10:23:29Z</time>
</trkpt>
<trkpt lat="48.3196833" lon="14.1418433">
 <ele>252</ele><time>2013-09-28T10:23:33Z</time>
</trkpt>
<trkpt lat="48.3197333" lon="14.1419300">
 <ele>252</ele><time>2013-09-28T10:23:37Z</time>
</trkpt>
<trkpt lat="48.3197766" lon="14.1420650">
 <ele>252</ele><time>2013-09-28T10:23:41Z</time>
</trkpt>
<trkpt lat="48.3198300" lon="14.1421650">
 <ele>252</ele><time>2013-09-28T10:23:45Z</time>
</trkpt>
<trkpt lat="48.3199050" lon="14.1422466">
 <ele>252</ele><time>2013-09-28T10:23:49Z</time>
</trkpt>
<trkpt lat="48.3199566" lon="14.1423383">
 <ele>252</ele><time>2013-09-28T10:23:53Z</time>
</trkpt>
<trkpt lat="48.3200033" lon="14.1424350">
 <ele>252</ele><time>2013-09-28T10:23:57Z</time>
</trkpt>
<trkpt lat="48.3200516" lon="14.1425400">
 <ele>251</ele><time>2013-09-28T10:24:01Z</time>
</trkpt>
<trkpt lat="48.3200966" lon="14.1426550">
 <ele>251</ele><time>2013-09-28T10:24:05Z</time>
</trkpt>
<trkpt lat="48.3201333" lon="14.1427666">
 <ele>251</ele><time>2013-09-28T10:24:09Z</time>
</trkpt>
<trkpt lat="48.3201750" lon="14.1428733">
 <ele>251</ele><time>2013-09-28T10:24:13Z</time>
</trkpt>
<trkpt lat="48.3202300" lon="14.1429850">
 <ele>252</ele><time>2013-09-28T10:24:17Z</time>
</trkpt>
<trkpt lat="48.3202700" lon="14.1431100">
 <ele>252</ele><time>2013-09-28T10:24:21Z</time>
</trkpt>
<trkpt lat="48.3203183" lon="14.1431833">
 <ele>252</ele><time>2013-09-28T10:24:25Z</time>
</trkpt>
<trkpt lat="48.3203650" lon="14.1432833">
 <ele>252</ele><time>2013-09-28T10:24:29Z</time>
</trkpt>
<trkpt lat="48.3203900" lon="14.1433566">
 <ele>252</ele><time>2013-09-28T10:24:33Z</time>
</trkpt>
<trkpt lat="48.3204666" lon="14.1435000">
 <ele>251</ele><time>2013-09-28T10:24:37Z</time>
</trkpt>
<trkpt lat="48.3205250" lon="14.1435983">
 <ele>251</ele><time>2013-09-28T10:24:41Z</time>
</trkpt>
<trkpt lat="48.3205800" lon="14.1437016">
 <ele>251</ele><time>2013-09-28T10:24:45Z</time>
</trkpt>
<trkpt lat="48.3206233" lon="14.1437816">
 <ele>252</ele><time>2013-09-28T10:24:49Z</time>
</trkpt>
<trkpt lat="48.3207016" lon="14.1438783">
 <ele>252</ele><time>2013-09-28T10:24:53Z</time>
</trkpt>
<trkpt lat="48.3207716" lon="14.1439766">
 <ele>252</ele><time>2013-09-28T10:24:57Z</time>
</trkpt>
<trkpt lat="48.3208183" lon="14.1440983">
 <ele>253</ele><time>2013-09-28T10:25:01Z</time>
</trkpt>
<trkpt lat="48.3208600" lon="14.1442033">
 <ele>254</ele><time>2013-09-28T10:25:05Z</time>
</trkpt>
<trkpt lat="48.3209066" lon="14.1443000">
 <ele>254</ele><time>2013-09-28T10:25:09Z</time>
</trkpt>
<trkpt lat="48.3209516" lon="14.1444066">
 <ele>254</ele><time>2013-09-28T10:25:13Z</time>
</trkpt>
<trkpt lat="48.3210150" lon="14.1444933">
 <ele>255</ele><time>2013-09-28T10:25:17Z</time>
</trkpt>
<trkpt lat="48.3210566" lon="14.1446066">
 <ele>255</ele><time>2013-09-28T10:25:21Z</time>
</trkpt>
<trkpt lat="48.3211233" lon="14.1447066">
 <ele>255</ele><time>2013-09-28T10:25:25Z</time>
</trkpt>
<trkpt lat="48.3211683" lon="14.1448200">
 <ele>255</ele><time>2013-09-28T10:25:29Z</time>
</trkpt>
<trkpt lat="48.3212450" lon="14.1448966">
 <ele>255</ele><time>2013-09-28T10:25:33Z</time>
</trkpt>
<trkpt lat="48.3213150" lon="14.1449516">
 <ele>254</ele><time>2013-09-28T10:25:37Z</time>
</trkpt>
<trkpt lat="48.3213883" lon="14.1448750">
 <ele>254</ele><time>2013-09-28T10:25:41Z</time>
</trkpt>
<trkpt lat="48.3214233" lon="14.1447850">
 <ele>254</ele><time>2013-09-28T10:25:45Z</time>
</trkpt>
<trkpt lat="48.3214616" lon="14.1446933">
 <ele>253</ele><time>2013-09-28T10:25:49Z</time>
</trkpt>
<trkpt lat="48.3215100" lon="14.1445733">
 <ele>252</ele><time>2013-09-28T10:25:53Z</time>
</trkpt>
<trkpt lat="48.3215233" lon="14.1444516">
 <ele>252</ele><time>2013-09-28T10:25:57Z</time>
</trkpt>
<trkpt lat="48.3214866" lon="14.1443433">
 <ele>251</ele><time>2013-09-28T10:26:01Z</time>
</trkpt>
<trkpt lat="48.3214616" lon="14.1441833">
 <ele>250</ele><time>2013-09-28T10:26:05Z</time>
</trkpt>
<trkpt lat="48.3214600" lon="14.1440383">
 <ele>248</ele><time>2013-09-28T10:26:09Z</time>
</trkpt>
<trkpt lat="48.3214683" lon="14.1439983">
 <ele>246</ele><time>2013-09-28T10:26:13Z</time>
</trkpt>
<trkpt lat="48.3214933" lon="14.1440133">
 <ele>244</ele><time>2013-09-28T10:26:17Z</time>
</trkpt>
<trkpt lat="48.3215366" lon="14.1440316">
 <ele>242</ele><time>2013-09-28T10:26:21Z</time>
</trkpt>
<trkpt lat="48.3216333" lon="14.1440433">
 <ele>241</ele><time>2013-09-28T10:26:25Z</time>
</trkpt>
<trkpt lat="48.3217466" lon="14.1440516">
 <ele>240</ele><time>2013-09-28T10:26:29Z</time>
</trkpt>
<trkpt lat="48.3218250" lon="14.1441166">
 <ele>240</ele><time>2013-09-28T10:26:33Z</time>
</trkpt>
<trkpt lat="48.3218733" lon="14.1442200">
 <ele>241</ele><time>2013-09-28T10:26:37Z</time>
</trkpt>
<trkpt lat="48.3219100" lon="14.1443200">
 <ele>242</ele><time>2013-09-28T10:26:41Z</time>
</trkpt>
<trkpt lat="48.3219016" lon="14.1444366">
 <ele>243</ele><time>2013-09-28T10:26:45Z</time>
</trkpt>
<trkpt lat="48.3218600" lon="14.1445400">
 <ele>244</ele><time>2013-09-28T10:26:49Z</time>
</trkpt>
<trkpt lat="48.3217900" lon="14.1446050">
 <ele>245</ele><time>2013-09-28T10:26:53Z</time>
</trkpt>
<trkpt lat="48.3217233" lon="14.1446550">
 <ele>247</ele><time>2013-09-28T10:26:57Z</time>
</trkpt>
<trkpt lat="48.3216550" lon="14.1447183">
 <ele>247</ele><time>2013-09-28T10:27:01Z</time>
</trkpt>
<trkpt lat="48.3215916" lon="14.1447850">
 <ele>248</ele><time>2013-09-28T10:27:05Z</time>
</trkpt>
<trkpt lat="48.3215333" lon="14.1448550">
 <ele>248</ele><time>2013-09-28T10:27:09Z</time>
</trkpt>
<trkpt lat="48.3214766" lon="14.1449150">
 <ele>247</ele><time>2013-09-28T10:27:13Z</time>
</trkpt>
<trkpt lat="48.3214283" lon="14.1450083">
 <ele>246</ele><time>2013-09-28T10:27:17Z</time>
</trkpt>
<trkpt lat="48.3214100" lon="14.1451500">
 <ele>245</ele><time>2013-09-28T10:27:21Z</time>
</trkpt>
<trkpt lat="48.3213950" lon="14.1452550">
 <ele>246</ele><time>2013-09-28T10:27:25Z</time>
</trkpt>
<trkpt lat="48.3214116" lon="14.1453700">
 <ele>246</ele><time>2013-09-28T10:27:29Z</time>
</trkpt>
<trkpt lat="48.3214600" lon="14.1454716">
 <ele>247</ele><time>2013-09-28T10:27:33Z</time>
</trkpt>
<trkpt lat="48.3215100" lon="14.1455816">
 <ele>248</ele><time>2013-09-28T10:27:37Z</time>
</trkpt>
<trkpt lat="48.3215616" lon="14.1456800">
 <ele>248</ele><time>2013-09-28T10:27:41Z</time>
</trkpt>
<trkpt lat="48.3216216" lon="14.1457483">
 <ele>248</ele><time>2013-09-28T10:27:45Z</time>
</trkpt>
<trkpt lat="48.3216783" lon="14.1458450">
 <ele>248</ele><time>2013-09-28T10:27:49Z</time>
</trkpt>
<trkpt lat="48.3217333" lon="14.1459400">
 <ele>249</ele><time>2013-09-28T10:27:53Z</time>
</trkpt>
<trkpt lat="48.3217833" lon="14.1460300">
 <ele>249</ele><time>2013-09-28T10:27:57Z</time>
</trkpt>
<trkpt lat="48.3218300" lon="14.1461416">
 <ele>250</ele><time>2013-09-28T10:28:01Z</time>
</trkpt>
<trkpt lat="48.3218833" lon="14.1462433">
 <ele>250</ele><time>2013-09-28T10:28:05Z</time>
</trkpt>
<trkpt lat="48.3219250" lon="14.1463683">
 <ele>250</ele><time>2013-09-28T10:28:09Z</time>
</trkpt>
<trkpt lat="48.3219566" lon="14.1464850">
 <ele>251</ele><time>2013-09-28T10:28:13Z</time>
</trkpt>
<trkpt lat="48.3219950" lon="14.1465966">
 <ele>251</ele><time>2013-09-28T10:28:17Z</time>
</trkpt>
<trkpt lat="48.3220283" lon="14.1466966">
 <ele>251</ele><time>2013-09-28T10:28:21Z</time>
</trkpt>
<trkpt lat="48.3220716" lon="14.1467800">
 <ele>250</ele><time>2013-09-28T10:28:25Z</time>
</trkpt>
<trkpt lat="48.3221166" lon="14.1468700">
 <ele>249</ele><time>2013-09-28T10:28:29Z</time>
</trkpt>
<trkpt lat="48.3221583" lon="14.1469583">
 <ele>249</ele><time>2013-09-28T10:28:33Z</time>
</trkpt>
<trkpt lat="48.3221983" lon="14.1470500">
 <ele>248</ele><time>2013-09-28T10:28:37Z</time>
</trkpt>
<trkpt lat="48.3222516" lon="14.1471183">
 <ele>248</ele><time>2013-09-28T10:28:41Z</time>
</trkpt>
<trkpt lat="48.3222983" lon="14.1472050">
 <ele>248</ele><time>2013-09-28T10:28:45Z</time>
</trkpt>
<trkpt lat="48.3223383" lon="14.1472950">
 <ele>248</ele><time>2013-09-28T10:28:49Z</time>
</trkpt>
<trkpt lat="48.3223950" lon="14.1473783">
 <ele>249</ele><time>2013-09-28T10:28:53Z</time>
</trkpt>
<trkpt lat="48.3224450" lon="14.1474833">
 <ele>250</ele><time>2013-09-28T10:28:57Z</time>
</trkpt>
<trkpt lat="48.3225066" lon="14.1475600">
 <ele>250</ele><time>2013-09-28T10:29:01Z</time>
</trkpt>
<trkpt lat="48.3225683" lon="14.1476166">
 <ele>251</ele><time>2013-09-28T10:29:05Z</time>
</trkpt>
<trkpt lat="48.3226416" lon="14.1476500">
 <ele>253</ele><time>2013-09-28T10:29:09Z</time>
</trkpt>
<trkpt lat="48.3227116" lon="14.1476866">
 <ele>254</ele><time>2013-09-28T10:29:13Z</time>
</trkpt>
<trkpt lat="48.3227783" lon="14.1477150">
 <ele>254</ele><time>2013-09-28T10:29:17Z</time>
</trkpt>
<trkpt lat="48.3228366" lon="14.1477450">
 <ele>255</ele><time>2013-09-28T10:29:21Z</time>
</trkpt>
<trkpt lat="48.3229016" lon="14.1477866">
 <ele>255</ele><time>2013-09-28T10:29:25Z</time>
</trkpt>
<trkpt lat="48.3229783" lon="14.1478350">
 <ele>256</ele><time>2013-09-28T10:29:29Z</time>
</trkpt>
<trkpt lat="48.3230550" lon="14.1478900">
 <ele>256</ele><time>2013-09-28T10:29:33Z</time>
</trkpt>
<trkpt lat="48.3231283" lon="14.1479583">
 <ele>257</ele><time>2013-09-28T10:29:37Z</time>
</trkpt>
<trkpt lat="48.3231766" lon="14.1480483">
 <ele>258</ele><time>2013-09-28T10:29:41Z</time>
</trkpt>
<trkpt lat="48.3232266" lon="14.1481400">
 <ele>258</ele><time>2013-09-28T10:29:45Z</time>
</trkpt>
<trkpt lat="48.3232816" lon="14.1482250">
 <ele>258</ele><time>2013-09-28T10:29:49Z</time>
</trkpt>
<trkpt lat="48.3233366" lon="14.1483150">
 <ele>257</ele><time>2013-09-28T10:29:53Z</time>
</trkpt>
<trkpt lat="48.3233866" lon="14.1483966">
 <ele>257</ele><time>2013-09-28T10:29:57Z</time>
</trkpt>
<trkpt lat="48.3234283" lon="14.1484983">
 <ele>256</ele><time>2013-09-28T10:30:01Z</time>
</trkpt>
<trkpt lat="48.3234833" lon="14.1485766">
 <ele>256</ele><time>2013-09-28T10:30:05Z</time>
</trkpt>
<trkpt lat="48.3235316" lon="14.1486650">
 <ele>255</ele><time>2013-09-28T10:30:09Z</time>
</trkpt>
<trkpt lat="48.3235733" lon="14.1487600">
 <ele>255</ele><time>2013-09-28T10:30:13Z</time>
</trkpt>
<trkpt lat="48.3236033" lon="14.1488733">
 <ele>254</ele><time>2013-09-28T10:30:17Z</time>
</trkpt>
<trkpt lat="48.3236616" lon="14.1489633">
 <ele>253</ele><time>2013-09-28T10:30:21Z</time>
</trkpt>
<trkpt lat="48.3237000" lon="14.1490583">
 <ele>253</ele><time>2013-09-28T10:30:25Z</time>
</trkpt>
<trkpt lat="48.3237533" lon="14.1491400">
 <ele>253</ele><time>2013-09-28T10:30:29Z</time>
</trkpt>
<trkpt lat="48.3238050" lon="14.1492383">
 <ele>254</ele><time>2013-09-28T10:30:33Z</time>
</trkpt>
<trkpt lat="48.3238300" lon="14.1493350">
 <ele>254</ele><time>2013-09-28T10:30:37Z</time>
</trkpt>
<trkpt lat="48.3238500" lon="14.1494500">
 <ele>254</ele><time>2013-09-28T10:30:41Z</time>
</trkpt>
<trkpt lat="48.3238816" lon="14.1495616">
 <ele>254</ele><time>2013-09-28T10:30:45Z</time>
</trkpt>
<trkpt lat="48.3239300" lon="14.1496666">
 <ele>254</ele><time>2013-09-28T10:30:49Z</time>
</trkpt>
<trkpt lat="48.3239466" lon="14.1497666">
 <ele>254</ele><time>2013-09-28T10:30:53Z</time>
</trkpt>
<trkpt lat="48.3239850" lon="14.1498633">
 <ele>255</ele><time>2013-09-28T10:30:57Z</time>
</trkpt>
<trkpt lat="48.3240133" lon="14.1499766">
 <ele>256</ele><time>2013-09-28T10:31:01Z</time>
</trkpt>
<trkpt lat="48.3240333" lon="14.1500883">
 <ele>256</ele><time>2013-09-28T10:31:05Z</time>
</trkpt>
<trkpt lat="48.3240950" lon="14.1502000">
 <ele>256</ele><time>2013-09-28T10:31:09Z</time>
</trkpt>
<trkpt lat="48.3241150" lon="14.1502900">
 <ele>256</ele><time>2013-09-28T10:31:13Z</time>
</trkpt>
<trkpt lat="48.3241683" lon="14.1504066">
 <ele>256</ele><time>2013-09-28T10:31:17Z</time>
</trkpt>
<trkpt lat="48.3242283" lon="14.1505516">
 <ele>255</ele><time>2013-09-28T10:31:21Z</time>
</trkpt>
<trkpt lat="48.3242350" lon="14.1506716">
 <ele>255</ele><time>2013-09-28T10:31:25Z</time>
</trkpt>
<trkpt lat="48.3242416" lon="14.1507900">
 <ele>254</ele><time>2013-09-28T10:31:29Z</time>
</trkpt>
<trkpt lat="48.3242750" lon="14.1508850">
 <ele>253</ele><time>2013-09-28T10:31:33Z</time>
</trkpt>
<trkpt lat="48.3243033" lon="14.1510166">
 <ele>253</ele><time>2013-09-28T10:31:37Z</time>
</trkpt>
<trkpt lat="48.3243433" lon="14.1511350">
 <ele>253</ele><time>2013-09-28T10:31:41Z</time>
</trkpt>
<trkpt lat="48.3243916" lon="14.1512466">
 <ele>253</ele><time>2013-09-28T10:31:45Z</time>
</trkpt>
<trkpt lat="48.3244083" lon="14.1513666">
 <ele>253</ele><time>2013-09-28T10:31:49Z</time>
</trkpt>
<trkpt lat="48.3244383" lon="14.1514800">
 <ele>253</ele><time>2013-09-28T10:31:53Z</time>
</trkpt>
<trkpt lat="48.3244883" lon="14.1515916">
 <ele>253</ele><time>2013-09-28T10:31:57Z</time>
</trkpt>
<trkpt lat="48.3245416" lon="14.1516900">
 <ele>253</ele><time>2013-09-28T10:32:01Z</time>
</trkpt>
<trkpt lat="48.3245816" lon="14.1518033">
 <ele>253</ele><time>2013-09-28T10:32:05Z</time>
</trkpt>
<trkpt lat="48.3246116" lon="14.1519150">
 <ele>253</ele><time>2013-09-28T10:32:09Z</time>
</trkpt>
<trkpt lat="48.3246650" lon="14.1520166">
 <ele>252</ele><time>2013-09-28T10:32:13Z</time>
</trkpt>
<trkpt lat="48.3247283" lon="14.1521083">
 <ele>252</ele><time>2013-09-28T10:32:17Z</time>
</trkpt>
<trkpt lat="48.3247450" lon="14.1522166">
 <ele>252</ele><time>2013-09-28T10:32:21Z</time>
</trkpt>
<trkpt lat="48.3247700" lon="14.1523283">
 <ele>251</ele><time>2013-09-28T10:32:25Z</time>
</trkpt>
<trkpt lat="48.3247816" lon="14.1524183">
 <ele>251</ele><time>2013-09-28T10:32:29Z</time>
</trkpt>
<trkpt lat="48.3248183" lon="14.1525250">
 <ele>250</ele><time>2013-09-28T10:32:33Z</time>
</trkpt>
<trkpt lat="48.3248566" lon="14.1526133">
 <ele>250</ele><time>2013-09-28T10:32:37Z</time>
</trkpt>
<trkpt lat="48.3248883" lon="14.1527450">
 <ele>250</ele><time>2013-09-28T10:32:41Z</time>
</trkpt>
<trkpt lat="48.3249216" lon="14.1528716">
 <ele>250</ele><time>2013-09-28T10:32:45Z</time>
</trkpt>
<trkpt lat="48.3249650" lon="14.1529633">
 <ele>250</ele><time>2013-09-28T10:32:49Z</time>
</trkpt>
<trkpt lat="48.3250050" lon="14.1530783">
 <ele>250</ele><time>2013-09-28T10:32:53Z</time>
</trkpt>
<trkpt lat="48.3250316" lon="14.1532016">
 <ele>249</ele><time>2013-09-28T10:32:57Z</time>
</trkpt>
<trkpt lat="48.3251016" lon="14.1533133">
 <ele>249</ele><time>2013-09-28T10:33:01Z</time>
</trkpt>
<trkpt lat="48.3251116" lon="14.1533950">
 <ele>249</ele><time>2013-09-28T10:33:05Z</time>
</trkpt>
<trkpt lat="48.3251416" lon="14.1535516">
 <ele>249</ele><time>2013-09-28T10:33:09Z</time>
</trkpt>
<trkpt lat="48.3251933" lon="14.1536466">
 <ele>250</ele><time>2013-09-28T10:33:13Z</time>
</trkpt>
<trkpt lat="48.3252466" lon="14.1537616">
 <ele>250</ele><time>2013-09-28T10:33:17Z</time>
</trkpt>
<trkpt lat="48.3252816" lon="14.1538766">
 <ele>251</ele><time>2013-09-28T10:33:21Z</time>
</trkpt>
<trkpt lat="48.3253250" lon="14.1539800">
 <ele>252</ele><time>2013-09-28T10:33:25Z</time>
</trkpt>
<trkpt lat="48.3253650" lon="14.1541016">
 <ele>252</ele><time>2013-09-28T10:33:29Z</time>
</trkpt>
<trkpt lat="48.3253916" lon="14.1541966">
 <ele>253</ele><time>2013-09-28T10:33:33Z</time>
</trkpt>
<trkpt lat="48.3254400" lon="14.1542866">
 <ele>254</ele><time>2013-09-28T10:33:37Z</time>
</trkpt>
<trkpt lat="48.3254666" lon="14.1544083">
 <ele>254</ele><time>2013-09-28T10:33:41Z</time>
</trkpt>
<trkpt lat="48.3254833" lon="14.1545000">
 <ele>254</ele><time>2013-09-28T10:33:45Z</time>
</trkpt>
<trkpt lat="48.3255333" lon="14.1546133">
 <ele>255</ele><time>2013-09-28T10:33:49Z</time>
</trkpt>
<trkpt lat="48.3255533" lon="14.1547033">
 <ele>255</ele><time>2013-09-28T10:33:53Z</time>
</trkpt>
<trkpt lat="48.3255883" lon="14.1548000">
 <ele>255</ele><time>2013-09-28T10:33:57Z</time>
</trkpt>
<trkpt lat="48.3256150" lon="14.1549066">
 <ele>256</ele><time>2013-09-28T10:34:01Z</time>
</trkpt>
<trkpt lat="48.3256333" lon="14.1550166">
 <ele>256</ele><time>2013-09-28T10:34:05Z</time>
</trkpt>
<trkpt lat="48.3256683" lon="14.1551166">
 <ele>256</ele><time>2013-09-28T10:34:09Z</time>
</trkpt>
<trkpt lat="48.3257233" lon="14.1552083">
 <ele>256</ele><time>2013-09-28T10:34:13Z</time>
</trkpt>
<trkpt lat="48.3257600" lon="14.1553100">
 <ele>255</ele><time>2013-09-28T10:34:17Z</time>
</trkpt>
<trkpt lat="48.3258250" lon="14.1554000">
 <ele>255</ele><time>2013-09-28T10:34:21Z</time>
</trkpt>
<trkpt lat="48.3258566" lon="14.1555016">
 <ele>254</ele><time>2013-09-28T10:34:25Z</time>
</trkpt>
<trkpt lat="48.3258700" lon="14.1556100">
 <ele>253</ele><time>2013-09-28T10:34:29Z</time>
</trkpt>
<trkpt lat="48.3259216" lon="14.1557050">
 <ele>252</ele><time>2013-09-28T10:34:33Z</time>
</trkpt>
<trkpt lat="48.3259200" lon="14.1558233">
 <ele>252</ele><time>2013-09-28T10:34:37Z</time>
</trkpt>
<trkpt lat="48.3259450" lon="14.1559333">
 <ele>251</ele><time>2013-09-28T10:34:41Z</time>
</trkpt>
<trkpt lat="48.3259750" lon="14.1560450">
 <ele>251</ele><time>2013-09-28T10:34:45Z</time>
</trkpt>
<trkpt lat="48.3260133" lon="14.1561416">
 <ele>251</ele><time>2013-09-28T10:34:49Z</time>
</trkpt>
<trkpt lat="48.3260716" lon="14.1562400">
 <ele>251</ele><time>2013-09-28T10:34:53Z</time>
</trkpt>
<trkpt lat="48.3261250" lon="14.1563233">
 <ele>251</ele><time>2013-09-28T10:34:57Z</time>
</trkpt>
<trkpt lat="48.3261716" lon="14.1564100">
 <ele>251</ele><time>2013-09-28T10:35:01Z</time>
</trkpt>
<trkpt lat="48.3262000" lon="14.1565050">
 <ele>251</ele><time>2013-09-28T10:35:05Z</time>
</trkpt>
<trkpt lat="48.3262250" lon="14.1565883">
 <ele>251</ele><time>2013-09-28T10:35:09Z</time>
</trkpt>
<trkpt lat="48.3262266" lon="14.1567200">
 <ele>251</ele><time>2013-09-28T10:35:13Z</time>
</trkpt>
<trkpt lat="48.3262550" lon="14.1568200">
 <ele>251</ele><time>2013-09-28T10:35:17Z</time>
</trkpt>
<trkpt lat="48.3262900" lon="14.1569233">
 <ele>251</ele><time>2013-09-28T10:35:21Z</time>
</trkpt>
<trkpt lat="48.3263483" lon="14.1570166">
 <ele>251</ele><time>2013-09-28T10:35:25Z</time>
</trkpt>
<trkpt lat="48.3263766" lon="14.1571150">
 <ele>251</ele><time>2013-09-28T10:35:29Z</time>
</trkpt>
<trkpt lat="48.3264166" lon="14.1572083">
 <ele>251</ele><time>2013-09-28T10:35:33Z</time>
</trkpt>
<trkpt lat="48.3264616" lon="14.1573033">
 <ele>251</ele><time>2013-09-28T10:35:37Z</time>
</trkpt>
<trkpt lat="48.3264866" lon="14.1573566">
 <ele>250</ele><time>2013-09-28T10:35:41Z</time>
</trkpt>
<trkpt lat="48.3264966" lon="14.1574533">
 <ele>250</ele><time>2013-09-28T10:35:45Z</time>
</trkpt>
<trkpt lat="48.3265283" lon="14.1575616">
 <ele>250</ele><time>2013-09-28T10:35:49Z</time>
</trkpt>
<trkpt lat="48.3265466" lon="14.1577133">
 <ele>250</ele><time>2013-09-28T10:35:53Z</time>
</trkpt>
<trkpt lat="48.3265833" lon="14.1577866">
 <ele>251</ele><time>2013-09-28T10:35:57Z</time>
</trkpt>
<trkpt lat="48.3266100" lon="14.1578850">
 <ele>252</ele><time>2013-09-28T10:36:01Z</time>
</trkpt>
<trkpt lat="48.3266316" lon="14.1579733">
 <ele>252</ele><time>2013-09-28T10:36:05Z</time>
</trkpt>
<trkpt lat="48.3266716" lon="14.1580483">
 <ele>253</ele><time>2013-09-28T10:36:09Z</time>
</trkpt>
<trkpt lat="48.3267016" lon="14.1581516">
 <ele>255</ele><time>2013-09-28T10:36:13Z</time>
</trkpt>
<trkpt lat="48.3267416" lon="14.1582750">
 <ele>257</ele><time>2013-09-28T10:36:17Z</time>
</trkpt>
<trkpt lat="48.3268183" lon="14.1583916">
 <ele>258</ele><time>2013-09-28T10:36:21Z</time>
</trkpt>
<trkpt lat="48.3268550" lon="14.1585016">
 <ele>259</ele><time>2013-09-28T10:36:25Z</time>
</trkpt>
<trkpt lat="48.3268783" lon="14.1586100">
 <ele>259</ele><time>2013-09-28T10:36:29Z</time>
</trkpt>
<trkpt lat="48.3269016" lon="14.1587033">
 <ele>259</ele><time>2013-09-28T10:36:33Z</time>
</trkpt>
<trkpt lat="48.3269466" lon="14.1588000">
 <ele>258</ele><time>2013-09-28T10:36:37Z</time>
</trkpt>
<trkpt lat="48.3269833" lon="14.1588883">
 <ele>258</ele><time>2013-09-28T10:36:41Z</time>
</trkpt>
<trkpt lat="48.3270166" lon="14.1589683">
 <ele>257</ele><time>2013-09-28T10:36:45Z</time>
</trkpt>
<trkpt lat="48.3270483" lon="14.1590500">
 <ele>255</ele><time>2013-09-28T10:36:49Z</time>
</trkpt>
<trkpt lat="48.3270733" lon="14.1591516">
 <ele>254</ele><time>2013-09-28T10:36:53Z</time>
</trkpt>
<trkpt lat="48.3271033" lon="14.1592666">
 <ele>253</ele><time>2013-09-28T10:36:57Z</time>
</trkpt>
<trkpt lat="48.3271233" lon="14.1593900">
 <ele>252</ele><time>2013-09-28T10:37:01Z</time>
</trkpt>
<trkpt lat="48.3271566" lon="14.1595300">
 <ele>251</ele><time>2013-09-28T10:37:05Z</time>
</trkpt>
<trkpt lat="48.3272016" lon="14.1596366">
 <ele>251</ele><time>2013-09-28T10:37:09Z</time>
</trkpt>
<trkpt lat="48.3272366" lon="14.1597400">
 <ele>252</ele><time>2013-09-28T10:37:13Z</time>
</trkpt>
<trkpt lat="48.3272716" lon="14.1598350">
 <ele>253</ele><time>2013-09-28T10:37:17Z</time>
</trkpt>
<trkpt lat="48.3273050" lon="14.1599316">
 <ele>254</ele><time>2013-09-28T10:37:21Z</time>
</trkpt>
<trkpt lat="48.3273350" lon="14.1600483">
 <ele>254</ele><time>2013-09-28T10:37:25Z</time>
</trkpt>
<trkpt lat="48.3273833" lon="14.1601466">
 <ele>255</ele><time>2013-09-28T10:37:29Z</time>
</trkpt>
<trkpt lat="48.3274433" lon="14.1602466">
 <ele>255</ele><time>2013-09-28T10:37:33Z</time>
</trkpt>
<trkpt lat="48.3274866" lon="14.1603483">
 <ele>255</ele><time>2013-09-28T10:37:37Z</time>
</trkpt>
<trkpt lat="48.3275566" lon="14.1604450">
 <ele>256</ele><time>2013-09-28T10:37:41Z</time>
</trkpt>
<trkpt lat="48.3276133" lon="14.1605316">
 <ele>256</ele><time>2013-09-28T10:37:45Z</time>
</trkpt>
<trkpt lat="48.3276766" lon="14.1606150">
 <ele>256</ele><time>2013-09-28T10:37:49Z</time>
</trkpt>
<trkpt lat="48.3277216" lon="14.1607116">
 <ele>256</ele><time>2013-09-28T10:37:53Z</time>
</trkpt>
<trkpt lat="48.3277533" lon="14.1608100">
 <ele>256</ele><time>2013-09-28T10:37:57Z</time>
</trkpt>
<trkpt lat="48.3277750" lon="14.1609250">
 <ele>256</ele><time>2013-09-28T10:38:01Z</time>
</trkpt>
<trkpt lat="48.3277483" lon="14.1610650">
 <ele>256</ele><time>2013-09-28T10:38:05Z</time>
</trkpt>
<trkpt lat="48.3277366" lon="14.1611733">
 <ele>256</ele><time>2013-09-28T10:38:09Z</time>
</trkpt>
<trkpt lat="48.3277450" lon="14.1612883">
 <ele>256</ele><time>2013-09-28T10:38:13Z</time>
</trkpt>
<trkpt lat="48.3277566" lon="14.1613866">
 <ele>255</ele><time>2013-09-28T10:38:17Z</time>
</trkpt>
<trkpt lat="48.3277750" lon="14.1614766">
 <ele>255</ele><time>2013-09-28T10:38:21Z</time>
</trkpt>
<trkpt lat="48.3277883" lon="14.1615600">
 <ele>254</ele><time>2013-09-28T10:38:25Z</time>
</trkpt>
<trkpt lat="48.3278000" lon="14.1616400">
 <ele>252</ele><time>2013-09-28T10:38:29Z</time>
</trkpt>
<trkpt lat="48.3278216" lon="14.1617000">
 <ele>251</ele><time>2013-09-28T10:38:33Z</time>
</trkpt>
<trkpt lat="48.3278333" lon="14.1617883">
 <ele>251</ele><time>2013-09-28T10:38:37Z</time>
</trkpt>
<trkpt lat="48.3278650" lon="14.1619033">
 <ele>251</ele><time>2013-09-28T10:38:41Z</time>
</trkpt>
<trkpt lat="48.3278850" lon="14.1620116">
 <ele>250</ele><time>2013-09-28T10:38:45Z</time>
</trkpt>
<trkpt lat="48.3279216" lon="14.1621533">
 <ele>250</ele><time>2013-09-28T10:38:49Z</time>
</trkpt>
<trkpt lat="48.3279483" lon="14.1622666">
 <ele>250</ele><time>2013-09-28T10:38:53Z</time>
</trkpt>
<trkpt lat="48.3279666" lon="14.1623833">
 <ele>249</ele><time>2013-09-28T10:38:57Z</time>
</trkpt>
<trkpt lat="48.3279983" lon="14.1624966">
 <ele>249</ele><time>2013-09-28T10:39:01Z</time>
</trkpt>
<trkpt lat="48.3279950" lon="14.1626150">
 <ele>248</ele><time>2013-09-28T10:39:05Z</time>
</trkpt>
<trkpt lat="48.3280216" lon="14.1627733">
 <ele>248</ele><time>2013-09-28T10:39:09Z</time>
</trkpt>
<trkpt lat="48.3280366" lon="14.1628983">
 <ele>248</ele><time>2013-09-28T10:39:13Z</time>
</trkpt>
<trkpt lat="48.3280500" lon="14.1630100">
 <ele>249</ele><time>2013-09-28T10:39:17Z</time>
</trkpt>
<trkpt lat="48.3280500" lon="14.1631150">
 <ele>250</ele><time>2013-09-28T10:39:21Z</time>
</trkpt>
<trkpt lat="48.3280566" lon="14.1632366">
 <ele>252</ele><time>2013-09-28T10:39:25Z</time>
</trkpt>
<trkpt lat="48.3280583" lon="14.1633783">
 <ele>253</ele><time>2013-09-28T10:39:29Z</time>
</trkpt>
<trkpt lat="48.3280750" lon="14.1634950">
 <ele>255</ele><time>2013-09-28T10:39:33Z</time>
</trkpt>
<trkpt lat="48.3280816" lon="14.1636350">
 <ele>256</ele><time>2013-09-28T10:39:37Z</time>
</trkpt>
<trkpt lat="48.3281083" lon="14.1637450">
 <ele>257</ele><time>2013-09-28T10:39:41Z</time>
</trkpt>
<trkpt lat="48.3281383" lon="14.1638666">
 <ele>258</ele><time>2013-09-28T10:39:45Z</time>
</trkpt>
<trkpt lat="48.3281366" lon="14.1639883">
 <ele>258</ele><time>2013-09-28T10:39:49Z</time>
</trkpt>
<trkpt lat="48.3281650" lon="14.1640883">
 <ele>258</ele><time>2013-09-28T10:39:53Z</time>
</trkpt>
<trkpt lat="48.3281983" lon="14.1641800">
 <ele>258</ele><time>2013-09-28T10:39:57Z</time>
</trkpt>
<trkpt lat="48.3282183" lon="14.1642850">
 <ele>257</ele><time>2013-09-28T10:40:01Z</time>
</trkpt>
<trkpt lat="48.3282266" lon="14.1644083">
 <ele>257</ele><time>2013-09-28T10:40:05Z</time>
</trkpt>
<trkpt lat="48.3282250" lon="14.1645450">
 <ele>256</ele><time>2013-09-28T10:40:09Z</time>
</trkpt>
<trkpt lat="48.3282250" lon="14.1646633">
 <ele>256</ele><time>2013-09-28T10:40:13Z</time>
</trkpt>
<trkpt lat="48.3282366" lon="14.1647533">
 <ele>256</ele><time>2013-09-28T10:40:17Z</time>
</trkpt>
<trkpt lat="48.3282533" lon="14.1648466">
 <ele>255</ele><time>2013-09-28T10:40:21Z</time>
</trkpt>
<trkpt lat="48.3282483" lon="14.1650083">
 <ele>255</ele><time>2013-09-28T10:40:25Z</time>
</trkpt>
<trkpt lat="48.3282383" lon="14.1651483">
 <ele>255</ele><time>2013-09-28T10:40:29Z</time>
</trkpt>
<trkpt lat="48.3282283" lon="14.1652733">
 <ele>255</ele><time>2013-09-28T10:40:33Z</time>
</trkpt>
<trkpt lat="48.3282450" lon="14.1654216">
 <ele>255</ele><time>2013-09-28T10:40:37Z</time>
</trkpt>
<trkpt lat="48.3282416" lon="14.1655500">
 <ele>256</ele><time>2013-09-28T10:40:41Z</time>
</trkpt>
<trkpt lat="48.3282483" lon="14.1656683">
 <ele>256</ele><time>2013-09-28T10:40:45Z</time>
</trkpt>
<trkpt lat="48.3282400" lon="14.1657883">
 <ele>256</ele><time>2013-09-28T10:40:49Z</time>
</trkpt>
<trkpt lat="48.3282583" lon="14.1659016">
 <ele>256</ele><time>2013-09-28T10:40:53Z</time>
</trkpt>
<trkpt lat="48.3282850" lon="14.1660150">
 <ele>256</ele><time>2013-09-28T10:40:57Z</time>
</trkpt>
<trkpt lat="48.3283183" lon="14.1661066">
 <ele>256</ele><time>2013-09-28T10:41:01Z</time>
</trkpt>
<trkpt lat="48.3283683" lon="14.1661950">
 <ele>256</ele><time>2013-09-28T10:41:05Z</time>
</trkpt>
<trkpt lat="48.3284250" lon="14.1662616">
 <ele>256</ele><time>2013-09-28T10:41:09Z</time>
</trkpt>
<trkpt lat="48.3284683" lon="14.1663200">
 <ele>257</ele><time>2013-09-28T10:41:13Z</time>
</trkpt>
<trkpt lat="48.3285200" lon="14.1663400">
 <ele>257</ele><time>2013-09-28T10:41:17Z</time>
</trkpt>
<trkpt lat="48.3285750" lon="14.1663400">
 <ele>257</ele><time>2013-09-28T10:41:21Z</time>
</trkpt>
<trkpt lat="48.3286383" lon="14.1663300">
 <ele>258</ele><time>2013-09-28T10:41:25Z</time>
</trkpt>
<trkpt lat="48.3286900" lon="14.1662933">
 <ele>257</ele><time>2013-09-28T10:41:29Z</time>
</trkpt>
<trkpt lat="48.3287550" lon="14.1662500">
 <ele>257</ele><time>2013-09-28T10:41:33Z</time>
</trkpt>
<trkpt lat="48.3288283" lon="14.1662200">
 <ele>256</ele><time>2013-09-28T10:41:37Z</time>
</trkpt>
<trkpt lat="48.3288883" lon="14.1661716">
 <ele>256</ele><time>2013-09-28T10:41:41Z</time>
</trkpt>
<trkpt lat="48.3289483" lon="14.1661350">
 <ele>256</ele><time>2013-09-28T10:41:45Z</time>
</trkpt>
<trkpt lat="48.3290100" lon="14.1660916">
 <ele>255</ele><time>2013-09-28T10:41:49Z</time>
</trkpt>
<trkpt lat="48.3290750" lon="14.1660383">
 <ele>254</ele><time>2013-09-28T10:41:53Z</time>
</trkpt>
<trkpt lat="48.3291483" lon="14.1659783">
 <ele>253</ele><time>2013-09-28T10:41:57Z</time>
</trkpt>
<trkpt lat="48.3292133" lon="14.1659200">
 <ele>252</ele><time>2013-09-28T10:42:01Z</time>
</trkpt>
<trkpt lat="48.3292900" lon="14.1658833">
 <ele>252</ele><time>2013-09-28T10:42:05Z</time>
</trkpt>
<trkpt lat="48.3293516" lon="14.1658533">
 <ele>251</ele><time>2013-09-28T10:42:09Z</time>
</trkpt>
<trkpt lat="48.3294166" lon="14.1657950">
 <ele>251</ele><time>2013-09-28T10:42:13Z</time>
</trkpt>
<trkpt lat="48.3294850" lon="14.1657566">
 <ele>250</ele><time>2013-09-28T10:42:17Z</time>
</trkpt>
<trkpt lat="48.3295650" lon="14.1657683">
 <ele>250</ele><time>2013-09-28T10:42:21Z</time>
</trkpt>
<trkpt lat="48.3296283" lon="14.1657566">
 <ele>250</ele><time>2013-09-28T10:42:25Z</time>
</trkpt>
<trkpt lat="48.3296950" lon="14.1657566">
 <ele>249</ele><time>2013-09-28T10:42:29Z</time>
</trkpt>
<trkpt lat="48.3297600" lon="14.1657316">
 <ele>249</ele><time>2013-09-28T10:42:33Z</time>
</trkpt>
</trkseg>
</trk>
<extensions>
</extensions>
</gpx>